<?xml version="1.0" encoding="UTF-8" standalone="no" ?>
<gpx xmlns="http://www.topografix.com/GPX/1/1" xmlns:xsi="http://www.w3.org/2001/XMLSchema-instance" xsi:schemaLocation="http://www.topografix.com/GPX/1/1 http://www.topografix.com/GPX/1/1/gpx.xsd" version="1.1" creator="VisuGPX - https://www.visugpx.com">
  <metadata>
    <name>randonnée</name>
    <desc><![CDATA[trop chaud pour travailler trop pour marcher comme dit la chanson]]></desc>
  </metadata>
  <trk>
    <name><![CDATA[Tracé actuel: 05 SEPT 2018 13:03]]></name>
    <trkseg>
      <trkpt lat="49.63454" lon="4.98042">
        <ele>159.24</ele>
        <time>2018-09-05T11:03:05Z</time>
      </trkpt>
      <trkpt lat="49.63458" lon="4.98036">
        <ele>168.37</ele>
        <time>2018-09-05T11:03:27Z</time>
      </trkpt>
      <trkpt lat="49.63462" lon="4.9804">
        <ele>181.35</ele>
        <time>2018-09-05T11:03:41Z</time>
      </trkpt>
      <trkpt lat="49.63459" lon="4.98065">
        <ele>180.38</ele>
        <time>2018-09-05T11:03:54Z</time>
      </trkpt>
      <trkpt lat="49.63465" lon="4.98081">
        <ele>181.83</ele>
        <time>2018-09-05T11:04:07Z</time>
      </trkpt>
      <trkpt lat="49.63469" lon="4.98087">
        <ele>181.83</ele>
        <time>2018-09-05T11:04:14Z</time>
      </trkpt>
      <trkpt lat="49.63476" lon="4.98102">
        <ele>184.23</ele>
        <time>2018-09-05T11:04:28Z</time>
      </trkpt>
      <trkpt lat="49.63483" lon="4.98107">
        <ele>182.79</ele>
        <time>2018-09-05T11:04:37Z</time>
      </trkpt>
      <trkpt lat="49.6349" lon="4.9812">
        <ele>180.38</ele>
        <time>2018-09-05T11:04:50Z</time>
      </trkpt>
      <trkpt lat="49.63497" lon="4.98133">
        <ele>179.42</ele>
        <time>2018-09-05T11:05:03Z</time>
      </trkpt>
      <trkpt lat="49.63497" lon="4.98136">
        <ele>179.42</ele>
        <time>2018-09-05T11:05:06Z</time>
      </trkpt>
      <trkpt lat="49.6349" lon="4.98153">
        <ele>178.46</ele>
        <time>2018-09-05T11:05:19Z</time>
      </trkpt>
      <trkpt lat="49.63485" lon="4.98166">
        <ele>178.46</ele>
        <time>2018-09-05T11:05:31Z</time>
      </trkpt>
      <trkpt lat="49.63479" lon="4.9818">
        <ele>178.46</ele>
        <time>2018-09-05T11:05:42Z</time>
      </trkpt>
      <trkpt lat="49.63479" lon="4.98183">
        <ele>178.46</ele>
        <time>2018-09-05T11:05:45Z</time>
      </trkpt>
      <trkpt lat="49.63474" lon="4.98201">
        <ele>178.94</ele>
        <time>2018-09-05T11:05:59Z</time>
      </trkpt>
      <trkpt lat="49.63466" lon="4.98215">
        <ele>179.42</ele>
        <time>2018-09-05T11:06:12Z</time>
      </trkpt>
      <trkpt lat="49.63457" lon="4.98229">
        <ele>180.87</ele>
        <time>2018-09-05T11:06:25Z</time>
      </trkpt>
      <trkpt lat="49.6345" lon="4.98241">
        <ele>180.38</ele>
        <time>2018-09-05T11:06:38Z</time>
      </trkpt>
      <trkpt lat="49.63439" lon="4.98255">
        <ele>180.38</ele>
        <time>2018-09-05T11:06:53Z</time>
      </trkpt>
      <trkpt lat="49.63429" lon="4.98266">
        <ele>180.38</ele>
        <time>2018-09-05T11:07:05Z</time>
      </trkpt>
      <trkpt lat="49.6342" lon="4.98276">
        <ele>180.87</ele>
        <time>2018-09-05T11:07:17Z</time>
      </trkpt>
      <trkpt lat="49.63408" lon="4.98288">
        <ele>182.79</ele>
        <time>2018-09-05T11:07:32Z</time>
      </trkpt>
      <trkpt lat="49.63398" lon="4.98298">
        <ele>182.79</ele>
        <time>2018-09-05T11:07:44Z</time>
      </trkpt>
      <trkpt lat="49.63388" lon="4.98306">
        <ele>183.27</ele>
        <time>2018-09-05T11:07:55Z</time>
      </trkpt>
      <trkpt lat="49.63381" lon="4.9831">
        <ele>183.75</ele>
        <time>2018-09-05T11:08:05Z</time>
      </trkpt>
      <trkpt lat="49.63368" lon="4.98322">
        <ele>187.59</ele>
        <time>2018-09-05T11:08:18Z</time>
      </trkpt>
      <trkpt lat="49.63359" lon="4.98329">
        <ele>188.56</ele>
        <time>2018-09-05T11:08:29Z</time>
      </trkpt>
      <trkpt lat="49.63346" lon="4.98336">
        <ele>189.52</ele>
        <time>2018-09-05T11:08:42Z</time>
      </trkpt>
      <trkpt lat="49.63332" lon="4.98341">
        <ele>192.88</ele>
        <time>2018-09-05T11:08:56Z</time>
      </trkpt>
      <trkpt lat="49.63315" lon="4.98336">
        <ele>195.77</ele>
        <time>2018-09-05T11:09:12Z</time>
      </trkpt>
      <trkpt lat="49.63301" lon="4.98331">
        <ele>198.17</ele>
        <time>2018-09-05T11:09:24Z</time>
      </trkpt>
      <trkpt lat="49.63287" lon="4.98332">
        <ele>200.09</ele>
        <time>2018-09-05T11:09:37Z</time>
      </trkpt>
      <trkpt lat="49.63274" lon="4.98335">
        <ele>202.49</ele>
        <time>2018-09-05T11:09:50Z</time>
      </trkpt>
      <trkpt lat="49.63261" lon="4.98336">
        <ele>203.46</ele>
        <time>2018-09-05T11:10:02Z</time>
      </trkpt>
      <trkpt lat="49.63249" lon="4.98335">
        <ele>204.42</ele>
        <time>2018-09-05T11:10:13Z</time>
      </trkpt>
      <trkpt lat="49.63244" lon="4.98335">
        <ele>204.9</ele>
        <time>2018-09-05T11:10:18Z</time>
      </trkpt>
      <trkpt lat="49.63238" lon="4.98333">
        <ele>205.38</ele>
        <time>2018-09-05T11:10:25Z</time>
      </trkpt>
      <trkpt lat="49.63225" lon="4.9833">
        <ele>207.3</ele>
        <time>2018-09-05T11:10:37Z</time>
      </trkpt>
      <trkpt lat="49.63213" lon="4.98326">
        <ele>210.67</ele>
        <time>2018-09-05T11:10:50Z</time>
      </trkpt>
      <trkpt lat="49.63209" lon="4.98324">
        <ele>211.63</ele>
        <time>2018-09-05T11:10:54Z</time>
      </trkpt>
      <trkpt lat="49.63201" lon="4.98322">
        <ele>213.55</ele>
        <time>2018-09-05T11:11:07Z</time>
      </trkpt>
      <trkpt lat="49.63188" lon="4.98322">
        <ele>214.51</ele>
        <time>2018-09-05T11:11:20Z</time>
      </trkpt>
      <trkpt lat="49.63177" lon="4.98319">
        <ele>214.51</ele>
        <time>2018-09-05T11:11:30Z</time>
      </trkpt>
      <trkpt lat="49.63168" lon="4.98321">
        <ele>214.51</ele>
        <time>2018-09-05T11:11:38Z</time>
      </trkpt>
      <trkpt lat="49.63153" lon="4.98322">
        <ele>215.47</ele>
        <time>2018-09-05T11:11:51Z</time>
      </trkpt>
      <trkpt lat="49.63142" lon="4.98321">
        <ele>215.95</ele>
        <time>2018-09-05T11:12:02Z</time>
      </trkpt>
      <trkpt lat="49.6313" lon="4.98322">
        <ele>215.95</ele>
        <time>2018-09-05T11:12:15Z</time>
      </trkpt>
      <trkpt lat="49.63122" lon="4.98324">
        <ele>215.95</ele>
        <time>2018-09-05T11:12:27Z</time>
      </trkpt>
      <trkpt lat="49.63121" lon="4.98326">
        <ele>216.43</ele>
        <time>2018-09-05T11:12:33Z</time>
      </trkpt>
      <trkpt lat="49.63108" lon="4.98325">
        <ele>217.88</ele>
        <time>2018-09-05T11:12:45Z</time>
      </trkpt>
      <trkpt lat="49.63094" lon="4.9832">
        <ele>219.32</ele>
        <time>2018-09-05T11:12:57Z</time>
      </trkpt>
      <trkpt lat="49.63083" lon="4.98318">
        <ele>220.76</ele>
        <time>2018-09-05T11:13:09Z</time>
      </trkpt>
      <trkpt lat="49.63069" lon="4.98315">
        <ele>221.72</ele>
        <time>2018-09-05T11:13:21Z</time>
      </trkpt>
      <trkpt lat="49.63059" lon="4.98313">
        <ele>222.68</ele>
        <time>2018-09-05T11:13:33Z</time>
      </trkpt>
      <trkpt lat="49.63052" lon="4.98314">
        <ele>223.64</ele>
        <time>2018-09-05T11:13:42Z</time>
      </trkpt>
      <trkpt lat="49.63037" lon="4.98307">
        <ele>225.57</ele>
        <time>2018-09-05T11:13:55Z</time>
      </trkpt>
      <trkpt lat="49.6302" lon="4.98306">
        <ele>226.05</ele>
        <time>2018-09-05T11:14:08Z</time>
      </trkpt>
      <trkpt lat="49.63011" lon="4.98305">
        <ele>227.01</ele>
        <time>2018-09-05T11:14:18Z</time>
      </trkpt>
      <trkpt lat="49.62998" lon="4.98303">
        <ele>229.89</ele>
        <time>2018-09-05T11:14:31Z</time>
      </trkpt>
      <trkpt lat="49.62984" lon="4.98304">
        <ele>229.89</ele>
        <time>2018-09-05T11:14:43Z</time>
      </trkpt>
      <trkpt lat="49.62976" lon="4.98304">
        <ele>229.89</ele>
        <time>2018-09-05T11:14:50Z</time>
      </trkpt>
      <trkpt lat="49.62972" lon="4.98305">
        <ele>229.41</ele>
        <time>2018-09-05T11:14:54Z</time>
      </trkpt>
      <trkpt lat="49.62955" lon="4.98301">
        <ele>230.37</ele>
        <time>2018-09-05T11:15:08Z</time>
      </trkpt>
      <trkpt lat="49.62941" lon="4.98302">
        <ele>231.33</ele>
        <time>2018-09-05T11:15:21Z</time>
      </trkpt>
      <trkpt lat="49.62927" lon="4.98304">
        <ele>230.37</ele>
        <time>2018-09-05T11:15:34Z</time>
      </trkpt>
      <trkpt lat="49.62918" lon="4.98309">
        <ele>231.33</ele>
        <time>2018-09-05T11:15:45Z</time>
      </trkpt>
      <trkpt lat="49.62906" lon="4.98315">
        <ele>233.74</ele>
        <time>2018-09-05T11:15:57Z</time>
      </trkpt>
      <trkpt lat="49.62898" lon="4.98318">
        <ele>235.66</ele>
        <time>2018-09-05T11:16:05Z</time>
      </trkpt>
      <trkpt lat="49.62885" lon="4.98324">
        <ele>235.18</ele>
        <time>2018-09-05T11:16:20Z</time>
      </trkpt>
      <trkpt lat="49.62875" lon="4.98329">
        <ele>233.26</ele>
        <time>2018-09-05T11:16:32Z</time>
      </trkpt>
      <trkpt lat="49.62865" lon="4.98334">
        <ele>233.74</ele>
        <time>2018-09-05T11:16:41Z</time>
      </trkpt>
      <trkpt lat="49.62858" lon="4.9834">
        <ele>234.7</ele>
        <time>2018-09-05T11:16:54Z</time>
      </trkpt>
      <trkpt lat="49.62845" lon="4.98343">
        <ele>237.1</ele>
        <time>2018-09-05T11:17:08Z</time>
      </trkpt>
      <trkpt lat="49.62842" lon="4.98346">
        <ele>237.1</ele>
        <time>2018-09-05T11:17:13Z</time>
      </trkpt>
      <trkpt lat="49.6283" lon="4.98357">
        <ele>236.14</ele>
        <time>2018-09-05T11:17:28Z</time>
      </trkpt>
      <trkpt lat="49.62822" lon="4.98368">
        <ele>239.99</ele>
        <time>2018-09-05T11:17:43Z</time>
      </trkpt>
      <trkpt lat="49.62813" lon="4.98375">
        <ele>245.27</ele>
        <time>2018-09-05T11:17:56Z</time>
      </trkpt>
      <trkpt lat="49.62804" lon="4.98381">
        <ele>249.12</ele>
        <time>2018-09-05T11:18:10Z</time>
      </trkpt>
      <trkpt lat="49.62791" lon="4.98389">
        <ele>250.56</ele>
        <time>2018-09-05T11:18:24Z</time>
      </trkpt>
      <trkpt lat="49.62775" lon="4.98398">
        <ele>250.08</ele>
        <time>2018-09-05T11:18:39Z</time>
      </trkpt>
      <trkpt lat="49.62763" lon="4.9841">
        <ele>254.89</ele>
        <time>2018-09-05T11:18:53Z</time>
      </trkpt>
      <trkpt lat="49.62757" lon="4.98415">
        <ele>255.85</ele>
        <time>2018-09-05T11:18:59Z</time>
      </trkpt>
      <trkpt lat="49.62746" lon="4.98425">
        <ele>259.69</ele>
        <time>2018-09-05T11:19:11Z</time>
      </trkpt>
      <trkpt lat="49.62735" lon="4.98435">
        <ele>263.54</ele>
        <time>2018-09-05T11:19:25Z</time>
      </trkpt>
      <trkpt lat="49.62728" lon="4.98442">
        <ele>263.06</ele>
        <time>2018-09-05T11:19:38Z</time>
      </trkpt>
      <trkpt lat="49.62707" lon="4.98457">
        <ele>261.62</ele>
        <time>2018-09-05T11:19:53Z</time>
      </trkpt>
      <trkpt lat="49.62695" lon="4.98467">
        <ele>261.62</ele>
        <time>2018-09-05T11:20:07Z</time>
      </trkpt>
      <trkpt lat="49.62685" lon="4.98475">
        <ele>261.62</ele>
        <time>2018-09-05T11:20:20Z</time>
      </trkpt>
      <trkpt lat="49.6267" lon="4.98488">
        <ele>261.62</ele>
        <time>2018-09-05T11:20:37Z</time>
      </trkpt>
      <trkpt lat="49.62653" lon="4.98502">
        <ele>261.62</ele>
        <time>2018-09-05T11:20:53Z</time>
      </trkpt>
      <trkpt lat="49.6264" lon="4.98512">
        <ele>260.65</ele>
        <time>2018-09-05T11:21:06Z</time>
      </trkpt>
      <trkpt lat="49.62629" lon="4.98522">
        <ele>260.17</ele>
        <time>2018-09-05T11:21:20Z</time>
      </trkpt>
      <trkpt lat="49.62619" lon="4.98533">
        <ele>259.21</ele>
        <time>2018-09-05T11:21:33Z</time>
      </trkpt>
      <trkpt lat="49.62612" lon="4.98542">
        <ele>259.69</ele>
        <time>2018-09-05T11:21:46Z</time>
      </trkpt>
      <trkpt lat="49.62607" lon="4.98546">
        <ele>259.21</ele>
        <time>2018-09-05T11:21:52Z</time>
      </trkpt>
      <trkpt lat="49.62589" lon="4.98558">
        <ele>258.25</ele>
        <time>2018-09-05T11:22:06Z</time>
      </trkpt>
      <trkpt lat="49.62575" lon="4.98569">
        <ele>260.17</ele>
        <time>2018-09-05T11:22:20Z</time>
      </trkpt>
      <trkpt lat="49.62558" lon="4.9858">
        <ele>259.21</ele>
        <time>2018-09-05T11:22:33Z</time>
      </trkpt>
      <trkpt lat="49.62558" lon="4.98582">
        <ele>259.21</ele>
        <time>2018-09-05T11:22:38Z</time>
      </trkpt>
      <trkpt lat="49.62556" lon="4.98578">
        <ele>258.73</ele>
        <time>2018-09-05T11:22:43Z</time>
      </trkpt>
      <trkpt lat="49.62554" lon="4.98561">
        <ele>258.25</ele>
        <time>2018-09-05T11:22:56Z</time>
      </trkpt>
      <trkpt lat="49.62551" lon="4.98556">
        <ele>258.73</ele>
        <time>2018-09-05T11:23:03Z</time>
      </trkpt>
      <trkpt lat="49.62544" lon="4.98556">
        <ele>258.25</ele>
        <time>2018-09-05T11:23:10Z</time>
      </trkpt>
      <trkpt lat="49.6253" lon="4.98561">
        <ele>254.41</ele>
        <time>2018-09-05T11:23:24Z</time>
      </trkpt>
      <trkpt lat="49.62516" lon="4.98561">
        <ele>253.93</ele>
        <time>2018-09-05T11:23:38Z</time>
      </trkpt>
      <trkpt lat="49.62511" lon="4.98559">
        <ele>254.41</ele>
        <time>2018-09-05T11:23:45Z</time>
      </trkpt>
      <trkpt lat="49.62496" lon="4.9855">
        <ele>254.41</ele>
        <time>2018-09-05T11:23:57Z</time>
      </trkpt>
      <trkpt lat="49.62485" lon="4.98542">
        <ele>256.33</ele>
        <time>2018-09-05T11:24:10Z</time>
      </trkpt>
      <trkpt lat="49.62473" lon="4.98534">
        <ele>258.25</ele>
        <time>2018-09-05T11:24:22Z</time>
      </trkpt>
      <trkpt lat="49.6246" lon="4.98526">
        <ele>258.25</ele>
        <time>2018-09-05T11:24:35Z</time>
      </trkpt>
      <trkpt lat="49.62448" lon="4.98518">
        <ele>258.73</ele>
        <time>2018-09-05T11:24:48Z</time>
      </trkpt>
      <trkpt lat="49.62435" lon="4.98507">
        <ele>259.69</ele>
        <time>2018-09-05T11:25:01Z</time>
      </trkpt>
      <trkpt lat="49.62425" lon="4.98498">
        <ele>258.73</ele>
        <time>2018-09-05T11:25:12Z</time>
      </trkpt>
      <trkpt lat="49.62422" lon="4.98496">
        <ele>258.73</ele>
        <time>2018-09-05T11:25:15Z</time>
      </trkpt>
      <trkpt lat="49.6241" lon="4.98486">
        <ele>258.73</ele>
        <time>2018-09-05T11:25:28Z</time>
      </trkpt>
      <trkpt lat="49.62398" lon="4.98477">
        <ele>258.25</ele>
        <time>2018-09-05T11:25:41Z</time>
      </trkpt>
      <trkpt lat="49.62396" lon="4.98475">
        <ele>258.25</ele>
        <time>2018-09-05T11:25:42Z</time>
      </trkpt>
      <trkpt lat="49.62382" lon="4.98466">
        <ele>258.25</ele>
        <time>2018-09-05T11:25:57Z</time>
      </trkpt>
      <trkpt lat="49.62369" lon="4.98459">
        <ele>259.21</ele>
        <time>2018-09-05T11:26:09Z</time>
      </trkpt>
      <trkpt lat="49.62356" lon="4.98452">
        <ele>262.58</ele>
        <time>2018-09-05T11:26:21Z</time>
      </trkpt>
      <trkpt lat="49.62354" lon="4.98451">
        <ele>263.54</ele>
        <time>2018-09-05T11:26:24Z</time>
      </trkpt>
      <trkpt lat="49.62339" lon="4.98439">
        <ele>266.42</ele>
        <time>2018-09-05T11:26:38Z</time>
      </trkpt>
      <trkpt lat="49.62329" lon="4.98431">
        <ele>268.35</ele>
        <time>2018-09-05T11:26:51Z</time>
      </trkpt>
      <trkpt lat="49.62318" lon="4.98418">
        <ele>268.35</ele>
        <time>2018-09-05T11:27:04Z</time>
      </trkpt>
      <trkpt lat="49.62309" lon="4.98407">
        <ele>268.83</ele>
        <time>2018-09-05T11:27:16Z</time>
      </trkpt>
      <trkpt lat="49.623" lon="4.98393">
        <ele>270.27</ele>
        <time>2018-09-05T11:27:30Z</time>
      </trkpt>
      <trkpt lat="49.62291" lon="4.9838">
        <ele>270.75</ele>
        <time>2018-09-05T11:27:43Z</time>
      </trkpt>
      <trkpt lat="49.62289" lon="4.98376">
        <ele>270.75</ele>
        <time>2018-09-05T11:27:49Z</time>
      </trkpt>
      <trkpt lat="49.62282" lon="4.98364">
        <ele>273.15</ele>
        <time>2018-09-05T11:27:58Z</time>
      </trkpt>
      <trkpt lat="49.62273" lon="4.98348">
        <ele>278.44</ele>
        <time>2018-09-05T11:28:12Z</time>
      </trkpt>
      <trkpt lat="49.62267" lon="4.98332">
        <ele>282.28</ele>
        <time>2018-09-05T11:28:28Z</time>
      </trkpt>
      <trkpt lat="49.62255" lon="4.98319">
        <ele>286.61</ele>
        <time>2018-09-05T11:28:44Z</time>
      </trkpt>
      <trkpt lat="49.6224" lon="4.98309">
        <ele>289.49</ele>
        <time>2018-09-05T11:29:04Z</time>
      </trkpt>
      <trkpt lat="49.62228" lon="4.983">
        <ele>294.3</ele>
        <time>2018-09-05T11:29:20Z</time>
      </trkpt>
      <trkpt lat="49.62218" lon="4.98291">
        <ele>298.63</ele>
        <time>2018-09-05T11:29:39Z</time>
      </trkpt>
      <trkpt lat="49.62208" lon="4.98289">
        <ele>297.18</ele>
        <time>2018-09-05T11:29:56Z</time>
      </trkpt>
      <trkpt lat="49.62206" lon="4.9829">
        <ele>296.7</ele>
        <time>2018-09-05T11:29:57Z</time>
      </trkpt>
      <trkpt lat="49.62182" lon="4.98289">
        <ele>297.67</ele>
        <time>2018-09-05T11:30:16Z</time>
      </trkpt>
      <trkpt lat="49.62177" lon="4.9829">
        <ele>298.15</ele>
        <time>2018-09-05T11:30:20Z</time>
      </trkpt>
      <trkpt lat="49.62155" lon="4.98279">
        <ele>298.15</ele>
        <time>2018-09-05T11:30:35Z</time>
      </trkpt>
      <trkpt lat="49.62143" lon="4.98269">
        <ele>297.18</ele>
        <time>2018-09-05T11:30:46Z</time>
      </trkpt>
      <trkpt lat="49.62123" lon="4.98253">
        <ele>293.82</ele>
        <time>2018-09-05T11:31:00Z</time>
      </trkpt>
      <trkpt lat="49.62103" lon="4.98239">
        <ele>289.97</ele>
        <time>2018-09-05T11:31:13Z</time>
      </trkpt>
      <trkpt lat="49.62102" lon="4.98239">
        <ele>289.97</ele>
        <time>2018-09-05T11:31:14Z</time>
      </trkpt>
      <trkpt lat="49.62085" lon="4.98229">
        <ele>290.46</ele>
        <time>2018-09-05T11:31:28Z</time>
      </trkpt>
      <trkpt lat="49.6207" lon="4.98218">
        <ele>290.46</ele>
        <time>2018-09-05T11:31:42Z</time>
      </trkpt>
      <trkpt lat="49.62053" lon="4.98206">
        <ele>291.42</ele>
        <time>2018-09-05T11:31:56Z</time>
      </trkpt>
      <trkpt lat="49.62041" lon="4.98197">
        <ele>291.9</ele>
        <time>2018-09-05T11:32:09Z</time>
      </trkpt>
      <trkpt lat="49.62028" lon="4.9819">
        <ele>293.34</ele>
        <time>2018-09-05T11:32:21Z</time>
      </trkpt>
      <trkpt lat="49.62017" lon="4.98186">
        <ele>294.78</ele>
        <time>2018-09-05T11:32:33Z</time>
      </trkpt>
      <trkpt lat="49.62004" lon="4.98178">
        <ele>297.18</ele>
        <time>2018-09-05T11:32:47Z</time>
      </trkpt>
      <trkpt lat="49.6199" lon="4.9817">
        <ele>298.15</ele>
        <time>2018-09-05T11:32:59Z</time>
      </trkpt>
      <trkpt lat="49.61978" lon="4.98167">
        <ele>298.15</ele>
        <time>2018-09-05T11:33:11Z</time>
      </trkpt>
      <trkpt lat="49.61968" lon="4.98165">
        <ele>300.07</ele>
        <time>2018-09-05T11:33:24Z</time>
      </trkpt>
      <trkpt lat="49.61963" lon="4.98161">
        <ele>301.03</ele>
        <time>2018-09-05T11:33:37Z</time>
      </trkpt>
      <trkpt lat="49.61959" lon="4.9816">
        <ele>303.43</ele>
        <time>2018-09-05T11:33:52Z</time>
      </trkpt>
      <trkpt lat="49.61951" lon="4.98158">
        <ele>306.32</ele>
        <time>2018-09-05T11:34:08Z</time>
      </trkpt>
      <trkpt lat="49.61937" lon="4.98159">
        <ele>306.8</ele>
        <time>2018-09-05T11:34:25Z</time>
      </trkpt>
      <trkpt lat="49.6191" lon="4.98158">
        <ele>304.39</ele>
        <time>2018-09-05T11:34:38Z</time>
      </trkpt>
      <trkpt lat="49.61908" lon="4.98158">
        <ele>303.91</ele>
        <time>2018-09-05T11:34:39Z</time>
      </trkpt>
      <trkpt lat="49.61882" lon="4.98158">
        <ele>303.43</ele>
        <time>2018-09-05T11:34:56Z</time>
      </trkpt>
      <trkpt lat="49.61861" lon="4.98165">
        <ele>302.95</ele>
        <time>2018-09-05T11:35:12Z</time>
      </trkpt>
      <trkpt lat="49.61832" lon="4.98175">
        <ele>300.07</ele>
        <time>2018-09-05T11:35:27Z</time>
      </trkpt>
      <trkpt lat="49.6183" lon="4.98176">
        <ele>300.07</ele>
        <time>2018-09-05T11:35:28Z</time>
      </trkpt>
      <trkpt lat="49.61825" lon="4.98179">
        <ele>301.51</ele>
        <time>2018-09-05T11:35:41Z</time>
      </trkpt>
      <trkpt lat="49.61817" lon="4.98194">
        <ele>301.51</ele>
        <time>2018-09-05T11:35:55Z</time>
      </trkpt>
      <trkpt lat="49.61815" lon="4.98209">
        <ele>300.55</ele>
        <time>2018-09-05T11:36:05Z</time>
      </trkpt>
      <trkpt lat="49.61811" lon="4.9823">
        <ele>301.03</ele>
        <time>2018-09-05T11:36:17Z</time>
      </trkpt>
      <trkpt lat="49.6181" lon="4.98235">
        <ele>301.51</ele>
        <time>2018-09-05T11:36:21Z</time>
      </trkpt>
      <trkpt lat="49.61808" lon="4.98242">
        <ele>301.51</ele>
        <time>2018-09-05T11:36:25Z</time>
      </trkpt>
      <trkpt lat="49.61805" lon="4.98249">
        <ele>301.03</ele>
        <time>2018-09-05T11:36:31Z</time>
      </trkpt>
      <trkpt lat="49.61804" lon="4.98274">
        <ele>299.59</ele>
        <time>2018-09-05T11:36:45Z</time>
      </trkpt>
      <trkpt lat="49.61804" lon="4.98296">
        <ele>298.63</ele>
        <time>2018-09-05T11:36:58Z</time>
      </trkpt>
      <trkpt lat="49.61801" lon="4.98305">
        <ele>298.63</ele>
        <time>2018-09-05T11:37:04Z</time>
      </trkpt>
      <trkpt lat="49.61791" lon="4.98322">
        <ele>300.07</ele>
        <time>2018-09-05T11:37:18Z</time>
      </trkpt>
      <trkpt lat="49.61792" lon="4.98325">
        <ele>300.07</ele>
        <time>2018-09-05T11:37:20Z</time>
      </trkpt>
      <trkpt lat="49.61791" lon="4.9834">
        <ele>301.03</ele>
        <time>2018-09-05T11:37:30Z</time>
      </trkpt>
      <trkpt lat="49.61787" lon="4.98356">
        <ele>301.51</ele>
        <time>2018-09-05T11:37:41Z</time>
      </trkpt>
      <trkpt lat="49.61787" lon="4.9837">
        <ele>301.03</ele>
        <time>2018-09-05T11:37:50Z</time>
      </trkpt>
      <trkpt lat="49.61783" lon="4.98387">
        <ele>302.95</ele>
        <time>2018-09-05T11:38:03Z</time>
      </trkpt>
      <trkpt lat="49.61782" lon="4.98404">
        <ele>301.99</ele>
        <time>2018-09-05T11:38:17Z</time>
      </trkpt>
      <trkpt lat="49.61774" lon="4.98423">
        <ele>301.99</ele>
        <time>2018-09-05T11:38:30Z</time>
      </trkpt>
      <trkpt lat="49.61769" lon="4.98432">
        <ele>301.51</ele>
        <time>2018-09-05T11:38:35Z</time>
      </trkpt>
      <trkpt lat="49.61762" lon="4.98448">
        <ele>301.99</ele>
        <time>2018-09-05T11:38:46Z</time>
      </trkpt>
      <trkpt lat="49.61762" lon="4.98453">
        <ele>302.47</ele>
        <time>2018-09-05T11:38:50Z</time>
      </trkpt>
      <trkpt lat="49.6176" lon="4.98468">
        <ele>302.95</ele>
        <time>2018-09-05T11:39:00Z</time>
      </trkpt>
      <trkpt lat="49.61759" lon="4.98477">
        <ele>303.43</ele>
        <time>2018-09-05T11:39:05Z</time>
      </trkpt>
      <trkpt lat="49.61754" lon="4.98497">
        <ele>304.88</ele>
        <time>2018-09-05T11:39:19Z</time>
      </trkpt>
      <trkpt lat="49.61747" lon="4.98518">
        <ele>306.8</ele>
        <time>2018-09-05T11:39:33Z</time>
      </trkpt>
      <trkpt lat="49.61747" lon="4.9852">
        <ele>306.8</ele>
        <time>2018-09-05T11:39:35Z</time>
      </trkpt>
      <trkpt lat="49.61745" lon="4.98526">
        <ele>307.28</ele>
        <time>2018-09-05T11:39:39Z</time>
      </trkpt>
      <trkpt lat="49.61746" lon="4.98534">
        <ele>306.8</ele>
        <time>2018-09-05T11:39:45Z</time>
      </trkpt>
      <trkpt lat="49.61745" lon="4.98542">
        <ele>306.32</ele>
        <time>2018-09-05T11:39:49Z</time>
      </trkpt>
      <trkpt lat="49.61744" lon="4.98555">
        <ele>304.88</ele>
        <time>2018-09-05T11:39:57Z</time>
      </trkpt>
      <trkpt lat="49.61743" lon="4.98569">
        <ele>305.36</ele>
        <time>2018-09-05T11:40:06Z</time>
      </trkpt>
      <trkpt lat="49.61737" lon="4.98586">
        <ele>306.8</ele>
        <time>2018-09-05T11:40:18Z</time>
      </trkpt>
      <trkpt lat="49.61738" lon="4.98587">
        <ele>306.8</ele>
        <time>2018-09-05T11:40:19Z</time>
      </trkpt>
      <trkpt lat="49.61739" lon="4.98593">
        <ele>307.28</ele>
        <time>2018-09-05T11:40:22Z</time>
      </trkpt>
      <trkpt lat="49.61731" lon="4.98616">
        <ele>306.8</ele>
        <time>2018-09-05T11:40:36Z</time>
      </trkpt>
      <trkpt lat="49.61726" lon="4.98627">
        <ele>307.28</ele>
        <time>2018-09-05T11:40:43Z</time>
      </trkpt>
      <trkpt lat="49.61724" lon="4.98648">
        <ele>307.76</ele>
        <time>2018-09-05T11:40:57Z</time>
      </trkpt>
      <trkpt lat="49.61722" lon="4.98657">
        <ele>307.76</ele>
        <time>2018-09-05T11:41:03Z</time>
      </trkpt>
      <trkpt lat="49.61713" lon="4.98677">
        <ele>307.28</ele>
        <time>2018-09-05T11:41:17Z</time>
      </trkpt>
      <trkpt lat="49.61709" lon="4.98694">
        <ele>307.76</ele>
        <time>2018-09-05T11:41:29Z</time>
      </trkpt>
      <trkpt lat="49.61707" lon="4.98703">
        <ele>308.24</ele>
        <time>2018-09-05T11:41:36Z</time>
      </trkpt>
      <trkpt lat="49.61701" lon="4.98716">
        <ele>308.72</ele>
        <time>2018-09-05T11:41:46Z</time>
      </trkpt>
      <trkpt lat="49.61696" lon="4.98725">
        <ele>309.2</ele>
        <time>2018-09-05T11:41:54Z</time>
      </trkpt>
      <trkpt lat="49.61692" lon="4.98732">
        <ele>309.2</ele>
        <time>2018-09-05T11:42:03Z</time>
      </trkpt>
      <trkpt lat="49.61684" lon="4.98745">
        <ele>309.2</ele>
        <time>2018-09-05T11:42:15Z</time>
      </trkpt>
      <trkpt lat="49.61673" lon="4.98765">
        <ele>309.68</ele>
        <time>2018-09-05T11:42:30Z</time>
      </trkpt>
      <trkpt lat="49.61664" lon="4.98781">
        <ele>309.68</ele>
        <time>2018-09-05T11:42:42Z</time>
      </trkpt>
      <trkpt lat="49.61658" lon="4.98792">
        <ele>309.68</ele>
        <time>2018-09-05T11:42:51Z</time>
      </trkpt>
      <trkpt lat="49.61655" lon="4.98812">
        <ele>311.12</ele>
        <time>2018-09-05T11:43:06Z</time>
      </trkpt>
      <trkpt lat="49.61645" lon="4.98831">
        <ele>313.05</ele>
        <time>2018-09-05T11:43:19Z</time>
      </trkpt>
      <trkpt lat="49.61639" lon="4.98845">
        <ele>314.97</ele>
        <time>2018-09-05T11:43:30Z</time>
      </trkpt>
      <trkpt lat="49.61633" lon="4.9886">
        <ele>315.93</ele>
        <time>2018-09-05T11:43:43Z</time>
      </trkpt>
      <trkpt lat="49.61632" lon="4.98869">
        <ele>316.41</ele>
        <time>2018-09-05T11:43:54Z</time>
      </trkpt>
      <trkpt lat="49.61629" lon="4.98876">
        <ele>317.85</ele>
        <time>2018-09-05T11:43:59Z</time>
      </trkpt>
      <trkpt lat="49.61622" lon="4.98887">
        <ele>319.78</ele>
        <time>2018-09-05T11:44:06Z</time>
      </trkpt>
      <trkpt lat="49.61616" lon="4.98906">
        <ele>324.1</ele>
        <time>2018-09-05T11:44:21Z</time>
      </trkpt>
      <trkpt lat="49.61606" lon="4.98919">
        <ele>324.1</ele>
        <time>2018-09-05T11:44:33Z</time>
      </trkpt>
      <trkpt lat="49.61605" lon="4.98922">
        <ele>324.1</ele>
        <time>2018-09-05T11:44:35Z</time>
      </trkpt>
      <trkpt lat="49.61597" lon="4.98939">
        <ele>322.18</ele>
        <time>2018-09-05T11:44:47Z</time>
      </trkpt>
      <trkpt lat="49.61592" lon="4.98949">
        <ele>321.22</ele>
        <time>2018-09-05T11:44:54Z</time>
      </trkpt>
      <trkpt lat="49.61589" lon="4.98967">
        <ele>322.18</ele>
        <time>2018-09-05T11:45:06Z</time>
      </trkpt>
      <trkpt lat="49.61586" lon="4.98988">
        <ele>322.66</ele>
        <time>2018-09-05T11:45:19Z</time>
      </trkpt>
      <trkpt lat="49.61582" lon="4.99002">
        <ele>322.66</ele>
        <time>2018-09-05T11:45:30Z</time>
      </trkpt>
      <trkpt lat="49.61571" lon="4.9902">
        <ele>322.18</ele>
        <time>2018-09-05T11:45:43Z</time>
      </trkpt>
      <trkpt lat="49.61563" lon="4.99037">
        <ele>322.18</ele>
        <time>2018-09-05T11:45:55Z</time>
      </trkpt>
      <trkpt lat="49.61562" lon="4.99046">
        <ele>322.66</ele>
        <time>2018-09-05T11:46:04Z</time>
      </trkpt>
      <trkpt lat="49.61561" lon="4.9906">
        <ele>324.1</ele>
        <time>2018-09-05T11:46:15Z</time>
      </trkpt>
      <trkpt lat="49.61552" lon="4.99075">
        <ele>324.1</ele>
        <time>2018-09-05T11:46:24Z</time>
      </trkpt>
      <trkpt lat="49.61551" lon="4.99084">
        <ele>323.14</ele>
        <time>2018-09-05T11:46:32Z</time>
      </trkpt>
      <trkpt lat="49.61551" lon="4.99087">
        <ele>322.66</ele>
        <time>2018-09-05T11:46:34Z</time>
      </trkpt>
      <trkpt lat="49.61546" lon="4.991">
        <ele>323.14</ele>
        <time>2018-09-05T11:46:43Z</time>
      </trkpt>
      <trkpt lat="49.6154" lon="4.99115">
        <ele>320.74</ele>
        <time>2018-09-05T11:46:56Z</time>
      </trkpt>
      <trkpt lat="49.61533" lon="4.99137">
        <ele>315.93</ele>
        <time>2018-09-05T11:47:09Z</time>
      </trkpt>
      <trkpt lat="49.61523" lon="4.99157">
        <ele>312.57</ele>
        <time>2018-09-05T11:47:22Z</time>
      </trkpt>
      <trkpt lat="49.61513" lon="4.99173">
        <ele>313.05</ele>
        <time>2018-09-05T11:47:37Z</time>
      </trkpt>
      <trkpt lat="49.61511" lon="4.99175">
        <ele>313.05</ele>
        <time>2018-09-05T11:47:40Z</time>
      </trkpt>
      <trkpt lat="49.61502" lon="4.99184">
        <ele>314.49</ele>
        <time>2018-09-05T11:47:58Z</time>
      </trkpt>
      <trkpt lat="49.61491" lon="4.99194">
        <ele>315.45</ele>
        <time>2018-09-05T11:48:14Z</time>
      </trkpt>
      <trkpt lat="49.6149" lon="4.99197">
        <ele>314.97</ele>
        <time>2018-09-05T11:48:23Z</time>
      </trkpt>
      <trkpt lat="49.61481" lon="4.99211">
        <ele>312.57</ele>
        <time>2018-09-05T11:48:36Z</time>
      </trkpt>
      <trkpt lat="49.61472" lon="4.99233">
        <ele>307.28</ele>
        <time>2018-09-05T11:48:51Z</time>
      </trkpt>
      <trkpt lat="49.61466" lon="4.99253">
        <ele>304.39</ele>
        <time>2018-09-05T11:49:04Z</time>
      </trkpt>
      <trkpt lat="49.61458" lon="4.99265">
        <ele>305.36</ele>
        <time>2018-09-05T11:49:19Z</time>
      </trkpt>
      <trkpt lat="49.61457" lon="4.99267">
        <ele>305.36</ele>
        <time>2018-09-05T11:49:21Z</time>
      </trkpt>
      <trkpt lat="49.61457" lon="4.99279">
        <ele>305.84</ele>
        <time>2018-09-05T11:49:33Z</time>
      </trkpt>
      <trkpt lat="49.61453" lon="4.99297">
        <ele>307.28</ele>
        <time>2018-09-05T11:49:47Z</time>
      </trkpt>
      <trkpt lat="49.6145" lon="4.99302">
        <ele>308.24</ele>
        <time>2018-09-05T11:49:51Z</time>
      </trkpt>
      <trkpt lat="49.61443" lon="4.99317">
        <ele>310.16</ele>
        <time>2018-09-05T11:50:05Z</time>
      </trkpt>
      <trkpt lat="49.61439" lon="4.99331">
        <ele>311.12</ele>
        <time>2018-09-05T11:50:15Z</time>
      </trkpt>
      <trkpt lat="49.61435" lon="4.99339">
        <ele>311.6</ele>
        <time>2018-09-05T11:50:21Z</time>
      </trkpt>
      <trkpt lat="49.61432" lon="4.99343">
        <ele>312.09</ele>
        <time>2018-09-05T11:50:25Z</time>
      </trkpt>
      <trkpt lat="49.61427" lon="4.9936">
        <ele>314.49</ele>
        <time>2018-09-05T11:50:37Z</time>
      </trkpt>
      <trkpt lat="49.61421" lon="4.99374">
        <ele>314.97</ele>
        <time>2018-09-05T11:50:48Z</time>
      </trkpt>
      <trkpt lat="49.61417" lon="4.99392">
        <ele>316.41</ele>
        <time>2018-09-05T11:51:01Z</time>
      </trkpt>
      <trkpt lat="49.61412" lon="4.99413">
        <ele>317.37</ele>
        <time>2018-09-05T11:51:13Z</time>
      </trkpt>
      <trkpt lat="49.61411" lon="4.9942">
        <ele>317.37</ele>
        <time>2018-09-05T11:51:17Z</time>
      </trkpt>
      <trkpt lat="49.61409" lon="4.99429">
        <ele>316.41</ele>
        <time>2018-09-05T11:51:23Z</time>
      </trkpt>
      <trkpt lat="49.61406" lon="4.99445">
        <ele>313.53</ele>
        <time>2018-09-05T11:51:35Z</time>
      </trkpt>
      <trkpt lat="49.61404" lon="4.99466">
        <ele>312.57</ele>
        <time>2018-09-05T11:51:48Z</time>
      </trkpt>
      <trkpt lat="49.61396" lon="4.99485">
        <ele>311.6</ele>
        <time>2018-09-05T11:52:01Z</time>
      </trkpt>
      <trkpt lat="49.61396" lon="4.99487">
        <ele>311.6</ele>
        <time>2018-09-05T11:52:02Z</time>
      </trkpt>
      <trkpt lat="49.61395" lon="4.99492">
        <ele>311.6</ele>
        <time>2018-09-05T11:52:05Z</time>
      </trkpt>
      <trkpt lat="49.61395" lon="4.99497">
        <ele>311.12</ele>
        <time>2018-09-05T11:52:10Z</time>
      </trkpt>
      <trkpt lat="49.61385" lon="4.99519">
        <ele>307.76</ele>
        <time>2018-09-05T11:52:24Z</time>
      </trkpt>
      <trkpt lat="49.61377" lon="4.99538">
        <ele>304.39</ele>
        <time>2018-09-05T11:52:38Z</time>
      </trkpt>
      <trkpt lat="49.6137" lon="4.99554">
        <ele>303.43</ele>
        <time>2018-09-05T11:52:48Z</time>
      </trkpt>
      <trkpt lat="49.6137" lon="4.99555">
        <ele>303.43</ele>
        <time>2018-09-05T11:52:49Z</time>
      </trkpt>
      <trkpt lat="49.61368" lon="4.99572">
        <ele>303.91</ele>
        <time>2018-09-05T11:52:56Z</time>
      </trkpt>
      <trkpt lat="49.6137" lon="4.99591">
        <ele>305.36</ele>
        <time>2018-09-05T11:53:08Z</time>
      </trkpt>
      <trkpt lat="49.6137" lon="4.99592">
        <ele>305.36</ele>
        <time>2018-09-05T11:53:09Z</time>
      </trkpt>
      <trkpt lat="49.61368" lon="4.99601">
        <ele>306.8</ele>
        <time>2018-09-05T11:53:13Z</time>
      </trkpt>
      <trkpt lat="49.61364" lon="4.99616">
        <ele>311.12</ele>
        <time>2018-09-05T11:53:24Z</time>
      </trkpt>
      <trkpt lat="49.61362" lon="4.99633">
        <ele>313.53</ele>
        <time>2018-09-05T11:53:36Z</time>
      </trkpt>
      <trkpt lat="49.61363" lon="4.99635">
        <ele>313.53</ele>
        <time>2018-09-05T11:53:37Z</time>
      </trkpt>
      <trkpt lat="49.6136" lon="4.9964">
        <ele>314.49</ele>
        <time>2018-09-05T11:53:40Z</time>
      </trkpt>
      <trkpt lat="49.61355" lon="4.99654">
        <ele>316.41</ele>
        <time>2018-09-05T11:53:49Z</time>
      </trkpt>
      <trkpt lat="49.61355" lon="4.99661">
        <ele>315.45</ele>
        <time>2018-09-05T11:53:54Z</time>
      </trkpt>
      <trkpt lat="49.61355" lon="4.99667">
        <ele>314.97</ele>
        <time>2018-09-05T11:53:57Z</time>
      </trkpt>
      <trkpt lat="49.61352" lon="4.99684">
        <ele>314.49</ele>
        <time>2018-09-05T11:54:07Z</time>
      </trkpt>
      <trkpt lat="49.61351" lon="4.99694">
        <ele>314.97</ele>
        <time>2018-09-05T11:54:12Z</time>
      </trkpt>
      <trkpt lat="49.6135" lon="4.99717">
        <ele>314.49</ele>
        <time>2018-09-05T11:54:24Z</time>
      </trkpt>
      <trkpt lat="49.61348" lon="4.99737">
        <ele>314.01</ele>
        <time>2018-09-05T11:54:34Z</time>
      </trkpt>
      <trkpt lat="49.61347" lon="4.99739">
        <ele>314.49</ele>
        <time>2018-09-05T11:54:35Z</time>
      </trkpt>
      <trkpt lat="49.61344" lon="4.99758">
        <ele>313.53</ele>
        <time>2018-09-05T11:54:47Z</time>
      </trkpt>
      <trkpt lat="49.61344" lon="4.99782">
        <ele>310.64</ele>
        <time>2018-09-05T11:54:59Z</time>
      </trkpt>
      <trkpt lat="49.61342" lon="4.99791">
        <ele>309.2</ele>
        <time>2018-09-05T11:55:03Z</time>
      </trkpt>
      <trkpt lat="49.6134" lon="4.9981">
        <ele>307.76</ele>
        <time>2018-09-05T11:55:13Z</time>
      </trkpt>
      <trkpt lat="49.61341" lon="4.99815">
        <ele>306.8</ele>
        <time>2018-09-05T11:55:17Z</time>
      </trkpt>
      <trkpt lat="49.6134" lon="4.9984">
        <ele>304.39</ele>
        <time>2018-09-05T11:55:30Z</time>
      </trkpt>
      <trkpt lat="49.6134" lon="4.99864">
        <ele>300.55</ele>
        <time>2018-09-05T11:55:43Z</time>
      </trkpt>
      <trkpt lat="49.61341" lon="4.99886">
        <ele>297.18</ele>
        <time>2018-09-05T11:55:55Z</time>
      </trkpt>
      <trkpt lat="49.61345" lon="4.99907">
        <ele>294.3</ele>
        <time>2018-09-05T11:56:05Z</time>
      </trkpt>
      <trkpt lat="49.61346" lon="4.99932">
        <ele>290.94</ele>
        <time>2018-09-05T11:56:17Z</time>
      </trkpt>
      <trkpt lat="49.61344" lon="4.99946">
        <ele>289.97</ele>
        <time>2018-09-05T11:56:24Z</time>
      </trkpt>
      <trkpt lat="49.61341" lon="4.99965">
        <ele>288.53</ele>
        <time>2018-09-05T11:56:35Z</time>
      </trkpt>
      <trkpt lat="49.61343" lon="4.99992">
        <ele>288.05</ele>
        <time>2018-09-05T11:56:47Z</time>
      </trkpt>
      <trkpt lat="49.61344" lon="5">
        <ele>287.09</ele>
        <time>2018-09-05T11:56:53Z</time>
      </trkpt>
      <trkpt lat="49.61345" lon="5.00011">
        <ele>286.61</ele>
        <time>2018-09-05T11:56:58Z</time>
      </trkpt>
      <trkpt lat="49.61346" lon="5.00024">
        <ele>286.61</ele>
        <time>2018-09-05T11:57:03Z</time>
      </trkpt>
      <trkpt lat="49.61347" lon="5.00038">
        <ele>286.61</ele>
        <time>2018-09-05T11:57:13Z</time>
      </trkpt>
      <trkpt lat="49.6135" lon="5.00052">
        <ele>285.17</ele>
        <time>2018-09-05T11:57:20Z</time>
      </trkpt>
      <trkpt lat="49.61352" lon="5.00076">
        <ele>281.32</ele>
        <time>2018-09-05T11:57:35Z</time>
      </trkpt>
      <trkpt lat="49.61353" lon="5.00077">
        <ele>281.32</ele>
        <time>2018-09-05T11:57:36Z</time>
      </trkpt>
      <trkpt lat="49.61354" lon="5.00104">
        <ele>278.92</ele>
        <time>2018-09-05T11:57:50Z</time>
      </trkpt>
      <trkpt lat="49.61354" lon="5.00123">
        <ele>277</ele>
        <time>2018-09-05T11:58:04Z</time>
      </trkpt>
      <trkpt lat="49.61353" lon="5.0013">
        <ele>277</ele>
        <time>2018-09-05T11:58:12Z</time>
      </trkpt>
      <trkpt lat="49.61354" lon="5.00132">
        <ele>277.48</ele>
        <time>2018-09-05T11:58:15Z</time>
      </trkpt>
      <trkpt lat="49.61356" lon="5.00137">
        <ele>277.48</ele>
        <time>2018-09-05T11:58:18Z</time>
      </trkpt>
      <trkpt lat="49.61354" lon="5.0014">
        <ele>278.44</ele>
        <time>2018-09-05T11:58:29Z</time>
      </trkpt>
      <trkpt lat="49.61346" lon="5.00134">
        <ele>278.44</ele>
        <time>2018-09-05T11:58:41Z</time>
      </trkpt>
      <trkpt lat="49.61335" lon="5.00128">
        <ele>276.52</ele>
        <time>2018-09-05T11:58:57Z</time>
      </trkpt>
      <trkpt lat="49.61326" lon="5.00121">
        <ele>275.07</ele>
        <time>2018-09-05T11:59:11Z</time>
      </trkpt>
      <trkpt lat="49.61318" lon="5.00113">
        <ele>274.11</ele>
        <time>2018-09-05T11:59:25Z</time>
      </trkpt>
      <trkpt lat="49.61312" lon="5.00107">
        <ele>272.19</ele>
        <time>2018-09-05T11:59:35Z</time>
      </trkpt>
      <trkpt lat="49.61309" lon="5.00101">
        <ele>272.19</ele>
        <time>2018-09-05T11:59:38Z</time>
      </trkpt>
      <trkpt lat="49.61302" lon="5.00098">
        <ele>271.71</ele>
        <time>2018-09-05T11:59:54Z</time>
      </trkpt>
      <trkpt lat="49.61296" lon="5.00093">
        <ele>272.19</ele>
        <time>2018-09-05T12:00:10Z</time>
      </trkpt>
      <trkpt lat="49.61294" lon="5.00092">
        <ele>272.19</ele>
        <time>2018-09-05T12:00:22Z</time>
      </trkpt>
      <trkpt lat="49.61293" lon="5.00092">
        <ele>272.19</ele>
        <time>2018-09-05T12:00:25Z</time>
      </trkpt>
      <trkpt lat="49.61286" lon="5.00081">
        <ele>272.19</ele>
        <time>2018-09-05T12:00:38Z</time>
      </trkpt>
      <trkpt lat="49.61282" lon="5.00076">
        <ele>272.19</ele>
        <time>2018-09-05T12:00:42Z</time>
      </trkpt>
      <trkpt lat="49.61267" lon="5.00052">
        <ele>269.79</ele>
        <time>2018-09-05T12:00:57Z</time>
      </trkpt>
      <trkpt lat="49.61245" lon="5.00017">
        <ele>267.38</ele>
        <time>2018-09-05T12:01:13Z</time>
      </trkpt>
      <trkpt lat="49.6123" lon="4.99991">
        <ele>267.38</ele>
        <time>2018-09-05T12:01:27Z</time>
      </trkpt>
      <trkpt lat="49.61228" lon="4.99989">
        <ele>267.38</ele>
        <time>2018-09-05T12:01:29Z</time>
      </trkpt>
      <trkpt lat="49.61215" lon="4.99974">
        <ele>267.38</ele>
        <time>2018-09-05T12:01:43Z</time>
      </trkpt>
      <trkpt lat="49.61208" lon="4.99966">
        <ele>268.35</ele>
        <time>2018-09-05T12:01:58Z</time>
      </trkpt>
      <trkpt lat="49.61201" lon="4.99953">
        <ele>269.79</ele>
        <time>2018-09-05T12:02:12Z</time>
      </trkpt>
      <trkpt lat="49.61199" lon="4.9995">
        <ele>269.31</ele>
        <time>2018-09-05T12:02:18Z</time>
      </trkpt>
      <trkpt lat="49.6119" lon="4.99932">
        <ele>268.83</ele>
        <time>2018-09-05T12:02:29Z</time>
      </trkpt>
      <trkpt lat="49.61185" lon="4.99928">
        <ele>269.31</ele>
        <time>2018-09-05T12:02:32Z</time>
      </trkpt>
      <trkpt lat="49.6118" lon="4.99933">
        <ele>268.83</ele>
        <time>2018-09-05T12:02:40Z</time>
      </trkpt>
      <trkpt lat="49.61176" lon="4.99935">
        <ele>268.35</ele>
        <time>2018-09-05T12:02:43Z</time>
      </trkpt>
      <trkpt lat="49.61172" lon="4.99948">
        <ele>266.9</ele>
        <time>2018-09-05T12:02:54Z</time>
      </trkpt>
      <trkpt lat="49.61171" lon="4.99952">
        <ele>266.42</ele>
        <time>2018-09-05T12:02:58Z</time>
      </trkpt>
      <trkpt lat="49.61165" lon="4.99975">
        <ele>263.06</ele>
        <time>2018-09-05T12:03:13Z</time>
      </trkpt>
      <trkpt lat="49.61162" lon="4.99992">
        <ele>261.14</ele>
        <time>2018-09-05T12:03:23Z</time>
      </trkpt>
      <trkpt lat="49.61162" lon="5.0001">
        <ele>259.69</ele>
        <time>2018-09-05T12:03:35Z</time>
      </trkpt>
      <trkpt lat="49.61161" lon="5.0002">
        <ele>258.25</ele>
        <time>2018-09-05T12:03:41Z</time>
      </trkpt>
      <trkpt lat="49.6116" lon="5.00045">
        <ele>254.41</ele>
        <time>2018-09-05T12:03:55Z</time>
      </trkpt>
      <trkpt lat="49.61161" lon="5.0005">
        <ele>253.93</ele>
        <time>2018-09-05T12:03:57Z</time>
      </trkpt>
      <trkpt lat="49.6116" lon="5.00054">
        <ele>253.93</ele>
        <time>2018-09-05T12:03:59Z</time>
      </trkpt>
      <trkpt lat="49.61162" lon="5.00077">
        <ele>250.08</ele>
        <time>2018-09-05T12:04:12Z</time>
      </trkpt>
      <trkpt lat="49.61159" lon="5.00094">
        <ele>247.68</ele>
        <time>2018-09-05T12:04:23Z</time>
      </trkpt>
      <trkpt lat="49.61157" lon="5.00098">
        <ele>247.2</ele>
        <time>2018-09-05T12:04:25Z</time>
      </trkpt>
      <trkpt lat="49.61155" lon="5.00101">
        <ele>247.2</ele>
        <time>2018-09-05T12:04:28Z</time>
      </trkpt>
      <trkpt lat="49.61153" lon="5.00125">
        <ele>244.79</ele>
        <time>2018-09-05T12:04:41Z</time>
      </trkpt>
      <trkpt lat="49.61153" lon="5.00133">
        <ele>244.31</ele>
        <time>2018-09-05T12:04:45Z</time>
      </trkpt>
      <trkpt lat="49.61151" lon="5.00153">
        <ele>241.91</ele>
        <time>2018-09-05T12:04:57Z</time>
      </trkpt>
      <trkpt lat="49.6115" lon="5.00163">
        <ele>241.43</ele>
        <time>2018-09-05T12:05:02Z</time>
      </trkpt>
      <trkpt lat="49.61143" lon="5.00175">
        <ele>240.47</ele>
        <time>2018-09-05T12:05:12Z</time>
      </trkpt>
      <trkpt lat="49.61139" lon="5.00194">
        <ele>239.02</ele>
        <time>2018-09-05T12:05:25Z</time>
      </trkpt>
      <trkpt lat="49.61138" lon="5.00197">
        <ele>239.02</ele>
        <time>2018-09-05T12:05:27Z</time>
      </trkpt>
      <trkpt lat="49.61137" lon="5.0021">
        <ele>238.54</ele>
        <time>2018-09-05T12:05:33Z</time>
      </trkpt>
      <trkpt lat="49.61136" lon="5.00234">
        <ele>237.1</ele>
        <time>2018-09-05T12:05:46Z</time>
      </trkpt>
      <trkpt lat="49.61133" lon="5.00254">
        <ele>235.66</ele>
        <time>2018-09-05T12:05:59Z</time>
      </trkpt>
      <trkpt lat="49.61134" lon="5.00279">
        <ele>234.22</ele>
        <time>2018-09-05T12:06:12Z</time>
      </trkpt>
      <trkpt lat="49.61133" lon="5.00297">
        <ele>231.81</ele>
        <time>2018-09-05T12:06:23Z</time>
      </trkpt>
      <trkpt lat="49.61131" lon="5.00309">
        <ele>231.33</ele>
        <time>2018-09-05T12:06:30Z</time>
      </trkpt>
      <trkpt lat="49.6113" lon="5.00315">
        <ele>231.33</ele>
        <time>2018-09-05T12:06:34Z</time>
      </trkpt>
      <trkpt lat="49.61128" lon="5.00325">
        <ele>230.37</ele>
        <time>2018-09-05T12:06:40Z</time>
      </trkpt>
      <trkpt lat="49.61124" lon="5.00339">
        <ele>229.89</ele>
        <time>2018-09-05T12:06:50Z</time>
      </trkpt>
      <trkpt lat="49.61117" lon="5.00359">
        <ele>227.49</ele>
        <time>2018-09-05T12:07:04Z</time>
      </trkpt>
      <trkpt lat="49.61116" lon="5.0038">
        <ele>224.61</ele>
        <time>2018-09-05T12:07:17Z</time>
      </trkpt>
      <trkpt lat="49.61115" lon="5.0039">
        <ele>223.64</ele>
        <time>2018-09-05T12:07:24Z</time>
      </trkpt>
      <trkpt lat="49.61117" lon="5.00401">
        <ele>223.16</ele>
        <time>2018-09-05T12:07:30Z</time>
      </trkpt>
      <trkpt lat="49.61115" lon="5.00415">
        <ele>222.68</ele>
        <time>2018-09-05T12:07:40Z</time>
      </trkpt>
      <trkpt lat="49.61112" lon="5.00422">
        <ele>221.72</ele>
        <time>2018-09-05T12:07:44Z</time>
      </trkpt>
      <trkpt lat="49.61105" lon="5.00444">
        <ele>220.76</ele>
        <time>2018-09-05T12:07:58Z</time>
      </trkpt>
      <trkpt lat="49.61096" lon="5.00462">
        <ele>218.84</ele>
        <time>2018-09-05T12:08:10Z</time>
      </trkpt>
      <trkpt lat="49.61093" lon="5.00465">
        <ele>218.36</ele>
        <time>2018-09-05T12:08:14Z</time>
      </trkpt>
      <trkpt lat="49.61082" lon="5.00482">
        <ele>217.4</ele>
        <time>2018-09-05T12:08:29Z</time>
      </trkpt>
      <trkpt lat="49.6108" lon="5.00495">
        <ele>217.4</ele>
        <time>2018-09-05T12:08:40Z</time>
      </trkpt>
      <trkpt lat="49.61076" lon="5.00507">
        <ele>216.43</ele>
        <time>2018-09-05T12:08:49Z</time>
      </trkpt>
      <trkpt lat="49.61064" lon="5.00525">
        <ele>215.95</ele>
        <time>2018-09-05T12:09:02Z</time>
      </trkpt>
      <trkpt lat="49.61053" lon="5.00536">
        <ele>214.99</ele>
        <time>2018-09-05T12:09:13Z</time>
      </trkpt>
      <trkpt lat="49.61051" lon="5.00542">
        <ele>214.51</ele>
        <time>2018-09-05T12:09:17Z</time>
      </trkpt>
      <trkpt lat="49.6104" lon="5.00566">
        <ele>212.59</ele>
        <time>2018-09-05T12:09:33Z</time>
      </trkpt>
      <trkpt lat="49.61035" lon="5.0058">
        <ele>211.63</ele>
        <time>2018-09-05T12:09:44Z</time>
      </trkpt>
      <trkpt lat="49.61034" lon="5.00592">
        <ele>211.15</ele>
        <time>2018-09-05T12:09:50Z</time>
      </trkpt>
      <trkpt lat="49.61034" lon="5.006">
        <ele>210.67</ele>
        <time>2018-09-05T12:09:59Z</time>
      </trkpt>
      <trkpt lat="49.61032" lon="5.00613">
        <ele>210.19</ele>
        <time>2018-09-05T12:10:05Z</time>
      </trkpt>
      <trkpt lat="49.61031" lon="5.00616">
        <ele>210.19</ele>
        <time>2018-09-05T12:10:07Z</time>
      </trkpt>
      <trkpt lat="49.61028" lon="5.00643">
        <ele>208.74</ele>
        <time>2018-09-05T12:10:23Z</time>
      </trkpt>
      <trkpt lat="49.61025" lon="5.00657">
        <ele>208.74</ele>
        <time>2018-09-05T12:10:34Z</time>
      </trkpt>
      <trkpt lat="49.61025" lon="5.00667">
        <ele>208.74</ele>
        <time>2018-09-05T12:10:38Z</time>
      </trkpt>
      <trkpt lat="49.61026" lon="5.0069">
        <ele>208.26</ele>
        <time>2018-09-05T12:10:49Z</time>
      </trkpt>
      <trkpt lat="49.61025" lon="5.00716">
        <ele>207.3</ele>
        <time>2018-09-05T12:11:03Z</time>
      </trkpt>
      <trkpt lat="49.61024" lon="5.00725">
        <ele>206.34</ele>
        <time>2018-09-05T12:11:09Z</time>
      </trkpt>
      <trkpt lat="49.61019" lon="5.00736">
        <ele>206.34</ele>
        <time>2018-09-05T12:11:15Z</time>
      </trkpt>
      <trkpt lat="49.61017" lon="5.00742">
        <ele>206.34</ele>
        <time>2018-09-05T12:11:18Z</time>
      </trkpt>
      <trkpt lat="49.61014" lon="5.00758">
        <ele>206.34</ele>
        <time>2018-09-05T12:11:30Z</time>
      </trkpt>
      <trkpt lat="49.61012" lon="5.0077">
        <ele>205.86</ele>
        <time>2018-09-05T12:11:36Z</time>
      </trkpt>
      <trkpt lat="49.61002" lon="5.00792">
        <ele>205.38</ele>
        <time>2018-09-05T12:11:52Z</time>
      </trkpt>
      <trkpt lat="49.60998" lon="5.00808">
        <ele>204.42</ele>
        <time>2018-09-05T12:12:04Z</time>
      </trkpt>
      <trkpt lat="49.6099" lon="5.00828">
        <ele>203.94</ele>
        <time>2018-09-05T12:12:16Z</time>
      </trkpt>
      <trkpt lat="49.60989" lon="5.00844">
        <ele>204.42</ele>
        <time>2018-09-05T12:12:28Z</time>
      </trkpt>
      <trkpt lat="49.60986" lon="5.00857">
        <ele>203.94</ele>
        <time>2018-09-05T12:12:36Z</time>
      </trkpt>
      <trkpt lat="49.60984" lon="5.00878">
        <ele>203.94</ele>
        <time>2018-09-05T12:12:53Z</time>
      </trkpt>
      <trkpt lat="49.6098" lon="5.0089">
        <ele>203.46</ele>
        <time>2018-09-05T12:13:06Z</time>
      </trkpt>
      <trkpt lat="49.60979" lon="5.00893">
        <ele>203.46</ele>
        <time>2018-09-05T12:13:09Z</time>
      </trkpt>
      <trkpt lat="49.60976" lon="5.00901">
        <ele>203.46</ele>
        <time>2018-09-05T12:13:16Z</time>
      </trkpt>
      <trkpt lat="49.6097" lon="5.0092">
        <ele>202.98</ele>
        <time>2018-09-05T12:13:30Z</time>
      </trkpt>
      <trkpt lat="49.60966" lon="5.00935">
        <ele>202.01</ele>
        <time>2018-09-05T12:13:42Z</time>
      </trkpt>
      <trkpt lat="49.60965" lon="5.00957">
        <ele>201.05</ele>
        <time>2018-09-05T12:13:55Z</time>
      </trkpt>
      <trkpt lat="49.60965" lon="5.00969">
        <ele>199.13</ele>
        <time>2018-09-05T12:14:09Z</time>
      </trkpt>
      <trkpt lat="49.60963" lon="5.00971">
        <ele>199.13</ele>
        <time>2018-09-05T12:14:13Z</time>
      </trkpt>
      <trkpt lat="49.60958" lon="5.00973">
        <ele>199.13</ele>
        <time>2018-09-05T12:14:18Z</time>
      </trkpt>
      <trkpt lat="49.6096" lon="5.00986">
        <ele>198.65</ele>
        <time>2018-09-05T12:14:31Z</time>
      </trkpt>
      <trkpt lat="49.60958" lon="5.00988">
        <ele>198.65</ele>
        <time>2018-09-05T12:14:39Z</time>
      </trkpt>
      <trkpt lat="49.60953" lon="5.0099">
        <ele>198.17</ele>
        <time>2018-09-05T12:14:45Z</time>
      </trkpt>
      <trkpt lat="49.60944" lon="5.00995">
        <ele>197.21</ele>
        <time>2018-09-05T12:14:59Z</time>
      </trkpt>
      <trkpt lat="49.60945" lon="5.01019">
        <ele>195.77</ele>
        <time>2018-09-05T12:15:13Z</time>
      </trkpt>
      <trkpt lat="49.60945" lon="5.01021">
        <ele>195.28</ele>
        <time>2018-09-05T12:15:15Z</time>
      </trkpt>
      <trkpt lat="49.6095" lon="5.0105">
        <ele>193.36</ele>
        <time>2018-09-05T12:15:30Z</time>
      </trkpt>
      <trkpt lat="49.60951" lon="5.01075">
        <ele>191.92</ele>
        <time>2018-09-05T12:15:45Z</time>
      </trkpt>
      <trkpt lat="49.60951" lon="5.01092">
        <ele>191.44</ele>
        <time>2018-09-05T12:15:57Z</time>
      </trkpt>
      <trkpt lat="49.60952" lon="5.01097">
        <ele>191.44</ele>
        <time>2018-09-05T12:16:00Z</time>
      </trkpt>
      <trkpt lat="49.60956" lon="5.0112">
        <ele>190.48</ele>
        <time>2018-09-05T12:16:17Z</time>
      </trkpt>
      <trkpt lat="49.60956" lon="5.01125">
        <ele>190</ele>
        <time>2018-09-05T12:16:20Z</time>
      </trkpt>
      <trkpt lat="49.60962" lon="5.01144">
        <ele>190</ele>
        <time>2018-09-05T12:16:30Z</time>
      </trkpt>
      <trkpt lat="49.60966" lon="5.01171">
        <ele>189.52</ele>
        <time>2018-09-05T12:16:43Z</time>
      </trkpt>
      <trkpt lat="49.60971" lon="5.01202">
        <ele>189.04</ele>
        <time>2018-09-05T12:17:01Z</time>
      </trkpt>
      <trkpt lat="49.60975" lon="5.01231">
        <ele>188.56</ele>
        <time>2018-09-05T12:17:17Z</time>
      </trkpt>
      <trkpt lat="49.60981" lon="5.01259">
        <ele>188.08</ele>
        <time>2018-09-05T12:17:32Z</time>
      </trkpt>
      <trkpt lat="49.60985" lon="5.01282">
        <ele>188.08</ele>
        <time>2018-09-05T12:17:46Z</time>
      </trkpt>
      <trkpt lat="49.6099" lon="5.01299">
        <ele>187.59</ele>
        <time>2018-09-05T12:17:58Z</time>
      </trkpt>
      <trkpt lat="49.6099" lon="5.01301">
        <ele>187.59</ele>
        <time>2018-09-05T12:18:00Z</time>
      </trkpt>
      <trkpt lat="49.60998" lon="5.01323">
        <ele>187.11</ele>
        <time>2018-09-05T12:18:16Z</time>
      </trkpt>
      <trkpt lat="49.60999" lon="5.0134">
        <ele>187.11</ele>
        <time>2018-09-05T12:18:31Z</time>
      </trkpt>
      <trkpt lat="49.61005" lon="5.01356">
        <ele>186.63</ele>
        <time>2018-09-05T12:18:44Z</time>
      </trkpt>
      <trkpt lat="49.61011" lon="5.0138">
        <ele>186.15</ele>
        <time>2018-09-05T12:18:58Z</time>
      </trkpt>
      <trkpt lat="49.61012" lon="5.01396">
        <ele>186.15</ele>
        <time>2018-09-05T12:19:13Z</time>
      </trkpt>
      <trkpt lat="49.61018" lon="5.01426">
        <ele>186.15</ele>
        <time>2018-09-05T12:19:28Z</time>
      </trkpt>
      <trkpt lat="49.61022" lon="5.0145">
        <ele>185.67</ele>
        <time>2018-09-05T12:19:44Z</time>
      </trkpt>
      <trkpt lat="49.61025" lon="5.01469">
        <ele>185.67</ele>
        <time>2018-09-05T12:19:58Z</time>
      </trkpt>
      <trkpt lat="49.61028" lon="5.01491">
        <ele>186.15</ele>
        <time>2018-09-05T12:20:08Z</time>
      </trkpt>
      <trkpt lat="49.6103" lon="5.01502">
        <ele>186.15</ele>
        <time>2018-09-05T12:20:12Z</time>
      </trkpt>
      <trkpt lat="49.61039" lon="5.01533">
        <ele>186.15</ele>
        <time>2018-09-05T12:20:26Z</time>
      </trkpt>
      <trkpt lat="49.61038" lon="5.01537">
        <ele>186.15</ele>
        <time>2018-09-05T12:20:29Z</time>
      </trkpt>
      <trkpt lat="49.61038" lon="5.01547">
        <ele>185.67</ele>
        <time>2018-09-05T12:20:34Z</time>
      </trkpt>
      <trkpt lat="49.61043" lon="5.01577">
        <ele>185.67</ele>
        <time>2018-09-05T12:20:50Z</time>
      </trkpt>
      <trkpt lat="49.61043" lon="5.01605">
        <ele>185.19</ele>
        <time>2018-09-05T12:21:05Z</time>
      </trkpt>
      <trkpt lat="49.61036" lon="5.01639">
        <ele>173.17</ele>
        <time>2018-09-05T12:21:18Z</time>
      </trkpt>
      <trkpt lat="49.61034" lon="5.01645">
        <ele>171.25</ele>
        <time>2018-09-05T12:21:22Z</time>
      </trkpt>
      <trkpt lat="49.6103" lon="5.01669">
        <ele>171.73</ele>
        <time>2018-09-05T12:21:33Z</time>
      </trkpt>
      <trkpt lat="49.61031" lon="5.01693">
        <ele>166.93</ele>
        <time>2018-09-05T12:21:49Z</time>
      </trkpt>
      <trkpt lat="49.61031" lon="5.0172">
        <ele>162.6</ele>
        <time>2018-09-05T12:22:05Z</time>
      </trkpt>
      <trkpt lat="49.6103" lon="5.01743">
        <ele>161.16</ele>
        <time>2018-09-05T12:22:20Z</time>
      </trkpt>
      <trkpt lat="49.61031" lon="5.01766">
        <ele>156.83</ele>
        <time>2018-09-05T12:22:35Z</time>
      </trkpt>
      <trkpt lat="49.61035" lon="5.01787">
        <ele>156.83</ele>
        <time>2018-09-05T12:22:47Z</time>
      </trkpt>
      <trkpt lat="49.61038" lon="5.01811">
        <ele>154.91</ele>
        <time>2018-09-05T12:23:02Z</time>
      </trkpt>
      <trkpt lat="49.61042" lon="5.01834">
        <ele>154.43</ele>
        <time>2018-09-05T12:23:18Z</time>
      </trkpt>
      <trkpt lat="49.61046" lon="5.01862">
        <ele>154.43</ele>
        <time>2018-09-05T12:23:33Z</time>
      </trkpt>
      <trkpt lat="49.61049" lon="5.01883">
        <ele>152.03</ele>
        <time>2018-09-05T12:23:47Z</time>
      </trkpt>
      <trkpt lat="49.61049" lon="5.01907">
        <ele>151.54</ele>
        <time>2018-09-05T12:24:02Z</time>
      </trkpt>
      <trkpt lat="49.61052" lon="5.01927">
        <ele>150.58</ele>
        <time>2018-09-05T12:24:16Z</time>
      </trkpt>
      <trkpt lat="49.61053" lon="5.01947">
        <ele>151.54</ele>
        <time>2018-09-05T12:24:30Z</time>
      </trkpt>
      <trkpt lat="49.61054" lon="5.01953">
        <ele>152.03</ele>
        <time>2018-09-05T12:24:35Z</time>
      </trkpt>
      <trkpt lat="49.61052" lon="5.01971">
        <ele>151.54</ele>
        <time>2018-09-05T12:24:48Z</time>
      </trkpt>
      <trkpt lat="49.61051" lon="5.01981">
        <ele>151.54</ele>
        <time>2018-09-05T12:24:57Z</time>
      </trkpt>
      <trkpt lat="49.61055" lon="5.02002">
        <ele>150.1</ele>
        <time>2018-09-05T12:25:11Z</time>
      </trkpt>
      <trkpt lat="49.61058" lon="5.02021">
        <ele>149.62</ele>
        <time>2018-09-05T12:25:23Z</time>
      </trkpt>
      <trkpt lat="49.61066" lon="5.02042">
        <ele>149.62</ele>
        <time>2018-09-05T12:25:38Z</time>
      </trkpt>
      <trkpt lat="49.61067" lon="5.0205">
        <ele>149.62</ele>
        <time>2018-09-05T12:25:44Z</time>
      </trkpt>
      <trkpt lat="49.61069" lon="5.02065">
        <ele>150.1</ele>
        <time>2018-09-05T12:25:56Z</time>
      </trkpt>
      <trkpt lat="49.61073" lon="5.0208">
        <ele>151.54</ele>
        <time>2018-09-05T12:26:09Z</time>
      </trkpt>
      <trkpt lat="49.61074" lon="5.02086">
        <ele>151.54</ele>
        <time>2018-09-05T12:26:19Z</time>
      </trkpt>
      <trkpt lat="49.61076" lon="5.02105">
        <ele>151.06</ele>
        <time>2018-09-05T12:26:31Z</time>
      </trkpt>
      <trkpt lat="49.61076" lon="5.02113">
        <ele>151.06</ele>
        <time>2018-09-05T12:26:36Z</time>
      </trkpt>
      <trkpt lat="49.61078" lon="5.0213">
        <ele>151.06</ele>
        <time>2018-09-05T12:26:48Z</time>
      </trkpt>
      <trkpt lat="49.6108" lon="5.02149">
        <ele>151.06</ele>
        <time>2018-09-05T12:27:01Z</time>
      </trkpt>
      <trkpt lat="49.61081" lon="5.02152">
        <ele>151.54</ele>
        <time>2018-09-05T12:27:04Z</time>
      </trkpt>
      <trkpt lat="49.61082" lon="5.02156">
        <ele>151.54</ele>
        <time>2018-09-05T12:27:06Z</time>
      </trkpt>
      <trkpt lat="49.61083" lon="5.02166">
        <ele>151.54</ele>
        <time>2018-09-05T12:27:11Z</time>
      </trkpt>
      <trkpt lat="49.61086" lon="5.02182">
        <ele>151.54</ele>
        <time>2018-09-05T12:27:25Z</time>
      </trkpt>
      <trkpt lat="49.61089" lon="5.02194">
        <ele>152.03</ele>
        <time>2018-09-05T12:27:36Z</time>
      </trkpt>
      <trkpt lat="49.61088" lon="5.02198">
        <ele>152.03</ele>
        <time>2018-09-05T12:27:38Z</time>
      </trkpt>
      <trkpt lat="49.61093" lon="5.02215">
        <ele>152.03</ele>
        <time>2018-09-05T12:27:51Z</time>
      </trkpt>
      <trkpt lat="49.61094" lon="5.02235">
        <ele>152.03</ele>
        <time>2018-09-05T12:28:03Z</time>
      </trkpt>
      <trkpt lat="49.61093" lon="5.02236">
        <ele>152.03</ele>
        <time>2018-09-05T12:28:04Z</time>
      </trkpt>
      <trkpt lat="49.61104" lon="5.02264">
        <ele>153.47</ele>
        <time>2018-09-05T12:28:09Z</time>
      </trkpt>
      <trkpt lat="49.61122" lon="5.02294">
        <ele>142.41</ele>
        <time>2018-09-05T12:28:24Z</time>
      </trkpt>
      <trkpt lat="49.61124" lon="5.02299">
        <ele>140.01</ele>
        <time>2018-09-05T12:28:28Z</time>
      </trkpt>
      <trkpt lat="49.61125" lon="5.02306">
        <ele>137.61</ele>
        <time>2018-09-05T12:28:32Z</time>
      </trkpt>
      <trkpt lat="49.61133" lon="5.02329">
        <ele>130.4</ele>
        <time>2018-09-05T12:28:46Z</time>
      </trkpt>
      <trkpt lat="49.61141" lon="5.02352">
        <ele>125.11</ele>
        <time>2018-09-05T12:29:01Z</time>
      </trkpt>
      <trkpt lat="49.61145" lon="5.02366">
        <ele>125.59</ele>
        <time>2018-09-05T12:29:12Z</time>
      </trkpt>
      <trkpt lat="49.61144" lon="5.02366">
        <ele>126.55</ele>
        <time>2018-09-05T12:29:13Z</time>
      </trkpt>
      <trkpt lat="49.61146" lon="5.02389">
        <ele>124.15</ele>
        <time>2018-09-05T12:29:26Z</time>
      </trkpt>
      <trkpt lat="49.61146" lon="5.02394">
        <ele>122.22</ele>
        <time>2018-09-05T12:29:32Z</time>
      </trkpt>
      <trkpt lat="49.6114" lon="5.02419">
        <ele>119.82</ele>
        <time>2018-09-05T12:29:48Z</time>
      </trkpt>
      <trkpt lat="49.61136" lon="5.02434">
        <ele>118.38</ele>
        <time>2018-09-05T12:30:00Z</time>
      </trkpt>
      <trkpt lat="49.6113" lon="5.02452">
        <ele>115.98</ele>
        <time>2018-09-05T12:30:15Z</time>
      </trkpt>
      <trkpt lat="49.61135" lon="5.02457">
        <ele>115.98</ele>
        <time>2018-09-05T12:30:30Z</time>
      </trkpt>
      <trkpt lat="49.61138" lon="5.02461">
        <ele>121.74</ele>
        <time>2018-09-05T12:30:44Z</time>
      </trkpt>
      <trkpt lat="49.61131" lon="5.02473">
        <ele>134.72</ele>
        <time>2018-09-05T12:30:58Z</time>
      </trkpt>
      <trkpt lat="49.61125" lon="5.02472">
        <ele>145.78</ele>
        <time>2018-09-05T12:31:04Z</time>
      </trkpt>
      <trkpt lat="49.61124" lon="5.02482">
        <ele>154.43</ele>
        <time>2018-09-05T12:31:17Z</time>
      </trkpt>
      <trkpt lat="49.61124" lon="5.02501">
        <ele>158.27</ele>
        <time>2018-09-05T12:31:31Z</time>
      </trkpt>
      <trkpt lat="49.61123" lon="5.02504">
        <ele>158.75</ele>
        <time>2018-09-05T12:31:34Z</time>
      </trkpt>
      <trkpt lat="49.61126" lon="5.0252">
        <ele>160.68</ele>
        <time>2018-09-05T12:31:49Z</time>
      </trkpt>
      <trkpt lat="49.61129" lon="5.02538">
        <ele>161.64</ele>
        <time>2018-09-05T12:31:59Z</time>
      </trkpt>
      <trkpt lat="49.61128" lon="5.02549">
        <ele>165.48</ele>
        <time>2018-09-05T12:32:09Z</time>
      </trkpt>
      <trkpt lat="49.61127" lon="5.02551">
        <ele>166.93</ele>
        <time>2018-09-05T12:32:27Z</time>
      </trkpt>
      <trkpt lat="49.61128" lon="5.02551">
        <ele>166.93</ele>
        <time>2018-09-05T12:32:29Z</time>
      </trkpt>
      <trkpt lat="49.61132" lon="5.02551">
        <ele>166.93</ele>
        <time>2018-09-05T12:32:33Z</time>
      </trkpt>
      <trkpt lat="49.61148" lon="5.02546">
        <ele>165.96</ele>
        <time>2018-09-05T12:32:49Z</time>
      </trkpt>
      <trkpt lat="49.61165" lon="5.02544">
        <ele>167.41</ele>
        <time>2018-09-05T12:33:00Z</time>
      </trkpt>
      <trkpt lat="49.61175" lon="5.02551">
        <ele>167.89</ele>
        <time>2018-09-05T12:33:13Z</time>
      </trkpt>
      <trkpt lat="49.61176" lon="5.02553">
        <ele>167.89</ele>
        <time>2018-09-05T12:33:15Z</time>
      </trkpt>
      <trkpt lat="49.61193" lon="5.02576">
        <ele>164.52</ele>
        <time>2018-09-05T12:33:32Z</time>
      </trkpt>
      <trkpt lat="49.61208" lon="5.02593">
        <ele>161.64</ele>
        <time>2018-09-05T12:33:49Z</time>
      </trkpt>
      <trkpt lat="49.61224" lon="5.02613">
        <ele>161.16</ele>
        <time>2018-09-05T12:34:05Z</time>
      </trkpt>
      <trkpt lat="49.6124" lon="5.02631">
        <ele>159.24</ele>
        <time>2018-09-05T12:34:20Z</time>
      </trkpt>
      <trkpt lat="49.6125" lon="5.02645">
        <ele>159.24</ele>
        <time>2018-09-05T12:34:32Z</time>
      </trkpt>
      <trkpt lat="49.61262" lon="5.02663">
        <ele>160.2</ele>
        <time>2018-09-05T12:34:45Z</time>
      </trkpt>
      <trkpt lat="49.61271" lon="5.02675">
        <ele>162.12</ele>
        <time>2018-09-05T12:34:59Z</time>
      </trkpt>
      <trkpt lat="49.61278" lon="5.02696">
        <ele>162.6</ele>
        <time>2018-09-05T12:35:18Z</time>
      </trkpt>
      <trkpt lat="49.61285" lon="5.0272">
        <ele>163.56</ele>
        <time>2018-09-05T12:35:34Z</time>
      </trkpt>
      <trkpt lat="49.61289" lon="5.02732">
        <ele>163.56</ele>
        <time>2018-09-05T12:35:40Z</time>
      </trkpt>
      <trkpt lat="49.61297" lon="5.02762">
        <ele>167.41</ele>
        <time>2018-09-05T12:35:54Z</time>
      </trkpt>
      <trkpt lat="49.61301" lon="5.02777">
        <ele>169.81</ele>
        <time>2018-09-05T12:36:09Z</time>
      </trkpt>
      <trkpt lat="49.61311" lon="5.02809">
        <ele>165.96</ele>
        <time>2018-09-05T12:36:27Z</time>
      </trkpt>
      <trkpt lat="49.61316" lon="5.02825">
        <ele>163.56</ele>
        <time>2018-09-05T12:36:39Z</time>
      </trkpt>
      <trkpt lat="49.61322" lon="5.02848">
        <ele>165</ele>
        <time>2018-09-05T12:36:54Z</time>
      </trkpt>
      <trkpt lat="49.61331" lon="5.0288">
        <ele>163.08</ele>
        <time>2018-09-05T12:37:12Z</time>
      </trkpt>
      <trkpt lat="49.6134" lon="5.02909">
        <ele>158.27</ele>
        <time>2018-09-05T12:37:28Z</time>
      </trkpt>
      <trkpt lat="49.61341" lon="5.02918">
        <ele>157.31</ele>
        <time>2018-09-05T12:37:31Z</time>
      </trkpt>
      <trkpt lat="49.61344" lon="5.0293">
        <ele>157.79</ele>
        <time>2018-09-05T12:37:37Z</time>
      </trkpt>
      <trkpt lat="49.6135" lon="5.02943">
        <ele>156.35</ele>
        <time>2018-09-05T12:37:46Z</time>
      </trkpt>
      <trkpt lat="49.61356" lon="5.02965">
        <ele>160.2</ele>
        <time>2018-09-05T12:38:07Z</time>
      </trkpt>
      <trkpt lat="49.61363" lon="5.02992">
        <ele>163.08</ele>
        <time>2018-09-05T12:38:23Z</time>
      </trkpt>
      <trkpt lat="49.61375" lon="5.0302">
        <ele>164.52</ele>
        <time>2018-09-05T12:38:39Z</time>
      </trkpt>
      <trkpt lat="49.61387" lon="5.03041">
        <ele>163.08</ele>
        <time>2018-09-05T12:38:53Z</time>
      </trkpt>
      <trkpt lat="49.61398" lon="5.03054">
        <ele>159.24</ele>
        <time>2018-09-05T12:39:06Z</time>
      </trkpt>
      <trkpt lat="49.61411" lon="5.03077">
        <ele>160.68</ele>
        <time>2018-09-05T12:39:24Z</time>
      </trkpt>
      <trkpt lat="49.61424" lon="5.03096">
        <ele>161.16</ele>
        <time>2018-09-05T12:39:38Z</time>
      </trkpt>
      <trkpt lat="49.6144" lon="5.03114">
        <ele>157.79</ele>
        <time>2018-09-05T12:39:52Z</time>
      </trkpt>
      <trkpt lat="49.61444" lon="5.03118">
        <ele>155.39</ele>
        <time>2018-09-05T12:39:56Z</time>
      </trkpt>
      <trkpt lat="49.61457" lon="5.03135">
        <ele>152.51</ele>
        <time>2018-09-05T12:40:16Z</time>
      </trkpt>
      <trkpt lat="49.61469" lon="5.03156">
        <ele>152.51</ele>
        <time>2018-09-05T12:40:31Z</time>
      </trkpt>
      <trkpt lat="49.61479" lon="5.03173">
        <ele>153.47</ele>
        <time>2018-09-05T12:40:43Z</time>
      </trkpt>
      <trkpt lat="49.61483" lon="5.03181">
        <ele>153.47</ele>
        <time>2018-09-05T12:40:47Z</time>
      </trkpt>
      <trkpt lat="49.61494" lon="5.03197">
        <ele>150.58</ele>
        <time>2018-09-05T12:41:03Z</time>
      </trkpt>
      <trkpt lat="49.61508" lon="5.03224">
        <ele>151.54</ele>
        <time>2018-09-05T12:41:23Z</time>
      </trkpt>
      <trkpt lat="49.61524" lon="5.0325">
        <ele>148.66</ele>
        <time>2018-09-05T12:41:41Z</time>
      </trkpt>
      <trkpt lat="49.61542" lon="5.03276">
        <ele>147.7</ele>
        <time>2018-09-05T12:41:58Z</time>
      </trkpt>
      <trkpt lat="49.61551" lon="5.03288">
        <ele>148.18</ele>
        <time>2018-09-05T12:42:12Z</time>
      </trkpt>
      <trkpt lat="49.61557" lon="5.03282">
        <ele>150.1</ele>
        <time>2018-09-05T12:42:23Z</time>
      </trkpt>
      <trkpt lat="49.6157" lon="5.03262">
        <ele>151.06</ele>
        <time>2018-09-05T12:42:37Z</time>
      </trkpt>
      <trkpt lat="49.61582" lon="5.03241">
        <ele>152.51</ele>
        <time>2018-09-05T12:42:50Z</time>
      </trkpt>
      <trkpt lat="49.61592" lon="5.03226">
        <ele>152.99</ele>
        <time>2018-09-05T12:43:04Z</time>
      </trkpt>
      <trkpt lat="49.61598" lon="5.03214">
        <ele>157.31</ele>
        <time>2018-09-05T12:43:16Z</time>
      </trkpt>
      <trkpt lat="49.61609" lon="5.032">
        <ele>160.68</ele>
        <time>2018-09-05T12:43:26Z</time>
      </trkpt>
      <trkpt lat="49.61618" lon="5.03188">
        <ele>162.6</ele>
        <time>2018-09-05T12:43:38Z</time>
      </trkpt>
      <trkpt lat="49.61626" lon="5.03179">
        <ele>162.6</ele>
        <time>2018-09-05T12:43:45Z</time>
      </trkpt>
      <trkpt lat="49.61635" lon="5.03167">
        <ele>162.12</ele>
        <time>2018-09-05T12:43:57Z</time>
      </trkpt>
      <trkpt lat="49.61652" lon="5.0315">
        <ele>161.64</ele>
        <time>2018-09-05T12:44:11Z</time>
      </trkpt>
      <trkpt lat="49.61664" lon="5.03136">
        <ele>161.16</ele>
        <time>2018-09-05T12:44:24Z</time>
      </trkpt>
      <trkpt lat="49.61678" lon="5.03125">
        <ele>161.64</ele>
        <time>2018-09-05T12:44:38Z</time>
      </trkpt>
      <trkpt lat="49.6169" lon="5.03116">
        <ele>161.64</ele>
        <time>2018-09-05T12:44:50Z</time>
      </trkpt>
      <trkpt lat="49.61706" lon="5.03106">
        <ele>162.12</ele>
        <time>2018-09-05T12:45:05Z</time>
      </trkpt>
      <trkpt lat="49.6172" lon="5.03096">
        <ele>161.16</ele>
        <time>2018-09-05T12:45:19Z</time>
      </trkpt>
      <trkpt lat="49.61736" lon="5.03085">
        <ele>159.24</ele>
        <time>2018-09-05T12:45:34Z</time>
      </trkpt>
      <trkpt lat="49.61743" lon="5.0308">
        <ele>159.24</ele>
        <time>2018-09-05T12:45:40Z</time>
      </trkpt>
      <trkpt lat="49.61758" lon="5.03072">
        <ele>157.31</ele>
        <time>2018-09-05T12:45:54Z</time>
      </trkpt>
      <trkpt lat="49.6176" lon="5.0307">
        <ele>157.31</ele>
        <time>2018-09-05T12:45:56Z</time>
      </trkpt>
      <trkpt lat="49.61774" lon="5.03063">
        <ele>158.75</ele>
        <time>2018-09-05T12:46:09Z</time>
      </trkpt>
      <trkpt lat="49.61783" lon="5.0306">
        <ele>162.6</ele>
        <time>2018-09-05T12:46:21Z</time>
      </trkpt>
      <trkpt lat="49.61799" lon="5.03053">
        <ele>164.04</ele>
        <time>2018-09-05T12:46:34Z</time>
      </trkpt>
      <trkpt lat="49.61816" lon="5.03046">
        <ele>162.6</ele>
        <time>2018-09-05T12:46:48Z</time>
      </trkpt>
      <trkpt lat="49.61832" lon="5.03041">
        <ele>161.16</ele>
        <time>2018-09-05T12:47:01Z</time>
      </trkpt>
      <trkpt lat="49.61836" lon="5.03039">
        <ele>161.16</ele>
        <time>2018-09-05T12:47:06Z</time>
      </trkpt>
      <trkpt lat="49.6185" lon="5.03035">
        <ele>161.16</ele>
        <time>2018-09-05T12:47:20Z</time>
      </trkpt>
      <trkpt lat="49.61864" lon="5.03032">
        <ele>158.75</ele>
        <time>2018-09-05T12:47:33Z</time>
      </trkpt>
      <trkpt lat="49.61879" lon="5.03029">
        <ele>158.27</ele>
        <time>2018-09-05T12:47:45Z</time>
      </trkpt>
      <trkpt lat="49.61888" lon="5.03027">
        <ele>158.27</ele>
        <time>2018-09-05T12:47:52Z</time>
      </trkpt>
      <trkpt lat="49.61894" lon="5.03022">
        <ele>160.68</ele>
        <time>2018-09-05T12:48:01Z</time>
      </trkpt>
      <trkpt lat="49.61908" lon="5.03004">
        <ele>162.12</ele>
        <time>2018-09-05T12:48:16Z</time>
      </trkpt>
      <trkpt lat="49.61922" lon="5.02989">
        <ele>161.64</ele>
        <time>2018-09-05T12:48:29Z</time>
      </trkpt>
      <trkpt lat="49.61939" lon="5.02979">
        <ele>161.16</ele>
        <time>2018-09-05T12:48:45Z</time>
      </trkpt>
      <trkpt lat="49.61948" lon="5.02976">
        <ele>161.16</ele>
        <time>2018-09-05T12:48:54Z</time>
      </trkpt>
      <trkpt lat="49.6197" lon="5.02973">
        <ele>160.68</ele>
        <time>2018-09-05T12:49:12Z</time>
      </trkpt>
      <trkpt lat="49.61986" lon="5.02973">
        <ele>161.64</ele>
        <time>2018-09-05T12:49:25Z</time>
      </trkpt>
      <trkpt lat="49.61996" lon="5.02973">
        <ele>160.2</ele>
        <time>2018-09-05T12:49:34Z</time>
      </trkpt>
      <trkpt lat="49.62009" lon="5.02976">
        <ele>160.2</ele>
        <time>2018-09-05T12:49:47Z</time>
      </trkpt>
      <trkpt lat="49.62012" lon="5.02976">
        <ele>159.72</ele>
        <time>2018-09-05T12:49:49Z</time>
      </trkpt>
      <trkpt lat="49.62029" lon="5.02976">
        <ele>157.79</ele>
        <time>2018-09-05T12:50:04Z</time>
      </trkpt>
      <trkpt lat="49.62032" lon="5.02976">
        <ele>157.79</ele>
        <time>2018-09-05T12:50:06Z</time>
      </trkpt>
      <trkpt lat="49.62048" lon="5.02974">
        <ele>154.91</ele>
        <time>2018-09-05T12:50:21Z</time>
      </trkpt>
      <trkpt lat="49.62065" lon="5.0297">
        <ele>149.62</ele>
        <time>2018-09-05T12:50:36Z</time>
      </trkpt>
      <trkpt lat="49.62085" lon="5.02965">
        <ele>148.18</ele>
        <time>2018-09-05T12:50:51Z</time>
      </trkpt>
      <trkpt lat="49.62102" lon="5.02963">
        <ele>146.26</ele>
        <time>2018-09-05T12:51:07Z</time>
      </trkpt>
      <trkpt lat="49.62121" lon="5.02959">
        <ele>146.26</ele>
        <time>2018-09-05T12:51:23Z</time>
      </trkpt>
      <trkpt lat="49.62138" lon="5.02955">
        <ele>147.22</ele>
        <time>2018-09-05T12:51:36Z</time>
      </trkpt>
      <trkpt lat="49.62154" lon="5.02955">
        <ele>146.26</ele>
        <time>2018-09-05T12:51:52Z</time>
      </trkpt>
      <trkpt lat="49.62162" lon="5.02955">
        <ele>146.26</ele>
        <time>2018-09-05T12:51:58Z</time>
      </trkpt>
      <trkpt lat="49.62172" lon="5.0295">
        <ele>145.3</ele>
        <time>2018-09-05T12:52:09Z</time>
      </trkpt>
      <trkpt lat="49.62189" lon="5.02949">
        <ele>143.85</ele>
        <time>2018-09-05T12:52:22Z</time>
      </trkpt>
      <trkpt lat="49.62203" lon="5.02943">
        <ele>142.89</ele>
        <time>2018-09-05T12:52:35Z</time>
      </trkpt>
      <trkpt lat="49.62216" lon="5.0294">
        <ele>146.26</ele>
        <time>2018-09-05T12:52:48Z</time>
      </trkpt>
      <trkpt lat="49.62233" lon="5.02937">
        <ele>150.58</ele>
        <time>2018-09-05T12:53:01Z</time>
      </trkpt>
      <trkpt lat="49.6225" lon="5.02936">
        <ele>152.51</ele>
        <time>2018-09-05T12:53:16Z</time>
      </trkpt>
      <trkpt lat="49.62261" lon="5.02934">
        <ele>152.99</ele>
        <time>2018-09-05T12:53:27Z</time>
      </trkpt>
      <trkpt lat="49.62267" lon="5.02936">
        <ele>152.51</ele>
        <time>2018-09-05T12:53:31Z</time>
      </trkpt>
      <trkpt lat="49.62274" lon="5.02936">
        <ele>152.51</ele>
        <time>2018-09-05T12:53:36Z</time>
      </trkpt>
      <trkpt lat="49.62289" lon="5.02938">
        <ele>153.95</ele>
        <time>2018-09-05T12:53:51Z</time>
      </trkpt>
      <trkpt lat="49.62303" lon="5.02938">
        <ele>152.03</ele>
        <time>2018-09-05T12:54:05Z</time>
      </trkpt>
      <trkpt lat="49.62322" lon="5.02938">
        <ele>150.58</ele>
        <time>2018-09-05T12:54:22Z</time>
      </trkpt>
      <trkpt lat="49.62339" lon="5.02936">
        <ele>149.62</ele>
        <time>2018-09-05T12:54:38Z</time>
      </trkpt>
      <trkpt lat="49.62354" lon="5.0293">
        <ele>149.14</ele>
        <time>2018-09-05T12:54:52Z</time>
      </trkpt>
      <trkpt lat="49.62363" lon="5.02928">
        <ele>149.62</ele>
        <time>2018-09-05T12:55:02Z</time>
      </trkpt>
      <trkpt lat="49.62364" lon="5.02927">
        <ele>151.06</ele>
        <time>2018-09-05T12:55:18Z</time>
      </trkpt>
      <trkpt lat="49.62368" lon="5.02924">
        <ele>150.58</ele>
        <time>2018-09-05T12:55:24Z</time>
      </trkpt>
      <trkpt lat="49.62374" lon="5.02921">
        <ele>150.58</ele>
        <time>2018-09-05T12:55:29Z</time>
      </trkpt>
      <trkpt lat="49.62388" lon="5.02909">
        <ele>149.14</ele>
        <time>2018-09-05T12:55:43Z</time>
      </trkpt>
      <trkpt lat="49.62396" lon="5.02903">
        <ele>150.1</ele>
        <time>2018-09-05T12:55:55Z</time>
      </trkpt>
      <trkpt lat="49.62401" lon="5.02899">
        <ele>152.99</ele>
        <time>2018-09-05T12:56:13Z</time>
      </trkpt>
      <trkpt lat="49.62403" lon="5.02894">
        <ele>152.99</ele>
        <time>2018-09-05T12:56:18Z</time>
      </trkpt>
      <trkpt lat="49.62404" lon="5.02888">
        <ele>153.47</ele>
        <time>2018-09-05T12:56:21Z</time>
      </trkpt>
      <trkpt lat="49.62407" lon="5.0288">
        <ele>152.99</ele>
        <time>2018-09-05T12:56:25Z</time>
      </trkpt>
      <trkpt lat="49.62408" lon="5.0285">
        <ele>151.54</ele>
        <time>2018-09-05T12:56:41Z</time>
      </trkpt>
      <trkpt lat="49.62408" lon="5.02842">
        <ele>152.03</ele>
        <time>2018-09-05T12:56:44Z</time>
      </trkpt>
      <trkpt lat="49.62407" lon="5.02817">
        <ele>153.95</ele>
        <time>2018-09-05T12:57:00Z</time>
      </trkpt>
      <trkpt lat="49.62407" lon="5.02812">
        <ele>154.43</ele>
        <time>2018-09-05T12:57:05Z</time>
      </trkpt>
      <trkpt lat="49.62408" lon="5.02805">
        <ele>155.39</ele>
        <time>2018-09-05T12:57:09Z</time>
      </trkpt>
      <trkpt lat="49.62408" lon="5.02788">
        <ele>155.87</ele>
        <time>2018-09-05T12:57:19Z</time>
      </trkpt>
      <trkpt lat="49.62407" lon="5.02763">
        <ele>156.35</ele>
        <time>2018-09-05T12:57:34Z</time>
      </trkpt>
      <trkpt lat="49.62407" lon="5.0276">
        <ele>155.87</ele>
        <time>2018-09-05T12:57:36Z</time>
      </trkpt>
      <trkpt lat="49.62405" lon="5.02737">
        <ele>154.43</ele>
        <time>2018-09-05T12:57:49Z</time>
      </trkpt>
      <trkpt lat="49.62403" lon="5.02714">
        <ele>152.99</ele>
        <time>2018-09-05T12:58:02Z</time>
      </trkpt>
      <trkpt lat="49.62401" lon="5.02688">
        <ele>156.35</ele>
        <time>2018-09-05T12:58:17Z</time>
      </trkpt>
      <trkpt lat="49.62401" lon="5.02665">
        <ele>157.79</ele>
        <time>2018-09-05T12:58:30Z</time>
      </trkpt>
      <trkpt lat="49.62401" lon="5.0265">
        <ele>157.79</ele>
        <time>2018-09-05T12:58:38Z</time>
      </trkpt>
      <trkpt lat="49.62399" lon="5.02639">
        <ele>158.75</ele>
        <time>2018-09-05T12:58:46Z</time>
      </trkpt>
      <trkpt lat="49.624" lon="5.0263">
        <ele>158.75</ele>
        <time>2018-09-05T12:58:51Z</time>
      </trkpt>
      <trkpt lat="49.62396" lon="5.02617">
        <ele>159.24</ele>
        <time>2018-09-05T12:58:59Z</time>
      </trkpt>
      <trkpt lat="49.62396" lon="5.02592">
        <ele>162.12</ele>
        <time>2018-09-05T12:59:15Z</time>
      </trkpt>
      <trkpt lat="49.62394" lon="5.02569">
        <ele>165</ele>
        <time>2018-09-05T12:59:28Z</time>
      </trkpt>
      <trkpt lat="49.62392" lon="5.02546">
        <ele>165.96</ele>
        <time>2018-09-05T12:59:41Z</time>
      </trkpt>
      <trkpt lat="49.6239" lon="5.02523">
        <ele>165.48</ele>
        <time>2018-09-05T12:59:55Z</time>
      </trkpt>
      <trkpt lat="49.62389" lon="5.02521">
        <ele>165.48</ele>
        <time>2018-09-05T12:59:56Z</time>
      </trkpt>
      <trkpt lat="49.62389" lon="5.02496">
        <ele>166.45</ele>
        <time>2018-09-05T13:00:11Z</time>
      </trkpt>
      <trkpt lat="49.62387" lon="5.02471">
        <ele>168.37</ele>
        <time>2018-09-05T13:00:25Z</time>
      </trkpt>
      <trkpt lat="49.62387" lon="5.02443">
        <ele>167.41</ele>
        <time>2018-09-05T13:00:39Z</time>
      </trkpt>
      <trkpt lat="49.62388" lon="5.02432">
        <ele>166.45</ele>
        <time>2018-09-05T13:00:46Z</time>
      </trkpt>
      <trkpt lat="49.62387" lon="5.02412">
        <ele>166.45</ele>
        <time>2018-09-05T13:00:58Z</time>
      </trkpt>
      <trkpt lat="49.62387" lon="5.02406">
        <ele>166.45</ele>
        <time>2018-09-05T13:01:01Z</time>
      </trkpt>
      <trkpt lat="49.62387" lon="5.02397">
        <ele>166.45</ele>
        <time>2018-09-05T13:01:05Z</time>
      </trkpt>
      <trkpt lat="49.62386" lon="5.02375">
        <ele>166.93</ele>
        <time>2018-09-05T13:01:19Z</time>
      </trkpt>
      <trkpt lat="49.62384" lon="5.02352">
        <ele>168.37</ele>
        <time>2018-09-05T13:01:33Z</time>
      </trkpt>
      <trkpt lat="49.62384" lon="5.02331">
        <ele>168.37</ele>
        <time>2018-09-05T13:01:46Z</time>
      </trkpt>
      <trkpt lat="49.62386" lon="5.02315">
        <ele>167.89</ele>
        <time>2018-09-05T13:01:54Z</time>
      </trkpt>
      <trkpt lat="49.62386" lon="5.02307">
        <ele>167.89</ele>
        <time>2018-09-05T13:02:00Z</time>
      </trkpt>
      <trkpt lat="49.62388" lon="5.02281">
        <ele>167.41</ele>
        <time>2018-09-05T13:02:15Z</time>
      </trkpt>
      <trkpt lat="49.62391" lon="5.02256">
        <ele>166.93</ele>
        <time>2018-09-05T13:02:30Z</time>
      </trkpt>
      <trkpt lat="49.62392" lon="5.02232">
        <ele>166.93</ele>
        <time>2018-09-05T13:02:44Z</time>
      </trkpt>
      <trkpt lat="49.62393" lon="5.02222">
        <ele>167.89</ele>
        <time>2018-09-05T13:02:49Z</time>
      </trkpt>
      <trkpt lat="49.62393" lon="5.02207">
        <ele>169.81</ele>
        <time>2018-09-05T13:02:58Z</time>
      </trkpt>
      <trkpt lat="49.62395" lon="5.02195">
        <ele>170.77</ele>
        <time>2018-09-05T13:03:04Z</time>
      </trkpt>
      <trkpt lat="49.62396" lon="5.02169">
        <ele>172.69</ele>
        <time>2018-09-05T13:03:19Z</time>
      </trkpt>
      <trkpt lat="49.62395" lon="5.02154">
        <ele>173.66</ele>
        <time>2018-09-05T13:03:29Z</time>
      </trkpt>
      <trkpt lat="49.62395" lon="5.02136">
        <ele>174.14</ele>
        <time>2018-09-05T13:03:40Z</time>
      </trkpt>
      <trkpt lat="49.62401" lon="5.02114">
        <ele>174.14</ele>
        <time>2018-09-05T13:03:54Z</time>
      </trkpt>
      <trkpt lat="49.62406" lon="5.02095">
        <ele>174.14</ele>
        <time>2018-09-05T13:04:07Z</time>
      </trkpt>
      <trkpt lat="49.62406" lon="5.02094">
        <ele>174.14</ele>
        <time>2018-09-05T13:04:24Z</time>
      </trkpt>
      <trkpt lat="49.62406" lon="5.02095">
        <ele>174.14</ele>
        <time>2018-09-05T13:04:42Z</time>
      </trkpt>
      <trkpt lat="49.62406" lon="5.02094">
        <ele>174.14</ele>
        <time>2018-09-05T13:05:08Z</time>
      </trkpt>
      <trkpt lat="49.62406" lon="5.02094">
        <ele>174.62</ele>
        <time>2018-09-05T13:05:30Z</time>
      </trkpt>
      <trkpt lat="49.62407" lon="5.02094">
        <ele>174.62</ele>
        <time>2018-09-05T13:05:48Z</time>
      </trkpt>
      <trkpt lat="49.62407" lon="5.02094">
        <ele>174.62</ele>
        <time>2018-09-05T13:06:05Z</time>
      </trkpt>
      <trkpt lat="49.62407" lon="5.02093">
        <ele>174.62</ele>
        <time>2018-09-05T13:06:22Z</time>
      </trkpt>
      <trkpt lat="49.62407" lon="5.02093">
        <ele>175.58</ele>
        <time>2018-09-05T13:07:06Z</time>
      </trkpt>
      <trkpt lat="49.62406" lon="5.02092">
        <ele>175.58</ele>
        <time>2018-09-05T13:07:33Z</time>
      </trkpt>
      <trkpt lat="49.62406" lon="5.02093">
        <ele>174.62</ele>
        <time>2018-09-05T13:08:05Z</time>
      </trkpt>
      <trkpt lat="49.62406" lon="5.02093">
        <ele>174.62</ele>
        <time>2018-09-05T13:08:23Z</time>
      </trkpt>
      <trkpt lat="49.62406" lon="5.02093">
        <ele>174.62</ele>
        <time>2018-09-05T13:08:41Z</time>
      </trkpt>
      <trkpt lat="49.62406" lon="5.02094">
        <ele>174.14</ele>
        <time>2018-09-05T13:09:04Z</time>
      </trkpt>
      <trkpt lat="49.62411" lon="5.02091">
        <ele>174.14</ele>
        <time>2018-09-05T13:09:27Z</time>
      </trkpt>
      <trkpt lat="49.62428" lon="5.0208">
        <ele>176.06</ele>
        <time>2018-09-05T13:09:43Z</time>
      </trkpt>
      <trkpt lat="49.62443" lon="5.02071">
        <ele>177.02</ele>
        <time>2018-09-05T13:09:57Z</time>
      </trkpt>
      <trkpt lat="49.62457" lon="5.02064">
        <ele>178.94</ele>
        <time>2018-09-05T13:10:10Z</time>
      </trkpt>
      <trkpt lat="49.62473" lon="5.02056">
        <ele>179.9</ele>
        <time>2018-09-05T13:10:25Z</time>
      </trkpt>
      <trkpt lat="49.62487" lon="5.02052">
        <ele>181.35</ele>
        <time>2018-09-05T13:10:39Z</time>
      </trkpt>
      <trkpt lat="49.62502" lon="5.02051">
        <ele>182.79</ele>
        <time>2018-09-05T13:10:52Z</time>
      </trkpt>
      <trkpt lat="49.62517" lon="5.02053">
        <ele>182.31</ele>
        <time>2018-09-05T13:11:06Z</time>
      </trkpt>
      <trkpt lat="49.62532" lon="5.02058">
        <ele>181.83</ele>
        <time>2018-09-05T13:11:20Z</time>
      </trkpt>
      <trkpt lat="49.62546" lon="5.02064">
        <ele>181.35</ele>
        <time>2018-09-05T13:11:33Z</time>
      </trkpt>
      <trkpt lat="49.62561" lon="5.02072">
        <ele>182.79</ele>
        <time>2018-09-05T13:11:46Z</time>
      </trkpt>
      <trkpt lat="49.62574" lon="5.02076">
        <ele>182.79</ele>
        <time>2018-09-05T13:11:59Z</time>
      </trkpt>
      <trkpt lat="49.62575" lon="5.02077">
        <ele>182.79</ele>
        <time>2018-09-05T13:12:00Z</time>
      </trkpt>
      <trkpt lat="49.62589" lon="5.02082">
        <ele>182.31</ele>
        <time>2018-09-05T13:12:13Z</time>
      </trkpt>
      <trkpt lat="49.62604" lon="5.02078">
        <ele>183.75</ele>
        <time>2018-09-05T13:12:26Z</time>
      </trkpt>
      <trkpt lat="49.62612" lon="5.02062">
        <ele>185.19</ele>
        <time>2018-09-05T13:12:39Z</time>
      </trkpt>
      <trkpt lat="49.62617" lon="5.02038">
        <ele>187.11</ele>
        <time>2018-09-05T13:12:54Z</time>
      </trkpt>
      <trkpt lat="49.62621" lon="5.02024">
        <ele>187.59</ele>
        <time>2018-09-05T13:13:03Z</time>
      </trkpt>
      <trkpt lat="49.62623" lon="5.02016">
        <ele>187.59</ele>
        <time>2018-09-05T13:13:07Z</time>
      </trkpt>
      <trkpt lat="49.62628" lon="5.01996">
        <ele>188.08</ele>
        <time>2018-09-05T13:13:21Z</time>
      </trkpt>
      <trkpt lat="49.62634" lon="5.01974">
        <ele>190</ele>
        <time>2018-09-05T13:13:35Z</time>
      </trkpt>
      <trkpt lat="49.62641" lon="5.01952">
        <ele>191.92</ele>
        <time>2018-09-05T13:13:49Z</time>
      </trkpt>
      <trkpt lat="49.62648" lon="5.01932">
        <ele>194.32</ele>
        <time>2018-09-05T13:14:03Z</time>
      </trkpt>
      <trkpt lat="49.62655" lon="5.01911">
        <ele>195.77</ele>
        <time>2018-09-05T13:14:17Z</time>
      </trkpt>
      <trkpt lat="49.62664" lon="5.01891">
        <ele>199.13</ele>
        <time>2018-09-05T13:14:31Z</time>
      </trkpt>
      <trkpt lat="49.6267" lon="5.01872">
        <ele>202.49</ele>
        <time>2018-09-05T13:14:45Z</time>
      </trkpt>
      <trkpt lat="49.62679" lon="5.01853">
        <ele>203.46</ele>
        <time>2018-09-05T13:15:00Z</time>
      </trkpt>
      <trkpt lat="49.62688" lon="5.01833">
        <ele>204.9</ele>
        <time>2018-09-05T13:15:14Z</time>
      </trkpt>
      <trkpt lat="49.62695" lon="5.01813">
        <ele>207.78</ele>
        <time>2018-09-05T13:15:28Z</time>
      </trkpt>
      <trkpt lat="49.62705" lon="5.01796">
        <ele>210.67</ele>
        <time>2018-09-05T13:15:43Z</time>
      </trkpt>
      <trkpt lat="49.62716" lon="5.01781">
        <ele>214.03</ele>
        <time>2018-09-05T13:15:57Z</time>
      </trkpt>
      <trkpt lat="49.62728" lon="5.01767">
        <ele>217.4</ele>
        <time>2018-09-05T13:16:11Z</time>
      </trkpt>
      <trkpt lat="49.62738" lon="5.01755">
        <ele>219.8</ele>
        <time>2018-09-05T13:16:24Z</time>
      </trkpt>
      <trkpt lat="49.6275" lon="5.01742">
        <ele>221.72</ele>
        <time>2018-09-05T13:16:38Z</time>
      </trkpt>
      <trkpt lat="49.62764" lon="5.01726">
        <ele>224.12</ele>
        <time>2018-09-05T13:16:54Z</time>
      </trkpt>
      <trkpt lat="49.62776" lon="5.01713">
        <ele>226.05</ele>
        <time>2018-09-05T13:17:09Z</time>
      </trkpt>
      <trkpt lat="49.62785" lon="5.01702">
        <ele>227.01</ele>
        <time>2018-09-05T13:17:22Z</time>
      </trkpt>
      <trkpt lat="49.62798" lon="5.01689">
        <ele>229.89</ele>
        <time>2018-09-05T13:17:36Z</time>
      </trkpt>
      <trkpt lat="49.6281" lon="5.01675">
        <ele>232.78</ele>
        <time>2018-09-05T13:17:51Z</time>
      </trkpt>
      <trkpt lat="49.62821" lon="5.01661">
        <ele>234.7</ele>
        <time>2018-09-05T13:18:06Z</time>
      </trkpt>
      <trkpt lat="49.62831" lon="5.01643">
        <ele>235.66</ele>
        <time>2018-09-05T13:18:20Z</time>
      </trkpt>
      <trkpt lat="49.62838" lon="5.01623">
        <ele>235.66</ele>
        <time>2018-09-05T13:18:33Z</time>
      </trkpt>
      <trkpt lat="49.62846" lon="5.01603">
        <ele>238.06</ele>
        <time>2018-09-05T13:18:47Z</time>
      </trkpt>
      <trkpt lat="49.62853" lon="5.01583">
        <ele>239.51</ele>
        <time>2018-09-05T13:19:01Z</time>
      </trkpt>
      <trkpt lat="49.6286" lon="5.01565">
        <ele>240.95</ele>
        <time>2018-09-05T13:19:14Z</time>
      </trkpt>
      <trkpt lat="49.62868" lon="5.01543">
        <ele>245.27</ele>
        <time>2018-09-05T13:19:28Z</time>
      </trkpt>
      <trkpt lat="49.62871" lon="5.01533">
        <ele>248.64</ele>
        <time>2018-09-05T13:19:35Z</time>
      </trkpt>
      <trkpt lat="49.62876" lon="5.01513">
        <ele>251.52</ele>
        <time>2018-09-05T13:19:49Z</time>
      </trkpt>
      <trkpt lat="49.62883" lon="5.01492">
        <ele>249.6</ele>
        <time>2018-09-05T13:20:03Z</time>
      </trkpt>
      <trkpt lat="49.62888" lon="5.01473">
        <ele>250.08</ele>
        <time>2018-09-05T13:20:15Z</time>
      </trkpt>
      <trkpt lat="49.62891" lon="5.01454">
        <ele>249.6</ele>
        <time>2018-09-05T13:20:28Z</time>
      </trkpt>
      <trkpt lat="49.62896" lon="5.01431">
        <ele>250.56</ele>
        <time>2018-09-05T13:20:41Z</time>
      </trkpt>
      <trkpt lat="49.629" lon="5.01414">
        <ele>251.04</ele>
        <time>2018-09-05T13:20:55Z</time>
      </trkpt>
      <trkpt lat="49.62903" lon="5.01397">
        <ele>251.04</ele>
        <time>2018-09-05T13:21:08Z</time>
      </trkpt>
      <trkpt lat="49.62906" lon="5.01376">
        <ele>250.56</ele>
        <time>2018-09-05T13:21:21Z</time>
      </trkpt>
      <trkpt lat="49.62911" lon="5.01352">
        <ele>249.6</ele>
        <time>2018-09-05T13:21:35Z</time>
      </trkpt>
      <trkpt lat="49.62914" lon="5.01326">
        <ele>250.08</ele>
        <time>2018-09-05T13:21:51Z</time>
      </trkpt>
      <trkpt lat="49.62917" lon="5.01304">
        <ele>250.56</ele>
        <time>2018-09-05T13:22:04Z</time>
      </trkpt>
      <trkpt lat="49.62919" lon="5.01279">
        <ele>251.04</ele>
        <time>2018-09-05T13:22:18Z</time>
      </trkpt>
      <trkpt lat="49.62919" lon="5.01256">
        <ele>252</ele>
        <time>2018-09-05T13:22:31Z</time>
      </trkpt>
      <trkpt lat="49.62919" lon="5.01237">
        <ele>252.96</ele>
        <time>2018-09-05T13:22:44Z</time>
      </trkpt>
      <trkpt lat="49.6292" lon="5.01211">
        <ele>253.44</ele>
        <time>2018-09-05T13:22:59Z</time>
      </trkpt>
      <trkpt lat="49.62921" lon="5.01188">
        <ele>254.41</ele>
        <time>2018-09-05T13:23:11Z</time>
      </trkpt>
      <trkpt lat="49.62922" lon="5.01167">
        <ele>253.93</ele>
        <time>2018-09-05T13:23:25Z</time>
      </trkpt>
      <trkpt lat="49.62924" lon="5.01143">
        <ele>253.93</ele>
        <time>2018-09-05T13:23:40Z</time>
      </trkpt>
      <trkpt lat="49.62924" lon="5.01129">
        <ele>252.96</ele>
        <time>2018-09-05T13:23:48Z</time>
      </trkpt>
      <trkpt lat="49.6293" lon="5.01103">
        <ele>253.93</ele>
        <time>2018-09-05T13:24:04Z</time>
      </trkpt>
      <trkpt lat="49.62935" lon="5.01079">
        <ele>254.89</ele>
        <time>2018-09-05T13:24:18Z</time>
      </trkpt>
      <trkpt lat="49.6294" lon="5.01057">
        <ele>253.93</ele>
        <time>2018-09-05T13:24:32Z</time>
      </trkpt>
      <trkpt lat="49.62945" lon="5.01034">
        <ele>253.44</ele>
        <time>2018-09-05T13:24:46Z</time>
      </trkpt>
      <trkpt lat="49.62948" lon="5.01011">
        <ele>253.44</ele>
        <time>2018-09-05T13:25:00Z</time>
      </trkpt>
      <trkpt lat="49.62951" lon="5.00987">
        <ele>252.96</ele>
        <time>2018-09-05T13:25:15Z</time>
      </trkpt>
      <trkpt lat="49.62955" lon="5.00963">
        <ele>253.44</ele>
        <time>2018-09-05T13:25:30Z</time>
      </trkpt>
      <trkpt lat="49.62958" lon="5.00942">
        <ele>254.89</ele>
        <time>2018-09-05T13:25:44Z</time>
      </trkpt>
      <trkpt lat="49.6296" lon="5.00916">
        <ele>255.37</ele>
        <time>2018-09-05T13:25:58Z</time>
      </trkpt>
      <trkpt lat="49.62961" lon="5.00895">
        <ele>254.89</ele>
        <time>2018-09-05T13:26:11Z</time>
      </trkpt>
      <trkpt lat="49.62962" lon="5.00875">
        <ele>252.96</ele>
        <time>2018-09-05T13:26:23Z</time>
      </trkpt>
      <trkpt lat="49.62963" lon="5.00868">
        <ele>252.96</ele>
        <time>2018-09-05T13:26:29Z</time>
      </trkpt>
      <trkpt lat="49.62965" lon="5.00845">
        <ele>253.44</ele>
        <time>2018-09-05T13:26:43Z</time>
      </trkpt>
      <trkpt lat="49.62968" lon="5.0082">
        <ele>253.44</ele>
        <time>2018-09-05T13:26:57Z</time>
      </trkpt>
      <trkpt lat="49.62968" lon="5.00812">
        <ele>252.96</ele>
        <time>2018-09-05T13:27:03Z</time>
      </trkpt>
      <trkpt lat="49.6297" lon="5.00788">
        <ele>252</ele>
        <time>2018-09-05T13:27:17Z</time>
      </trkpt>
      <trkpt lat="49.62973" lon="5.00765">
        <ele>251.04</ele>
        <time>2018-09-05T13:27:31Z</time>
      </trkpt>
      <trkpt lat="49.62974" lon="5.00744">
        <ele>251.04</ele>
        <time>2018-09-05T13:27:43Z</time>
      </trkpt>
      <trkpt lat="49.62976" lon="5.00722">
        <ele>251.04</ele>
        <time>2018-09-05T13:27:56Z</time>
      </trkpt>
      <trkpt lat="49.62979" lon="5.007">
        <ele>251.04</ele>
        <time>2018-09-05T13:28:09Z</time>
      </trkpt>
      <trkpt lat="49.62981" lon="5.00679">
        <ele>251.04</ele>
        <time>2018-09-05T13:28:23Z</time>
      </trkpt>
      <trkpt lat="49.62981" lon="5.0066">
        <ele>251.04</ele>
        <time>2018-09-05T13:28:36Z</time>
      </trkpt>
      <trkpt lat="49.6298" lon="5.00648">
        <ele>251.52</ele>
        <time>2018-09-05T13:28:49Z</time>
      </trkpt>
      <trkpt lat="49.62978" lon="5.00632">
        <ele>252</ele>
        <time>2018-09-05T13:29:01Z</time>
      </trkpt>
      <trkpt lat="49.62976" lon="5.00624">
        <ele>252.96</ele>
        <time>2018-09-05T13:29:15Z</time>
      </trkpt>
      <trkpt lat="49.62969" lon="5.00606">
        <ele>251.04</ele>
        <time>2018-09-05T13:29:28Z</time>
      </trkpt>
      <trkpt lat="49.62962" lon="5.00587">
        <ele>251.04</ele>
        <time>2018-09-05T13:29:43Z</time>
      </trkpt>
      <trkpt lat="49.62956" lon="5.00566">
        <ele>251.52</ele>
        <time>2018-09-05T13:29:59Z</time>
      </trkpt>
      <trkpt lat="49.62955" lon="5.00561">
        <ele>252</ele>
        <time>2018-09-05T13:30:03Z</time>
      </trkpt>
      <trkpt lat="49.62955" lon="5.00553">
        <ele>251.52</ele>
        <time>2018-09-05T13:30:12Z</time>
      </trkpt>
      <trkpt lat="49.62958" lon="5.00552">
        <ele>253.44</ele>
        <time>2018-09-05T13:30:24Z</time>
      </trkpt>
      <trkpt lat="49.62958" lon="5.00553">
        <ele>253.44</ele>
        <time>2018-09-05T13:30:25Z</time>
      </trkpt>
      <trkpt lat="49.62968" lon="5.00567">
        <ele>257.77</ele>
        <time>2018-09-05T13:30:40Z</time>
      </trkpt>
      <trkpt lat="49.62969" lon="5.00568">
        <ele>258.25</ele>
        <time>2018-09-05T13:30:41Z</time>
      </trkpt>
      <trkpt lat="49.6298" lon="5.00583">
        <ele>262.1</ele>
        <time>2018-09-05T13:30:55Z</time>
      </trkpt>
      <trkpt lat="49.6299" lon="5.00595">
        <ele>264.98</ele>
        <time>2018-09-05T13:31:09Z</time>
      </trkpt>
      <trkpt lat="49.63002" lon="5.00612">
        <ele>267.38</ele>
        <time>2018-09-05T13:31:24Z</time>
      </trkpt>
      <trkpt lat="49.63012" lon="5.00621">
        <ele>266.9</ele>
        <time>2018-09-05T13:31:37Z</time>
      </trkpt>
      <trkpt lat="49.63013" lon="5.00622">
        <ele>266.9</ele>
        <time>2018-09-05T13:31:38Z</time>
      </trkpt>
      <trkpt lat="49.63016" lon="5.00626">
        <ele>266.42</ele>
        <time>2018-09-05T13:31:41Z</time>
      </trkpt>
      <trkpt lat="49.6302" lon="5.00629">
        <ele>264.98</ele>
        <time>2018-09-05T13:31:47Z</time>
      </trkpt>
      <trkpt lat="49.6303" lon="5.00645">
        <ele>262.58</ele>
        <time>2018-09-05T13:32:00Z</time>
      </trkpt>
      <trkpt lat="49.63038" lon="5.00659">
        <ele>262.58</ele>
        <time>2018-09-05T13:32:12Z</time>
      </trkpt>
      <trkpt lat="49.63046" lon="5.00676">
        <ele>262.1</ele>
        <time>2018-09-05T13:32:25Z</time>
      </trkpt>
      <trkpt lat="49.63052" lon="5.00694">
        <ele>262.58</ele>
        <time>2018-09-05T13:32:38Z</time>
      </trkpt>
      <trkpt lat="49.63058" lon="5.00715">
        <ele>264.02</ele>
        <time>2018-09-05T13:32:53Z</time>
      </trkpt>
      <trkpt lat="49.63062" lon="5.00733">
        <ele>266.42</ele>
        <time>2018-09-05T13:33:08Z</time>
      </trkpt>
      <trkpt lat="49.63067" lon="5.00746">
        <ele>267.38</ele>
        <time>2018-09-05T13:33:21Z</time>
      </trkpt>
      <trkpt lat="49.63071" lon="5.00762">
        <ele>265.94</ele>
        <time>2018-09-05T13:33:35Z</time>
      </trkpt>
      <trkpt lat="49.63082" lon="5.00783">
        <ele>260.65</ele>
        <time>2018-09-05T13:33:51Z</time>
      </trkpt>
      <trkpt lat="49.63085" lon="5.0079">
        <ele>258.25</ele>
        <time>2018-09-05T13:34:09Z</time>
      </trkpt>
      <trkpt lat="49.63088" lon="5.00794">
        <ele>258.25</ele>
        <time>2018-09-05T13:34:29Z</time>
      </trkpt>
      <trkpt lat="49.63088" lon="5.00795">
        <ele>257.77</ele>
        <time>2018-09-05T13:34:40Z</time>
      </trkpt>
      <trkpt lat="49.63089" lon="5.00799">
        <ele>257.77</ele>
        <time>2018-09-05T13:34:45Z</time>
      </trkpt>
      <trkpt lat="49.63092" lon="5.00815">
        <ele>258.25</ele>
        <time>2018-09-05T13:34:58Z</time>
      </trkpt>
      <trkpt lat="49.631" lon="5.00836">
        <ele>257.29</ele>
        <time>2018-09-05T13:35:13Z</time>
      </trkpt>
      <trkpt lat="49.63107" lon="5.00852">
        <ele>255.85</ele>
        <time>2018-09-05T13:35:27Z</time>
      </trkpt>
      <trkpt lat="49.63114" lon="5.00868">
        <ele>257.29</ele>
        <time>2018-09-05T13:35:41Z</time>
      </trkpt>
      <trkpt lat="49.63118" lon="5.00874">
        <ele>256.33</ele>
        <time>2018-09-05T13:35:56Z</time>
      </trkpt>
      <trkpt lat="49.63121" lon="5.00887">
        <ele>254.89</ele>
        <time>2018-09-05T13:36:07Z</time>
      </trkpt>
      <trkpt lat="49.63124" lon="5.00906">
        <ele>254.41</ele>
        <time>2018-09-05T13:36:19Z</time>
      </trkpt>
      <trkpt lat="49.63137" lon="5.00924">
        <ele>252.48</ele>
        <time>2018-09-05T13:36:33Z</time>
      </trkpt>
      <trkpt lat="49.63148" lon="5.00935">
        <ele>248.64</ele>
        <time>2018-09-05T13:36:46Z</time>
      </trkpt>
      <trkpt lat="49.63158" lon="5.00948">
        <ele>245.27</ele>
        <time>2018-09-05T13:37:00Z</time>
      </trkpt>
      <trkpt lat="49.63167" lon="5.00959">
        <ele>242.39</ele>
        <time>2018-09-05T13:37:15Z</time>
      </trkpt>
      <trkpt lat="49.63174" lon="5.00969">
        <ele>240.47</ele>
        <time>2018-09-05T13:37:27Z</time>
      </trkpt>
      <trkpt lat="49.63186" lon="5.00982">
        <ele>236.62</ele>
        <time>2018-09-05T13:37:42Z</time>
      </trkpt>
      <trkpt lat="49.63197" lon="5.00991">
        <ele>233.74</ele>
        <time>2018-09-05T13:37:55Z</time>
      </trkpt>
      <trkpt lat="49.63207" lon="5.00999">
        <ele>230.37</ele>
        <time>2018-09-05T13:38:09Z</time>
      </trkpt>
      <trkpt lat="49.63218" lon="5.01006">
        <ele>227.97</ele>
        <time>2018-09-05T13:38:21Z</time>
      </trkpt>
      <trkpt lat="49.63231" lon="5.01011">
        <ele>226.53</ele>
        <time>2018-09-05T13:38:35Z</time>
      </trkpt>
      <trkpt lat="49.63241" lon="5.01015">
        <ele>225.57</ele>
        <time>2018-09-05T13:38:48Z</time>
      </trkpt>
      <trkpt lat="49.63249" lon="5.01019">
        <ele>223.64</ele>
        <time>2018-09-05T13:38:58Z</time>
      </trkpt>
      <trkpt lat="49.63255" lon="5.01019">
        <ele>222.68</ele>
        <time>2018-09-05T13:39:07Z</time>
      </trkpt>
      <trkpt lat="49.63257" lon="5.01019">
        <ele>222.68</ele>
        <time>2018-09-05T13:39:09Z</time>
      </trkpt>
      <trkpt lat="49.63271" lon="5.01026">
        <ele>220.76</ele>
        <time>2018-09-05T13:39:23Z</time>
      </trkpt>
      <trkpt lat="49.63276" lon="5.01031">
        <ele>220.28</ele>
        <time>2018-09-05T13:39:35Z</time>
      </trkpt>
      <trkpt lat="49.63288" lon="5.01039">
        <ele>216.43</ele>
        <time>2018-09-05T13:39:49Z</time>
      </trkpt>
      <trkpt lat="49.633" lon="5.01045">
        <ele>213.55</ele>
        <time>2018-09-05T13:40:04Z</time>
      </trkpt>
      <trkpt lat="49.63303" lon="5.01047">
        <ele>213.07</ele>
        <time>2018-09-05T13:40:07Z</time>
      </trkpt>
      <trkpt lat="49.63317" lon="5.01055">
        <ele>211.63</ele>
        <time>2018-09-05T13:40:22Z</time>
      </trkpt>
      <trkpt lat="49.63329" lon="5.01059">
        <ele>212.11</ele>
        <time>2018-09-05T13:40:35Z</time>
      </trkpt>
      <trkpt lat="49.63347" lon="5.01069">
        <ele>209.22</ele>
        <time>2018-09-05T13:40:50Z</time>
      </trkpt>
      <trkpt lat="49.63358" lon="5.01075">
        <ele>206.82</ele>
        <time>2018-09-05T13:41:03Z</time>
      </trkpt>
      <trkpt lat="49.63371" lon="5.01082">
        <ele>205.38</ele>
        <time>2018-09-05T13:41:17Z</time>
      </trkpt>
      <trkpt lat="49.6338" lon="5.01087">
        <ele>205.38</ele>
        <time>2018-09-05T13:41:28Z</time>
      </trkpt>
      <trkpt lat="49.63395" lon="5.01094">
        <ele>205.86</ele>
        <time>2018-09-05T13:41:42Z</time>
      </trkpt>
      <trkpt lat="49.63398" lon="5.01095">
        <ele>205.86</ele>
        <time>2018-09-05T13:41:47Z</time>
      </trkpt>
      <trkpt lat="49.63412" lon="5.01102">
        <ele>202.49</ele>
        <time>2018-09-05T13:42:00Z</time>
      </trkpt>
      <trkpt lat="49.63426" lon="5.01107">
        <ele>200.09</ele>
        <time>2018-09-05T13:42:14Z</time>
      </trkpt>
      <trkpt lat="49.6343" lon="5.01109">
        <ele>200.57</ele>
        <time>2018-09-05T13:42:17Z</time>
      </trkpt>
      <trkpt lat="49.63436" lon="5.01112">
        <ele>201.05</ele>
        <time>2018-09-05T13:42:24Z</time>
      </trkpt>
      <trkpt lat="49.6345" lon="5.01119">
        <ele>202.49</ele>
        <time>2018-09-05T13:42:38Z</time>
      </trkpt>
      <trkpt lat="49.63465" lon="5.01127">
        <ele>202.01</ele>
        <time>2018-09-05T13:42:52Z</time>
      </trkpt>
      <trkpt lat="49.63476" lon="5.01136">
        <ele>200.09</ele>
        <time>2018-09-05T13:43:05Z</time>
      </trkpt>
      <trkpt lat="49.63489" lon="5.01143">
        <ele>199.13</ele>
        <time>2018-09-05T13:43:18Z</time>
      </trkpt>
      <trkpt lat="49.63496" lon="5.01149">
        <ele>197.69</ele>
        <time>2018-09-05T13:43:26Z</time>
      </trkpt>
      <trkpt lat="49.63503" lon="5.01155">
        <ele>196.73</ele>
        <time>2018-09-05T13:43:32Z</time>
      </trkpt>
      <trkpt lat="49.63513" lon="5.0116">
        <ele>195.28</ele>
        <time>2018-09-05T13:43:42Z</time>
      </trkpt>
      <trkpt lat="49.63529" lon="5.0117">
        <ele>193.36</ele>
        <time>2018-09-05T13:43:58Z</time>
      </trkpt>
      <trkpt lat="49.63544" lon="5.01183">
        <ele>190.96</ele>
        <time>2018-09-05T13:44:13Z</time>
      </trkpt>
      <trkpt lat="49.63555" lon="5.01193">
        <ele>190.96</ele>
        <time>2018-09-05T13:44:26Z</time>
      </trkpt>
      <trkpt lat="49.63565" lon="5.01199">
        <ele>190.48</ele>
        <time>2018-09-05T13:44:36Z</time>
      </trkpt>
      <trkpt lat="49.6357" lon="5.01206">
        <ele>190</ele>
        <time>2018-09-05T13:44:42Z</time>
      </trkpt>
      <trkpt lat="49.63583" lon="5.01216">
        <ele>188.08</ele>
        <time>2018-09-05T13:44:57Z</time>
      </trkpt>
      <trkpt lat="49.63598" lon="5.01229">
        <ele>186.15</ele>
        <time>2018-09-05T13:45:12Z</time>
      </trkpt>
      <trkpt lat="49.63612" lon="5.01237">
        <ele>186.63</ele>
        <time>2018-09-05T13:45:26Z</time>
      </trkpt>
      <trkpt lat="49.63618" lon="5.01241">
        <ele>186.63</ele>
        <time>2018-09-05T13:45:34Z</time>
      </trkpt>
      <trkpt lat="49.6362" lon="5.01243">
        <ele>186.63</ele>
        <time>2018-09-05T13:45:37Z</time>
      </trkpt>
      <trkpt lat="49.63633" lon="5.01254">
        <ele>184.71</ele>
        <time>2018-09-05T13:45:52Z</time>
      </trkpt>
      <trkpt lat="49.63644" lon="5.01262">
        <ele>183.27</ele>
        <time>2018-09-05T13:46:03Z</time>
      </trkpt>
      <trkpt lat="49.63648" lon="5.01269">
        <ele>182.31</ele>
        <time>2018-09-05T13:46:11Z</time>
      </trkpt>
      <trkpt lat="49.63652" lon="5.01275">
        <ele>181.83</ele>
        <time>2018-09-05T13:46:15Z</time>
      </trkpt>
      <trkpt lat="49.63659" lon="5.01279">
        <ele>181.35</ele>
        <time>2018-09-05T13:46:23Z</time>
      </trkpt>
      <trkpt lat="49.63664" lon="5.01283">
        <ele>180.87</ele>
        <time>2018-09-05T13:46:27Z</time>
      </trkpt>
      <trkpt lat="49.63668" lon="5.01288">
        <ele>180.87</ele>
        <time>2018-09-05T13:46:31Z</time>
      </trkpt>
      <trkpt lat="49.63673" lon="5.01294">
        <ele>179.9</ele>
        <time>2018-09-05T13:46:38Z</time>
      </trkpt>
      <trkpt lat="49.63678" lon="5.01299">
        <ele>179.9</ele>
        <time>2018-09-05T13:46:43Z</time>
      </trkpt>
      <trkpt lat="49.63689" lon="5.01309">
        <ele>180.38</ele>
        <time>2018-09-05T13:46:54Z</time>
      </trkpt>
      <trkpt lat="49.63699" lon="5.01317">
        <ele>180.87</ele>
        <time>2018-09-05T13:47:07Z</time>
      </trkpt>
      <trkpt lat="49.63704" lon="5.01324">
        <ele>180.38</ele>
        <time>2018-09-05T13:47:16Z</time>
      </trkpt>
      <trkpt lat="49.63714" lon="5.01332">
        <ele>179.9</ele>
        <time>2018-09-05T13:47:26Z</time>
      </trkpt>
      <trkpt lat="49.63725" lon="5.01344">
        <ele>177.5</ele>
        <time>2018-09-05T13:47:38Z</time>
      </trkpt>
      <trkpt lat="49.63728" lon="5.01351">
        <ele>175.58</ele>
        <time>2018-09-05T13:47:43Z</time>
      </trkpt>
      <trkpt lat="49.63738" lon="5.01362">
        <ele>171.25</ele>
        <time>2018-09-05T13:47:55Z</time>
      </trkpt>
      <trkpt lat="49.6374" lon="5.01364">
        <ele>170.77</ele>
        <time>2018-09-05T13:47:58Z</time>
      </trkpt>
      <trkpt lat="49.63745" lon="5.01369">
        <ele>170.77</ele>
        <time>2018-09-05T13:48:02Z</time>
      </trkpt>
      <trkpt lat="49.63758" lon="5.01383">
        <ele>169.33</ele>
        <time>2018-09-05T13:48:15Z</time>
      </trkpt>
      <trkpt lat="49.63769" lon="5.0139">
        <ele>168.85</ele>
        <time>2018-09-05T13:48:28Z</time>
      </trkpt>
      <trkpt lat="49.63783" lon="5.01389">
        <ele>172.21</ele>
        <time>2018-09-05T13:48:39Z</time>
      </trkpt>
      <trkpt lat="49.63802" lon="5.01384">
        <ele>178.46</ele>
        <time>2018-09-05T13:48:53Z</time>
      </trkpt>
      <trkpt lat="49.63818" lon="5.01379">
        <ele>179.9</ele>
        <time>2018-09-05T13:49:08Z</time>
      </trkpt>
      <trkpt lat="49.63833" lon="5.01375">
        <ele>178.94</ele>
        <time>2018-09-05T13:49:25Z</time>
      </trkpt>
      <trkpt lat="49.63848" lon="5.01367">
        <ele>176.06</ele>
        <time>2018-09-05T13:49:41Z</time>
      </trkpt>
      <trkpt lat="49.63857" lon="5.01363">
        <ele>176.06</ele>
        <time>2018-09-05T13:49:50Z</time>
      </trkpt>
      <trkpt lat="49.63874" lon="5.01363">
        <ele>174.62</ele>
        <time>2018-09-05T13:50:07Z</time>
      </trkpt>
      <trkpt lat="49.63885" lon="5.01366">
        <ele>173.66</ele>
        <time>2018-09-05T13:50:18Z</time>
      </trkpt>
      <trkpt lat="49.63897" lon="5.01365">
        <ele>172.21</ele>
        <time>2018-09-05T13:50:33Z</time>
      </trkpt>
      <trkpt lat="49.63906" lon="5.01363">
        <ele>173.17</ele>
        <time>2018-09-05T13:50:45Z</time>
      </trkpt>
      <trkpt lat="49.63924" lon="5.01364">
        <ele>174.62</ele>
        <time>2018-09-05T13:51:00Z</time>
      </trkpt>
      <trkpt lat="49.63942" lon="5.01361">
        <ele>171.73</ele>
        <time>2018-09-05T13:51:16Z</time>
      </trkpt>
      <trkpt lat="49.63949" lon="5.01357">
        <ele>170.29</ele>
        <time>2018-09-05T13:51:24Z</time>
      </trkpt>
      <trkpt lat="49.63967" lon="5.01357">
        <ele>168.85</ele>
        <time>2018-09-05T13:51:41Z</time>
      </trkpt>
      <trkpt lat="49.63971" lon="5.01356">
        <ele>168.37</ele>
        <time>2018-09-05T13:51:44Z</time>
      </trkpt>
      <trkpt lat="49.63986" lon="5.01366">
        <ele>167.89</ele>
        <time>2018-09-05T13:52:00Z</time>
      </trkpt>
      <trkpt lat="49.64" lon="5.01381">
        <ele>168.37</ele>
        <time>2018-09-05T13:52:15Z</time>
      </trkpt>
      <trkpt lat="49.64005" lon="5.01387">
        <ele>166.93</ele>
        <time>2018-09-05T13:52:23Z</time>
      </trkpt>
      <trkpt lat="49.64017" lon="5.01406">
        <ele>167.41</ele>
        <time>2018-09-05T13:52:38Z</time>
      </trkpt>
      <trkpt lat="49.64032" lon="5.01431">
        <ele>164.04</ele>
        <time>2018-09-05T13:52:56Z</time>
      </trkpt>
      <trkpt lat="49.64043" lon="5.01452">
        <ele>163.56</ele>
        <time>2018-09-05T13:53:13Z</time>
      </trkpt>
      <trkpt lat="49.64052" lon="5.01473">
        <ele>162.6</ele>
        <time>2018-09-05T13:53:29Z</time>
      </trkpt>
      <trkpt lat="49.64061" lon="5.01496">
        <ele>163.56</ele>
        <time>2018-09-05T13:53:45Z</time>
      </trkpt>
      <trkpt lat="49.64075" lon="5.01512">
        <ele>163.08</ele>
        <time>2018-09-05T13:53:59Z</time>
      </trkpt>
      <trkpt lat="49.64091" lon="5.0151">
        <ele>163.08</ele>
        <time>2018-09-05T13:54:15Z</time>
      </trkpt>
      <trkpt lat="49.64105" lon="5.01505">
        <ele>162.6</ele>
        <time>2018-09-05T13:54:28Z</time>
      </trkpt>
      <trkpt lat="49.64119" lon="5.015">
        <ele>162.6</ele>
        <time>2018-09-05T13:54:41Z</time>
      </trkpt>
      <trkpt lat="49.64127" lon="5.015">
        <ele>161.64</ele>
        <time>2018-09-05T13:54:54Z</time>
      </trkpt>
      <trkpt lat="49.64144" lon="5.01496">
        <ele>162.12</ele>
        <time>2018-09-05T13:55:09Z</time>
      </trkpt>
      <trkpt lat="49.64162" lon="5.01491">
        <ele>161.16</ele>
        <time>2018-09-05T13:55:24Z</time>
      </trkpt>
      <trkpt lat="49.64179" lon="5.01485">
        <ele>160.68</ele>
        <time>2018-09-05T13:55:40Z</time>
      </trkpt>
      <trkpt lat="49.64194" lon="5.01478">
        <ele>162.12</ele>
        <time>2018-09-05T13:55:53Z</time>
      </trkpt>
      <trkpt lat="49.64209" lon="5.01468">
        <ele>163.08</ele>
        <time>2018-09-05T13:56:05Z</time>
      </trkpt>
      <trkpt lat="49.64225" lon="5.01454">
        <ele>164.52</ele>
        <time>2018-09-05T13:56:20Z</time>
      </trkpt>
      <trkpt lat="49.64239" lon="5.01439">
        <ele>166.45</ele>
        <time>2018-09-05T13:56:35Z</time>
      </trkpt>
      <trkpt lat="49.64251" lon="5.01426">
        <ele>167.41</ele>
        <time>2018-09-05T13:56:49Z</time>
      </trkpt>
      <trkpt lat="49.64256" lon="5.01419">
        <ele>167.89</ele>
        <time>2018-09-05T13:56:56Z</time>
      </trkpt>
      <trkpt lat="49.64267" lon="5.01408">
        <ele>168.85</ele>
        <time>2018-09-05T13:57:08Z</time>
      </trkpt>
      <trkpt lat="49.6428" lon="5.01393">
        <ele>170.29</ele>
        <time>2018-09-05T13:57:21Z</time>
      </trkpt>
      <trkpt lat="49.64289" lon="5.01381">
        <ele>170.29</ele>
        <time>2018-09-05T13:57:32Z</time>
      </trkpt>
      <trkpt lat="49.64294" lon="5.01376">
        <ele>169.33</ele>
        <time>2018-09-05T13:57:39Z</time>
      </trkpt>
      <trkpt lat="49.64301" lon="5.01374">
        <ele>168.85</ele>
        <time>2018-09-05T13:57:45Z</time>
      </trkpt>
      <trkpt lat="49.6431" lon="5.01369">
        <ele>167.41</ele>
        <time>2018-09-05T13:57:55Z</time>
      </trkpt>
      <trkpt lat="49.64316" lon="5.01372">
        <ele>166.93</ele>
        <time>2018-09-05T13:58:01Z</time>
      </trkpt>
      <trkpt lat="49.64327" lon="5.01379">
        <ele>164.52</ele>
        <time>2018-09-05T13:58:14Z</time>
      </trkpt>
      <trkpt lat="49.64336" lon="5.01389">
        <ele>162.12</ele>
        <time>2018-09-05T13:58:27Z</time>
      </trkpt>
      <trkpt lat="49.64341" lon="5.01395">
        <ele>162.12</ele>
        <time>2018-09-05T13:58:33Z</time>
      </trkpt>
      <trkpt lat="49.64352" lon="5.01407">
        <ele>161.16</ele>
        <time>2018-09-05T13:58:48Z</time>
      </trkpt>
      <trkpt lat="49.64358" lon="5.01417">
        <ele>159.72</ele>
        <time>2018-09-05T13:58:58Z</time>
      </trkpt>
      <trkpt lat="49.6437" lon="5.01426">
        <ele>160.68</ele>
        <time>2018-09-05T13:59:11Z</time>
      </trkpt>
      <trkpt lat="49.64386" lon="5.01438">
        <ele>160.2</ele>
        <time>2018-09-05T13:59:26Z</time>
      </trkpt>
      <trkpt lat="49.64395" lon="5.01444">
        <ele>160.2</ele>
        <time>2018-09-05T13:59:39Z</time>
      </trkpt>
      <trkpt lat="49.64411" lon="5.0146">
        <ele>161.16</ele>
        <time>2018-09-05T13:59:56Z</time>
      </trkpt>
      <trkpt lat="49.64429" lon="5.01475">
        <ele>160.2</ele>
        <time>2018-09-05T14:00:15Z</time>
      </trkpt>
      <trkpt lat="49.64446" lon="5.01491">
        <ele>158.27</ele>
        <time>2018-09-05T14:00:34Z</time>
      </trkpt>
      <trkpt lat="49.64452" lon="5.01497">
        <ele>159.72</ele>
        <time>2018-09-05T14:00:49Z</time>
      </trkpt>
      <trkpt lat="49.64452" lon="5.01497">
        <ele>159.72</ele>
        <time>2018-09-05T14:01:05Z</time>
      </trkpt>
      <trkpt lat="49.64451" lon="5.01497">
        <ele>160.2</ele>
        <time>2018-09-05T14:01:21Z</time>
      </trkpt>
      <trkpt lat="49.64451" lon="5.01499">
        <ele>161.64</ele>
        <time>2018-09-05T14:01:45Z</time>
      </trkpt>
      <trkpt lat="49.64451" lon="5.01499">
        <ele>162.12</ele>
        <time>2018-09-05T14:02:05Z</time>
      </trkpt>
      <trkpt lat="49.64449" lon="5.01503">
        <ele>160.68</ele>
        <time>2018-09-05T14:02:34Z</time>
      </trkpt>
      <trkpt lat="49.6445" lon="5.01503">
        <ele>160.68</ele>
        <time>2018-09-05T14:02:58Z</time>
      </trkpt>
      <trkpt lat="49.6445" lon="5.01504">
        <ele>160.68</ele>
        <time>2018-09-05T14:03:23Z</time>
      </trkpt>
      <trkpt lat="49.6445" lon="5.01504">
        <ele>160.68</ele>
        <time>2018-09-05T14:03:52Z</time>
      </trkpt>
      <trkpt lat="49.64446" lon="5.01514">
        <ele>160.2</ele>
        <time>2018-09-05T14:04:17Z</time>
      </trkpt>
      <trkpt lat="49.64454" lon="5.01508">
        <ele>160.68</ele>
        <time>2018-09-05T14:04:43Z</time>
      </trkpt>
      <trkpt lat="49.64455" lon="5.01508">
        <ele>160.2</ele>
        <time>2018-09-05T14:05:06Z</time>
      </trkpt>
      <trkpt lat="49.64451" lon="5.01513">
        <ele>159.24</ele>
        <time>2018-09-05T14:05:30Z</time>
      </trkpt>
      <trkpt lat="49.64415" lon="5.01499">
        <ele>158.27</ele>
        <time>2018-09-05T14:06:00Z</time>
      </trkpt>
      <trkpt lat="49.6444" lon="5.015">
        <ele>158.27</ele>
        <time>2018-09-05T14:06:18Z</time>
      </trkpt>
      <trkpt lat="49.64446" lon="5.01506">
        <ele>158.27</ele>
        <time>2018-09-05T14:06:42Z</time>
      </trkpt>
      <trkpt lat="49.64446" lon="5.01507">
        <ele>156.83</ele>
        <time>2018-09-05T14:07:11Z</time>
      </trkpt>
      <trkpt lat="49.64444" lon="5.01505">
        <ele>157.31</ele>
        <time>2018-09-05T14:07:36Z</time>
      </trkpt>
      <trkpt lat="49.64442" lon="5.01505">
        <ele>158.27</ele>
        <time>2018-09-05T14:08:03Z</time>
      </trkpt>
      <trkpt lat="49.6444" lon="5.01505">
        <ele>158.27</ele>
        <time>2018-09-05T14:08:24Z</time>
      </trkpt>
      <trkpt lat="49.64446" lon="5.01509">
        <ele>159.72</ele>
        <time>2018-09-05T14:08:46Z</time>
      </trkpt>
      <trkpt lat="49.64447" lon="5.01507">
        <ele>159.72</ele>
        <time>2018-09-05T14:09:09Z</time>
      </trkpt>
      <trkpt lat="49.64448" lon="5.01503">
        <ele>158.75</ele>
        <time>2018-09-05T14:09:35Z</time>
      </trkpt>
      <trkpt lat="49.64449" lon="5.01506">
        <ele>158.75</ele>
        <time>2018-09-05T14:09:59Z</time>
      </trkpt>
      <trkpt lat="49.64448" lon="5.01504">
        <ele>160.68</ele>
        <time>2018-09-05T14:10:27Z</time>
      </trkpt>
      <trkpt lat="49.64448" lon="5.01505">
        <ele>160.2</ele>
        <time>2018-09-05T14:10:57Z</time>
      </trkpt>
      <trkpt lat="49.64447" lon="5.01505">
        <ele>159.72</ele>
        <time>2018-09-05T14:11:20Z</time>
      </trkpt>
      <trkpt lat="49.64447" lon="5.01505">
        <ele>159.72</ele>
        <time>2018-09-05T14:11:48Z</time>
      </trkpt>
      <trkpt lat="49.64447" lon="5.01505">
        <ele>160.2</ele>
        <time>2018-09-05T14:12:10Z</time>
      </trkpt>
      <trkpt lat="49.64452" lon="5.01501">
        <ele>161.16</ele>
        <time>2018-09-05T14:12:30Z</time>
      </trkpt>
      <trkpt lat="49.64453" lon="5.01501">
        <ele>161.16</ele>
        <time>2018-09-05T14:12:31Z</time>
      </trkpt>
      <trkpt lat="49.64459" lon="5.01502">
        <ele>162.12</ele>
        <time>2018-09-05T14:12:36Z</time>
      </trkpt>
      <trkpt lat="49.64473" lon="5.01507">
        <ele>159.72</ele>
        <time>2018-09-05T14:12:53Z</time>
      </trkpt>
      <trkpt lat="49.64489" lon="5.0152">
        <ele>160.2</ele>
        <time>2018-09-05T14:13:13Z</time>
      </trkpt>
      <trkpt lat="49.64494" lon="5.01521">
        <ele>160.68</ele>
        <time>2018-09-05T14:13:21Z</time>
      </trkpt>
      <trkpt lat="49.64505" lon="5.01501">
        <ele>157.79</ele>
        <time>2018-09-05T14:13:39Z</time>
      </trkpt>
      <trkpt lat="49.64507" lon="5.01496">
        <ele>157.31</ele>
        <time>2018-09-05T14:13:42Z</time>
      </trkpt>
      <trkpt lat="49.64517" lon="5.01469">
        <ele>156.35</ele>
        <time>2018-09-05T14:14:00Z</time>
      </trkpt>
      <trkpt lat="49.64525" lon="5.0145">
        <ele>156.83</ele>
        <time>2018-09-05T14:14:14Z</time>
      </trkpt>
      <trkpt lat="49.64529" lon="5.01444">
        <ele>156.35</ele>
        <time>2018-09-05T14:14:19Z</time>
      </trkpt>
      <trkpt lat="49.64544" lon="5.01447">
        <ele>153.47</ele>
        <time>2018-09-05T14:14:35Z</time>
      </trkpt>
      <trkpt lat="49.64552" lon="5.01456">
        <ele>155.87</ele>
        <time>2018-09-05T14:14:44Z</time>
      </trkpt>
      <trkpt lat="49.64572" lon="5.01477">
        <ele>158.27</ele>
        <time>2018-09-05T14:15:01Z</time>
      </trkpt>
      <trkpt lat="49.64587" lon="5.0149">
        <ele>160.68</ele>
        <time>2018-09-05T14:15:19Z</time>
      </trkpt>
      <trkpt lat="49.64606" lon="5.01505">
        <ele>162.12</ele>
        <time>2018-09-05T14:15:37Z</time>
      </trkpt>
      <trkpt lat="49.64625" lon="5.01512">
        <ele>164.04</ele>
        <time>2018-09-05T14:15:55Z</time>
      </trkpt>
      <trkpt lat="49.64647" lon="5.01524">
        <ele>164.52</ele>
        <time>2018-09-05T14:16:12Z</time>
      </trkpt>
      <trkpt lat="49.64659" lon="5.01524">
        <ele>164.04</ele>
        <time>2018-09-05T14:16:27Z</time>
      </trkpt>
      <trkpt lat="49.6468" lon="5.01533">
        <ele>161.64</ele>
        <time>2018-09-05T14:16:45Z</time>
      </trkpt>
      <trkpt lat="49.64697" lon="5.01543">
        <ele>160.68</ele>
        <time>2018-09-05T14:17:01Z</time>
      </trkpt>
      <trkpt lat="49.64716" lon="5.01555">
        <ele>158.75</ele>
        <time>2018-09-05T14:17:19Z</time>
      </trkpt>
      <trkpt lat="49.64725" lon="5.01563">
        <ele>159.24</ele>
        <time>2018-09-05T14:17:28Z</time>
      </trkpt>
      <trkpt lat="49.6473" lon="5.01572">
        <ele>160.2</ele>
        <time>2018-09-05T14:17:36Z</time>
      </trkpt>
      <trkpt lat="49.64731" lon="5.01606">
        <ele>160.68</ele>
        <time>2018-09-05T14:17:56Z</time>
      </trkpt>
      <trkpt lat="49.64733" lon="5.01634">
        <ele>160.2</ele>
        <time>2018-09-05T14:18:11Z</time>
      </trkpt>
      <trkpt lat="49.64738" lon="5.01648">
        <ele>161.64</ele>
        <time>2018-09-05T14:18:21Z</time>
      </trkpt>
      <trkpt lat="49.64748" lon="5.01656">
        <ele>162.12</ele>
        <time>2018-09-05T14:18:29Z</time>
      </trkpt>
      <trkpt lat="49.64756" lon="5.0164">
        <ele>160.2</ele>
        <time>2018-09-05T14:18:45Z</time>
      </trkpt>
      <trkpt lat="49.64763" lon="5.01621">
        <ele>157.31</ele>
        <time>2018-09-05T14:19:01Z</time>
      </trkpt>
      <trkpt lat="49.64771" lon="5.01598">
        <ele>156.83</ele>
        <time>2018-09-05T14:19:16Z</time>
      </trkpt>
      <trkpt lat="49.6478" lon="5.0157">
        <ele>155.39</ele>
        <time>2018-09-05T14:19:33Z</time>
      </trkpt>
      <trkpt lat="49.64787" lon="5.0155">
        <ele>155.39</ele>
        <time>2018-09-05T14:19:47Z</time>
      </trkpt>
      <trkpt lat="49.64795" lon="5.01529">
        <ele>155.39</ele>
        <time>2018-09-05T14:20:01Z</time>
      </trkpt>
      <trkpt lat="49.64801" lon="5.01507">
        <ele>154.91</ele>
        <time>2018-09-05T14:20:14Z</time>
      </trkpt>
      <trkpt lat="49.64807" lon="5.01489">
        <ele>154.43</ele>
        <time>2018-09-05T14:20:27Z</time>
      </trkpt>
      <trkpt lat="49.64814" lon="5.01467">
        <ele>154.43</ele>
        <time>2018-09-05T14:20:42Z</time>
      </trkpt>
      <trkpt lat="49.6482" lon="5.01449">
        <ele>154.43</ele>
        <time>2018-09-05T14:20:55Z</time>
      </trkpt>
      <trkpt lat="49.64827" lon="5.01427">
        <ele>154.43</ele>
        <time>2018-09-05T14:21:08Z</time>
      </trkpt>
      <trkpt lat="49.64834" lon="5.01406">
        <ele>153.95</ele>
        <time>2018-09-05T14:21:21Z</time>
      </trkpt>
      <trkpt lat="49.64842" lon="5.01383">
        <ele>152.99</ele>
        <time>2018-09-05T14:21:36Z</time>
      </trkpt>
      <trkpt lat="49.64848" lon="5.01364">
        <ele>153.47</ele>
        <time>2018-09-05T14:21:50Z</time>
      </trkpt>
      <trkpt lat="49.64854" lon="5.01346">
        <ele>153.95</ele>
        <time>2018-09-05T14:22:02Z</time>
      </trkpt>
      <trkpt lat="49.6486" lon="5.01328">
        <ele>154.91</ele>
        <time>2018-09-05T14:22:14Z</time>
      </trkpt>
      <trkpt lat="49.64866" lon="5.01306">
        <ele>154.43</ele>
        <time>2018-09-05T14:22:28Z</time>
      </trkpt>
      <trkpt lat="49.64871" lon="5.0129">
        <ele>154.43</ele>
        <time>2018-09-05T14:22:40Z</time>
      </trkpt>
      <trkpt lat="49.64877" lon="5.01267">
        <ele>153.47</ele>
        <time>2018-09-05T14:22:55Z</time>
      </trkpt>
      <trkpt lat="49.64883" lon="5.01245">
        <ele>152.99</ele>
        <time>2018-09-05T14:23:09Z</time>
      </trkpt>
      <trkpt lat="49.64887" lon="5.01225">
        <ele>152.51</ele>
        <time>2018-09-05T14:23:22Z</time>
      </trkpt>
      <trkpt lat="49.64892" lon="5.01202">
        <ele>153.47</ele>
        <time>2018-09-05T14:23:36Z</time>
      </trkpt>
      <trkpt lat="49.64895" lon="5.01182">
        <ele>154.91</ele>
        <time>2018-09-05T14:23:49Z</time>
      </trkpt>
      <trkpt lat="49.64898" lon="5.01159">
        <ele>154.91</ele>
        <time>2018-09-05T14:24:03Z</time>
      </trkpt>
      <trkpt lat="49.64899" lon="5.0114">
        <ele>152.99</ele>
        <time>2018-09-05T14:24:15Z</time>
      </trkpt>
      <trkpt lat="49.64901" lon="5.01119">
        <ele>152.51</ele>
        <time>2018-09-05T14:24:28Z</time>
      </trkpt>
      <trkpt lat="49.64903" lon="5.01099">
        <ele>152.99</ele>
        <time>2018-09-05T14:24:42Z</time>
      </trkpt>
      <trkpt lat="49.64903" lon="5.01077">
        <ele>154.91</ele>
        <time>2018-09-05T14:24:56Z</time>
      </trkpt>
      <trkpt lat="49.64902" lon="5.01054">
        <ele>154.43</ele>
        <time>2018-09-05T14:25:09Z</time>
      </trkpt>
      <trkpt lat="49.64901" lon="5.01036">
        <ele>154.43</ele>
        <time>2018-09-05T14:25:21Z</time>
      </trkpt>
      <trkpt lat="49.649" lon="5.01013">
        <ele>154.43</ele>
        <time>2018-09-05T14:25:35Z</time>
      </trkpt>
      <trkpt lat="49.649" lon="5.00995">
        <ele>154.43</ele>
        <time>2018-09-05T14:25:48Z</time>
      </trkpt>
      <trkpt lat="49.64898" lon="5.00974">
        <ele>153.95</ele>
        <time>2018-09-05T14:26:01Z</time>
      </trkpt>
      <trkpt lat="49.64898" lon="5.00971">
        <ele>153.47</ele>
        <time>2018-09-05T14:26:03Z</time>
      </trkpt>
      <trkpt lat="49.64898" lon="5.00949">
        <ele>155.39</ele>
        <time>2018-09-05T14:26:17Z</time>
      </trkpt>
      <trkpt lat="49.64897" lon="5.00929">
        <ele>155.39</ele>
        <time>2018-09-05T14:26:29Z</time>
      </trkpt>
      <trkpt lat="49.64896" lon="5.00924">
        <ele>154.91</ele>
        <time>2018-09-05T14:26:32Z</time>
      </trkpt>
      <trkpt lat="49.64895" lon="5.00902">
        <ele>154.91</ele>
        <time>2018-09-05T14:26:45Z</time>
      </trkpt>
      <trkpt lat="49.64896" lon="5.00883">
        <ele>154.43</ele>
        <time>2018-09-05T14:26:57Z</time>
      </trkpt>
      <trkpt lat="49.64896" lon="5.00869">
        <ele>154.43</ele>
        <time>2018-09-05T14:27:07Z</time>
      </trkpt>
      <trkpt lat="49.64896" lon="5.00848">
        <ele>153.95</ele>
        <time>2018-09-05T14:27:20Z</time>
      </trkpt>
      <trkpt lat="49.64897" lon="5.00828">
        <ele>153.95</ele>
        <time>2018-09-05T14:27:33Z</time>
      </trkpt>
      <trkpt lat="49.64897" lon="5.00811">
        <ele>154.91</ele>
        <time>2018-09-05T14:27:45Z</time>
      </trkpt>
      <trkpt lat="49.64897" lon="5.00791">
        <ele>154.43</ele>
        <time>2018-09-05T14:27:57Z</time>
      </trkpt>
      <trkpt lat="49.64898" lon="5.00785">
        <ele>153.95</ele>
        <time>2018-09-05T14:28:01Z</time>
      </trkpt>
      <trkpt lat="49.64901" lon="5.00765">
        <ele>154.43</ele>
        <time>2018-09-05T14:28:15Z</time>
      </trkpt>
      <trkpt lat="49.64902" lon="5.00747">
        <ele>154.91</ele>
        <time>2018-09-05T14:28:27Z</time>
      </trkpt>
      <trkpt lat="49.64903" lon="5.00726">
        <ele>153.47</ele>
        <time>2018-09-05T14:28:40Z</time>
      </trkpt>
      <trkpt lat="49.64904" lon="5.00707">
        <ele>153.47</ele>
        <time>2018-09-05T14:28:51Z</time>
      </trkpt>
      <trkpt lat="49.64906" lon="5.00688">
        <ele>154.91</ele>
        <time>2018-09-05T14:29:02Z</time>
      </trkpt>
      <trkpt lat="49.64909" lon="5.0067">
        <ele>156.35</ele>
        <time>2018-09-05T14:29:13Z</time>
      </trkpt>
      <trkpt lat="49.64911" lon="5.00661">
        <ele>156.83</ele>
        <time>2018-09-05T14:29:19Z</time>
      </trkpt>
      <trkpt lat="49.64915" lon="5.0064">
        <ele>157.79</ele>
        <time>2018-09-05T14:29:33Z</time>
      </trkpt>
      <trkpt lat="49.64918" lon="5.00622">
        <ele>157.31</ele>
        <time>2018-09-05T14:29:45Z</time>
      </trkpt>
      <trkpt lat="49.64921" lon="5.00604">
        <ele>157.31</ele>
        <time>2018-09-05T14:29:56Z</time>
      </trkpt>
      <trkpt lat="49.64924" lon="5.00583">
        <ele>156.83</ele>
        <time>2018-09-05T14:30:09Z</time>
      </trkpt>
      <trkpt lat="49.64927" lon="5.00565">
        <ele>156.35</ele>
        <time>2018-09-05T14:30:21Z</time>
      </trkpt>
      <trkpt lat="49.6493" lon="5.00546">
        <ele>154.91</ele>
        <time>2018-09-05T14:30:34Z</time>
      </trkpt>
      <trkpt lat="49.64936" lon="5.00527">
        <ele>154.91</ele>
        <time>2018-09-05T14:30:46Z</time>
      </trkpt>
      <trkpt lat="49.64941" lon="5.00508">
        <ele>155.39</ele>
        <time>2018-09-05T14:30:58Z</time>
      </trkpt>
      <trkpt lat="49.64946" lon="5.00491">
        <ele>156.35</ele>
        <time>2018-09-05T14:31:10Z</time>
      </trkpt>
      <trkpt lat="49.64951" lon="5.0047">
        <ele>156.35</ele>
        <time>2018-09-05T14:31:23Z</time>
      </trkpt>
      <trkpt lat="49.64957" lon="5.00449">
        <ele>155.39</ele>
        <time>2018-09-05T14:31:37Z</time>
      </trkpt>
      <trkpt lat="49.64963" lon="5.0043">
        <ele>154.91</ele>
        <time>2018-09-05T14:31:50Z</time>
      </trkpt>
      <trkpt lat="49.64969" lon="5.00413">
        <ele>153.47</ele>
        <time>2018-09-05T14:32:03Z</time>
      </trkpt>
      <trkpt lat="49.64974" lon="5.00398">
        <ele>153.95</ele>
        <time>2018-09-05T14:32:14Z</time>
      </trkpt>
      <trkpt lat="49.64981" lon="5.0038">
        <ele>153.47</ele>
        <time>2018-09-05T14:32:26Z</time>
      </trkpt>
      <trkpt lat="49.64987" lon="5.00362">
        <ele>153.47</ele>
        <time>2018-09-05T14:32:39Z</time>
      </trkpt>
      <trkpt lat="49.64995" lon="5.00345">
        <ele>154.91</ele>
        <time>2018-09-05T14:32:52Z</time>
      </trkpt>
      <trkpt lat="49.65005" lon="5.00326">
        <ele>156.35</ele>
        <time>2018-09-05T14:33:05Z</time>
      </trkpt>
      <trkpt lat="49.65014" lon="5.00308">
        <ele>157.31</ele>
        <time>2018-09-05T14:33:20Z</time>
      </trkpt>
      <trkpt lat="49.65021" lon="5.00292">
        <ele>155.87</ele>
        <time>2018-09-05T14:33:32Z</time>
      </trkpt>
      <trkpt lat="49.65031" lon="5.00273">
        <ele>155.39</ele>
        <time>2018-09-05T14:33:47Z</time>
      </trkpt>
      <trkpt lat="49.65039" lon="5.00255">
        <ele>155.39</ele>
        <time>2018-09-05T14:34:00Z</time>
      </trkpt>
      <trkpt lat="49.65047" lon="5.00235">
        <ele>154.91</ele>
        <time>2018-09-05T14:34:14Z</time>
      </trkpt>
      <trkpt lat="49.65057" lon="5.00216">
        <ele>155.39</ele>
        <time>2018-09-05T14:34:28Z</time>
      </trkpt>
      <trkpt lat="49.65067" lon="5.00197">
        <ele>155.87</ele>
        <time>2018-09-05T14:34:42Z</time>
      </trkpt>
      <trkpt lat="49.65077" lon="5.00177">
        <ele>157.31</ele>
        <time>2018-09-05T14:34:57Z</time>
      </trkpt>
      <trkpt lat="49.65085" lon="5.00164">
        <ele>157.31</ele>
        <time>2018-09-05T14:35:09Z</time>
      </trkpt>
      <trkpt lat="49.65093" lon="5.00146">
        <ele>157.31</ele>
        <time>2018-09-05T14:35:23Z</time>
      </trkpt>
      <trkpt lat="49.65102" lon="5.00127">
        <ele>157.79</ele>
        <time>2018-09-05T14:35:37Z</time>
      </trkpt>
      <trkpt lat="49.65111" lon="5.00109">
        <ele>158.27</ele>
        <time>2018-09-05T14:35:51Z</time>
      </trkpt>
      <trkpt lat="49.65114" lon="5.00104">
        <ele>158.75</ele>
        <time>2018-09-05T14:35:55Z</time>
      </trkpt>
      <trkpt lat="49.65122" lon="5.00087">
        <ele>158.75</ele>
        <time>2018-09-05T14:36:09Z</time>
      </trkpt>
      <trkpt lat="49.65131" lon="5.0007">
        <ele>158.75</ele>
        <time>2018-09-05T14:36:21Z</time>
      </trkpt>
      <trkpt lat="49.65139" lon="5.00052">
        <ele>158.27</ele>
        <time>2018-09-05T14:36:34Z</time>
      </trkpt>
      <trkpt lat="49.65147" lon="5.00035">
        <ele>157.79</ele>
        <time>2018-09-05T14:36:47Z</time>
      </trkpt>
      <trkpt lat="49.65156" lon="5.00016">
        <ele>156.83</ele>
        <time>2018-09-05T14:37:00Z</time>
      </trkpt>
      <trkpt lat="49.65161" lon="5.00007">
        <ele>157.31</ele>
        <time>2018-09-05T14:37:07Z</time>
      </trkpt>
      <trkpt lat="49.65168" lon="4.99988">
        <ele>157.31</ele>
        <time>2018-09-05T14:37:20Z</time>
      </trkpt>
      <trkpt lat="49.65175" lon="4.99969">
        <ele>156.35</ele>
        <time>2018-09-05T14:37:33Z</time>
      </trkpt>
      <trkpt lat="49.65181" lon="4.99946">
        <ele>156.35</ele>
        <time>2018-09-05T14:37:47Z</time>
      </trkpt>
      <trkpt lat="49.65181" lon="4.99942">
        <ele>156.83</ele>
        <time>2018-09-05T14:37:50Z</time>
      </trkpt>
      <trkpt lat="49.65192" lon="4.99921">
        <ele>157.31</ele>
        <time>2018-09-05T14:38:07Z</time>
      </trkpt>
      <trkpt lat="49.65202" lon="4.99906">
        <ele>156.83</ele>
        <time>2018-09-05T14:38:22Z</time>
      </trkpt>
      <trkpt lat="49.65203" lon="4.99906">
        <ele>156.83</ele>
        <time>2018-09-05T14:38:23Z</time>
      </trkpt>
      <trkpt lat="49.65215" lon="4.99896">
        <ele>159.72</ele>
        <time>2018-09-05T14:38:35Z</time>
      </trkpt>
      <trkpt lat="49.65226" lon="4.99881">
        <ele>159.24</ele>
        <time>2018-09-05T14:38:49Z</time>
      </trkpt>
      <trkpt lat="49.65232" lon="4.99871">
        <ele>159.72</ele>
        <time>2018-09-05T14:38:59Z</time>
      </trkpt>
      <trkpt lat="49.65234" lon="4.99868">
        <ele>159.72</ele>
        <time>2018-09-05T14:39:01Z</time>
      </trkpt>
      <trkpt lat="49.65244" lon="4.99851">
        <ele>160.2</ele>
        <time>2018-09-05T14:39:17Z</time>
      </trkpt>
      <trkpt lat="49.65256" lon="4.99837">
        <ele>160.2</ele>
        <time>2018-09-05T14:39:30Z</time>
      </trkpt>
      <trkpt lat="49.65267" lon="4.99818">
        <ele>160.68</ele>
        <time>2018-09-05T14:39:45Z</time>
      </trkpt>
      <trkpt lat="49.65277" lon="4.99796">
        <ele>161.16</ele>
        <time>2018-09-05T14:40:00Z</time>
      </trkpt>
      <trkpt lat="49.65285" lon="4.99779">
        <ele>159.72</ele>
        <time>2018-09-05T14:40:13Z</time>
      </trkpt>
      <trkpt lat="49.65289" lon="4.99768">
        <ele>158.27</ele>
        <time>2018-09-05T14:40:21Z</time>
      </trkpt>
      <trkpt lat="49.65297" lon="4.9975">
        <ele>158.27</ele>
        <time>2018-09-05T14:40:35Z</time>
      </trkpt>
      <trkpt lat="49.65304" lon="4.99733">
        <ele>158.27</ele>
        <time>2018-09-05T14:40:48Z</time>
      </trkpt>
      <trkpt lat="49.65311" lon="4.99709">
        <ele>156.83</ele>
        <time>2018-09-05T14:41:03Z</time>
      </trkpt>
      <trkpt lat="49.6532" lon="4.9969">
        <ele>154.91</ele>
        <time>2018-09-05T14:41:18Z</time>
      </trkpt>
      <trkpt lat="49.65329" lon="4.9967">
        <ele>153.95</ele>
        <time>2018-09-05T14:41:32Z</time>
      </trkpt>
      <trkpt lat="49.65338" lon="4.99647">
        <ele>153.47</ele>
        <time>2018-09-05T14:41:47Z</time>
      </trkpt>
      <trkpt lat="49.65347" lon="4.99628">
        <ele>153.95</ele>
        <time>2018-09-05T14:42:02Z</time>
      </trkpt>
      <trkpt lat="49.65359" lon="4.99603">
        <ele>152.51</ele>
        <time>2018-09-05T14:42:19Z</time>
      </trkpt>
      <trkpt lat="49.65369" lon="4.99584">
        <ele>152.51</ele>
        <time>2018-09-05T14:42:33Z</time>
      </trkpt>
      <trkpt lat="49.65381" lon="4.99562">
        <ele>152.99</ele>
        <time>2018-09-05T14:42:50Z</time>
      </trkpt>
      <trkpt lat="49.65393" lon="4.99542">
        <ele>153.47</ele>
        <time>2018-09-05T14:43:07Z</time>
      </trkpt>
      <trkpt lat="49.65401" lon="4.99522">
        <ele>152.03</ele>
        <time>2018-09-05T14:43:21Z</time>
      </trkpt>
      <trkpt lat="49.65413" lon="4.995">
        <ele>152.03</ele>
        <time>2018-09-05T14:43:37Z</time>
      </trkpt>
      <trkpt lat="49.65423" lon="4.99481">
        <ele>151.54</ele>
        <time>2018-09-05T14:43:51Z</time>
      </trkpt>
      <trkpt lat="49.65434" lon="4.99464">
        <ele>150.1</ele>
        <time>2018-09-05T14:44:07Z</time>
      </trkpt>
      <trkpt lat="49.65447" lon="4.99445">
        <ele>151.54</ele>
        <time>2018-09-05T14:44:23Z</time>
      </trkpt>
      <trkpt lat="49.65456" lon="4.99429">
        <ele>151.06</ele>
        <time>2018-09-05T14:44:38Z</time>
      </trkpt>
      <trkpt lat="49.65468" lon="4.9941">
        <ele>151.54</ele>
        <time>2018-09-05T14:44:54Z</time>
      </trkpt>
      <trkpt lat="49.6548" lon="4.99389">
        <ele>152.99</ele>
        <time>2018-09-05T14:45:09Z</time>
      </trkpt>
      <trkpt lat="49.65492" lon="4.99369">
        <ele>152.51</ele>
        <time>2018-09-05T14:45:26Z</time>
      </trkpt>
      <trkpt lat="49.65504" lon="4.99351">
        <ele>151.54</ele>
        <time>2018-09-05T14:45:42Z</time>
      </trkpt>
      <trkpt lat="49.65516" lon="4.9933">
        <ele>152.51</ele>
        <time>2018-09-05T14:45:59Z</time>
      </trkpt>
      <trkpt lat="49.65526" lon="4.99311">
        <ele>152.51</ele>
        <time>2018-09-05T14:46:15Z</time>
      </trkpt>
      <trkpt lat="49.65539" lon="4.99294">
        <ele>153.47</ele>
        <time>2018-09-05T14:46:31Z</time>
      </trkpt>
      <trkpt lat="49.65547" lon="4.99279">
        <ele>153.95</ele>
        <time>2018-09-05T14:46:47Z</time>
      </trkpt>
      <trkpt lat="49.65554" lon="4.99268">
        <ele>152.51</ele>
        <time>2018-09-05T14:46:58Z</time>
      </trkpt>
      <trkpt lat="49.65563" lon="4.99253">
        <ele>152.99</ele>
        <time>2018-09-05T14:47:13Z</time>
      </trkpt>
      <trkpt lat="49.65562" lon="4.99245">
        <ele>155.39</ele>
        <time>2018-09-05T14:47:26Z</time>
      </trkpt>
      <trkpt lat="49.65561" lon="4.99242">
        <ele>157.79</ele>
        <time>2018-09-05T14:47:35Z</time>
      </trkpt>
      <trkpt lat="49.6555" lon="4.99226">
        <ele>157.79</ele>
        <time>2018-09-05T14:47:52Z</time>
      </trkpt>
      <trkpt lat="49.65536" lon="4.99216">
        <ele>156.35</ele>
        <time>2018-09-05T14:48:06Z</time>
      </trkpt>
      <trkpt lat="49.6552" lon="4.99206">
        <ele>157.31</ele>
        <time>2018-09-05T14:48:23Z</time>
      </trkpt>
      <trkpt lat="49.65506" lon="4.99199">
        <ele>158.75</ele>
        <time>2018-09-05T14:48:37Z</time>
      </trkpt>
      <trkpt lat="49.65495" lon="4.99204">
        <ele>162.6</ele>
        <time>2018-09-05T14:48:49Z</time>
      </trkpt>
      <trkpt lat="49.65489" lon="4.99228">
        <ele>165.96</ele>
        <time>2018-09-05T14:49:04Z</time>
      </trkpt>
      <trkpt lat="49.65486" lon="4.99239">
        <ele>166.93</ele>
        <time>2018-09-05T14:49:10Z</time>
      </trkpt>
      <trkpt lat="49.65478" lon="4.99264">
        <ele>166.45</ele>
        <time>2018-09-05T14:49:25Z</time>
      </trkpt>
      <trkpt lat="49.65476" lon="4.9927">
        <ele>166.45</ele>
        <time>2018-09-05T14:49:31Z</time>
      </trkpt>
      <trkpt lat="49.65464" lon="4.99285">
        <ele>165.96</ele>
        <time>2018-09-05T14:49:46Z</time>
      </trkpt>
      <trkpt lat="49.65459" lon="4.99284">
        <ele>165.48</ele>
        <time>2018-09-05T14:49:51Z</time>
      </trkpt>
      <trkpt lat="49.65454" lon="4.9928">
        <ele>164.52</ele>
        <time>2018-09-05T14:49:56Z</time>
      </trkpt>
      <trkpt lat="49.65441" lon="4.99262">
        <ele>163.56</ele>
        <time>2018-09-05T14:50:13Z</time>
      </trkpt>
      <trkpt lat="49.65439" lon="4.99259">
        <ele>163.08</ele>
        <time>2018-09-05T14:50:17Z</time>
      </trkpt>
      <trkpt lat="49.65433" lon="4.99253">
        <ele>162.12</ele>
        <time>2018-09-05T14:50:23Z</time>
      </trkpt>
      <trkpt lat="49.65423" lon="4.99241">
        <ele>161.16</ele>
        <time>2018-09-05T14:50:36Z</time>
      </trkpt>
      <trkpt lat="49.65412" lon="4.99225">
        <ele>158.75</ele>
        <time>2018-09-05T14:50:50Z</time>
      </trkpt>
      <trkpt lat="49.65399" lon="4.99207">
        <ele>157.79</ele>
        <time>2018-09-05T14:51:06Z</time>
      </trkpt>
      <trkpt lat="49.65394" lon="4.99197">
        <ele>159.24</ele>
        <time>2018-09-05T14:51:15Z</time>
      </trkpt>
      <trkpt lat="49.65385" lon="4.99192">
        <ele>159.72</ele>
        <time>2018-09-05T14:51:26Z</time>
      </trkpt>
      <trkpt lat="49.65376" lon="4.99188">
        <ele>162.12</ele>
        <time>2018-09-05T14:51:41Z</time>
      </trkpt>
      <trkpt lat="49.65372" lon="4.99167">
        <ele>162.6</ele>
        <time>2018-09-05T14:51:55Z</time>
      </trkpt>
      <trkpt lat="49.65361" lon="4.99148">
        <ele>162.6</ele>
        <time>2018-09-05T14:52:09Z</time>
      </trkpt>
      <trkpt lat="49.65351" lon="4.99126">
        <ele>163.08</ele>
        <time>2018-09-05T14:52:24Z</time>
      </trkpt>
      <trkpt lat="49.65343" lon="4.99109">
        <ele>161.64</ele>
        <time>2018-09-05T14:52:39Z</time>
      </trkpt>
      <trkpt lat="49.65334" lon="4.99081">
        <ele>159.72</ele>
        <time>2018-09-05T14:52:56Z</time>
      </trkpt>
      <trkpt lat="49.65324" lon="4.99059">
        <ele>158.75</ele>
        <time>2018-09-05T14:53:12Z</time>
      </trkpt>
      <trkpt lat="49.6532" lon="4.99049">
        <ele>159.24</ele>
        <time>2018-09-05T14:53:18Z</time>
      </trkpt>
      <trkpt lat="49.65308" lon="4.99031">
        <ele>160.2</ele>
        <time>2018-09-05T14:53:33Z</time>
      </trkpt>
      <trkpt lat="49.65297" lon="4.99018">
        <ele>161.64</ele>
        <time>2018-09-05T14:53:47Z</time>
      </trkpt>
      <trkpt lat="49.65282" lon="4.99003">
        <ele>162.12</ele>
        <time>2018-09-05T14:54:03Z</time>
      </trkpt>
      <trkpt lat="49.65268" lon="4.98992">
        <ele>163.56</ele>
        <time>2018-09-05T14:54:17Z</time>
      </trkpt>
      <trkpt lat="49.6525" lon="4.98979">
        <ele>163.56</ele>
        <time>2018-09-05T14:54:33Z</time>
      </trkpt>
      <trkpt lat="49.65237" lon="4.98969">
        <ele>165</ele>
        <time>2018-09-05T14:54:46Z</time>
      </trkpt>
      <trkpt lat="49.65224" lon="4.98956">
        <ele>165.48</ele>
        <time>2018-09-05T14:55:00Z</time>
      </trkpt>
      <trkpt lat="49.6521" lon="4.98943">
        <ele>165.48</ele>
        <time>2018-09-05T14:55:14Z</time>
      </trkpt>
      <trkpt lat="49.65197" lon="4.98929">
        <ele>165.48</ele>
        <time>2018-09-05T14:55:29Z</time>
      </trkpt>
      <trkpt lat="49.65184" lon="4.98915">
        <ele>165.96</ele>
        <time>2018-09-05T14:55:44Z</time>
      </trkpt>
      <trkpt lat="49.6517" lon="4.98899">
        <ele>166.45</ele>
        <time>2018-09-05T14:56:00Z</time>
      </trkpt>
      <trkpt lat="49.65157" lon="4.98887">
        <ele>165.96</ele>
        <time>2018-09-05T14:56:15Z</time>
      </trkpt>
      <trkpt lat="49.65143" lon="4.98873">
        <ele>166.45</ele>
        <time>2018-09-05T14:56:31Z</time>
      </trkpt>
      <trkpt lat="49.6513" lon="4.9886">
        <ele>166.93</ele>
        <time>2018-09-05T14:56:45Z</time>
      </trkpt>
      <trkpt lat="49.65114" lon="4.98844">
        <ele>167.41</ele>
        <time>2018-09-05T14:57:01Z</time>
      </trkpt>
      <trkpt lat="49.65103" lon="4.98834">
        <ele>167.41</ele>
        <time>2018-09-05T14:57:13Z</time>
      </trkpt>
      <trkpt lat="49.65099" lon="4.98828">
        <ele>167.89</ele>
        <time>2018-09-05T14:57:17Z</time>
      </trkpt>
      <trkpt lat="49.65081" lon="4.98815">
        <ele>167.89</ele>
        <time>2018-09-05T14:57:35Z</time>
      </trkpt>
      <trkpt lat="49.65067" lon="4.98803">
        <ele>167.41</ele>
        <time>2018-09-05T14:57:50Z</time>
      </trkpt>
      <trkpt lat="49.6505" lon="4.98788">
        <ele>166.93</ele>
        <time>2018-09-05T14:58:08Z</time>
      </trkpt>
      <trkpt lat="49.65035" lon="4.98776">
        <ele>165.96</ele>
        <time>2018-09-05T14:58:23Z</time>
      </trkpt>
      <trkpt lat="49.65022" lon="4.98762">
        <ele>165</ele>
        <time>2018-09-05T14:58:37Z</time>
      </trkpt>
      <trkpt lat="49.65008" lon="4.9875">
        <ele>165</ele>
        <time>2018-09-05T14:58:51Z</time>
      </trkpt>
      <trkpt lat="49.64997" lon="4.98741">
        <ele>164.52</ele>
        <time>2018-09-05T14:59:04Z</time>
      </trkpt>
      <trkpt lat="49.64989" lon="4.98733">
        <ele>164.52</ele>
        <time>2018-09-05T14:59:11Z</time>
      </trkpt>
      <trkpt lat="49.64975" lon="4.98719">
        <ele>164.04</ele>
        <time>2018-09-05T14:59:27Z</time>
      </trkpt>
      <trkpt lat="49.64963" lon="4.98709">
        <ele>160.68</ele>
        <time>2018-09-05T14:59:37Z</time>
      </trkpt>
      <trkpt lat="49.64955" lon="4.98702">
        <ele>160.2</ele>
        <time>2018-09-05T14:59:46Z</time>
      </trkpt>
      <trkpt lat="49.64951" lon="4.98702">
        <ele>159.24</ele>
        <time>2018-09-05T14:59:57Z</time>
      </trkpt>
      <trkpt lat="49.6495" lon="4.98702">
        <ele>158.75</ele>
        <time>2018-09-05T15:00:17Z</time>
      </trkpt>
      <trkpt lat="49.6495" lon="4.98702">
        <ele>158.75</ele>
        <time>2018-09-05T15:00:52Z</time>
      </trkpt>
      <trkpt lat="49.6495" lon="4.98703">
        <ele>158.75</ele>
        <time>2018-09-05T15:01:25Z</time>
      </trkpt>
      <trkpt lat="49.6495" lon="4.98703">
        <ele>158.75</ele>
        <time>2018-09-05T15:02:01Z</time>
      </trkpt>
      <trkpt lat="49.6495" lon="4.98704">
        <ele>157.31</ele>
        <time>2018-09-05T15:02:38Z</time>
      </trkpt>
      <trkpt lat="49.6495" lon="4.98704">
        <ele>157.79</ele>
        <time>2018-09-05T15:03:10Z</time>
      </trkpt>
      <trkpt lat="49.6495" lon="4.98704">
        <ele>157.31</ele>
        <time>2018-09-05T15:03:45Z</time>
      </trkpt>
      <trkpt lat="49.64949" lon="4.98705">
        <ele>157.79</ele>
        <time>2018-09-05T15:04:15Z</time>
      </trkpt>
      <trkpt lat="49.6495" lon="4.98704">
        <ele>158.27</ele>
        <time>2018-09-05T15:04:40Z</time>
      </trkpt>
      <trkpt lat="49.6495" lon="4.98703">
        <ele>157.79</ele>
        <time>2018-09-05T15:05:12Z</time>
      </trkpt>
      <trkpt lat="49.6495" lon="4.98702">
        <ele>157.79</ele>
        <time>2018-09-05T15:05:24Z</time>
      </trkpt>
      <trkpt lat="49.6495" lon="4.98702">
        <ele>156.83</ele>
        <time>2018-09-05T15:05:49Z</time>
      </trkpt>
      <trkpt lat="49.6495" lon="4.98702">
        <ele>156.83</ele>
        <time>2018-09-05T15:06:08Z</time>
      </trkpt>
      <trkpt lat="49.6495" lon="4.98702">
        <ele>157.79</ele>
        <time>2018-09-05T15:06:33Z</time>
      </trkpt>
      <trkpt lat="49.6495" lon="4.987">
        <ele>157.79</ele>
        <time>2018-09-05T15:06:41Z</time>
      </trkpt>
      <trkpt lat="49.64939" lon="4.98687">
        <ele>160.2</ele>
        <time>2018-09-05T15:06:56Z</time>
      </trkpt>
      <trkpt lat="49.64932" lon="4.98682">
        <ele>162.6</ele>
        <time>2018-09-05T15:07:05Z</time>
      </trkpt>
      <trkpt lat="49.64927" lon="4.98681">
        <ele>162.6</ele>
        <time>2018-09-05T15:07:09Z</time>
      </trkpt>
      <trkpt lat="49.64917" lon="4.98679">
        <ele>163.08</ele>
        <time>2018-09-05T15:07:22Z</time>
      </trkpt>
      <trkpt lat="49.64908" lon="4.98675">
        <ele>164.04</ele>
        <time>2018-09-05T15:07:39Z</time>
      </trkpt>
      <trkpt lat="49.64895" lon="4.98666">
        <ele>164.52</ele>
        <time>2018-09-05T15:07:54Z</time>
      </trkpt>
      <trkpt lat="49.6488" lon="4.98653">
        <ele>166.45</ele>
        <time>2018-09-05T15:08:09Z</time>
      </trkpt>
      <trkpt lat="49.64867" lon="4.98644">
        <ele>167.41</ele>
        <time>2018-09-05T15:08:22Z</time>
      </trkpt>
      <trkpt lat="49.64854" lon="4.98636">
        <ele>166.93</ele>
        <time>2018-09-05T15:08:35Z</time>
      </trkpt>
      <trkpt lat="49.64841" lon="4.98627">
        <ele>166.45</ele>
        <time>2018-09-05T15:08:49Z</time>
      </trkpt>
      <trkpt lat="49.64828" lon="4.98619">
        <ele>165.96</ele>
        <time>2018-09-05T15:09:04Z</time>
      </trkpt>
      <trkpt lat="49.64813" lon="4.98609">
        <ele>165.96</ele>
        <time>2018-09-05T15:09:19Z</time>
      </trkpt>
      <trkpt lat="49.64797" lon="4.98599">
        <ele>165.48</ele>
        <time>2018-09-05T15:09:34Z</time>
      </trkpt>
      <trkpt lat="49.64784" lon="4.98593">
        <ele>165.96</ele>
        <time>2018-09-05T15:09:47Z</time>
      </trkpt>
      <trkpt lat="49.64765" lon="4.98585">
        <ele>164.52</ele>
        <time>2018-09-05T15:10:04Z</time>
      </trkpt>
      <trkpt lat="49.64751" lon="4.98575">
        <ele>163.56</ele>
        <time>2018-09-05T15:10:18Z</time>
      </trkpt>
      <trkpt lat="49.64734" lon="4.98566">
        <ele>163.08</ele>
        <time>2018-09-05T15:10:34Z</time>
      </trkpt>
      <trkpt lat="49.64718" lon="4.98556">
        <ele>162.12</ele>
        <time>2018-09-05T15:10:49Z</time>
      </trkpt>
      <trkpt lat="49.64711" lon="4.98552">
        <ele>161.16</ele>
        <time>2018-09-05T15:11:02Z</time>
      </trkpt>
      <trkpt lat="49.64708" lon="4.98551">
        <ele>159.72</ele>
        <time>2018-09-05T15:11:21Z</time>
      </trkpt>
      <trkpt lat="49.64705" lon="4.98547">
        <ele>158.27</ele>
        <time>2018-09-05T15:11:51Z</time>
      </trkpt>
      <trkpt lat="49.6469" lon="4.98537">
        <ele>160.2</ele>
        <time>2018-09-05T15:12:07Z</time>
      </trkpt>
      <trkpt lat="49.64681" lon="4.98534">
        <ele>161.16</ele>
        <time>2018-09-05T15:12:19Z</time>
      </trkpt>
      <trkpt lat="49.64665" lon="4.98525">
        <ele>162.6</ele>
        <time>2018-09-05T15:12:35Z</time>
      </trkpt>
      <trkpt lat="49.64648" lon="4.98517">
        <ele>163.56</ele>
        <time>2018-09-05T15:12:49Z</time>
      </trkpt>
      <trkpt lat="49.64631" lon="4.98508">
        <ele>163.08</ele>
        <time>2018-09-05T15:13:05Z</time>
      </trkpt>
      <trkpt lat="49.64619" lon="4.98502">
        <ele>164.04</ele>
        <time>2018-09-05T15:13:18Z</time>
      </trkpt>
      <trkpt lat="49.64604" lon="4.98493">
        <ele>164.04</ele>
        <time>2018-09-05T15:13:32Z</time>
      </trkpt>
      <trkpt lat="49.64588" lon="4.98486">
        <ele>165.96</ele>
        <time>2018-09-05T15:13:48Z</time>
      </trkpt>
      <trkpt lat="49.64573" lon="4.98477">
        <ele>165</ele>
        <time>2018-09-05T15:14:03Z</time>
      </trkpt>
      <trkpt lat="49.64558" lon="4.9847">
        <ele>165</ele>
        <time>2018-09-05T15:14:18Z</time>
      </trkpt>
      <trkpt lat="49.64542" lon="4.98461">
        <ele>164.04</ele>
        <time>2018-09-05T15:14:33Z</time>
      </trkpt>
      <trkpt lat="49.64525" lon="4.98452">
        <ele>163.08</ele>
        <time>2018-09-05T15:14:48Z</time>
      </trkpt>
      <trkpt lat="49.64509" lon="4.98443">
        <ele>162.12</ele>
        <time>2018-09-05T15:15:04Z</time>
      </trkpt>
      <trkpt lat="49.64495" lon="4.98435">
        <ele>162.12</ele>
        <time>2018-09-05T15:15:18Z</time>
      </trkpt>
      <trkpt lat="49.6448" lon="4.98425">
        <ele>163.08</ele>
        <time>2018-09-05T15:15:34Z</time>
      </trkpt>
      <trkpt lat="49.64464" lon="4.98413">
        <ele>164.04</ele>
        <time>2018-09-05T15:15:49Z</time>
      </trkpt>
      <trkpt lat="49.64459" lon="4.98411">
        <ele>164.04</ele>
        <time>2018-09-05T15:15:53Z</time>
      </trkpt>
      <trkpt lat="49.64446" lon="4.98403">
        <ele>164.52</ele>
        <time>2018-09-05T15:16:07Z</time>
      </trkpt>
      <trkpt lat="49.64441" lon="4.98398">
        <ele>164.04</ele>
        <time>2018-09-05T15:16:13Z</time>
      </trkpt>
      <trkpt lat="49.64424" lon="4.98388">
        <ele>164.04</ele>
        <time>2018-09-05T15:16:29Z</time>
      </trkpt>
      <trkpt lat="49.64409" lon="4.98379">
        <ele>164.04</ele>
        <time>2018-09-05T15:16:44Z</time>
      </trkpt>
      <trkpt lat="49.64396" lon="4.98368">
        <ele>164.04</ele>
        <time>2018-09-05T15:16:59Z</time>
      </trkpt>
      <trkpt lat="49.64379" lon="4.98358">
        <ele>163.56</ele>
        <time>2018-09-05T15:17:15Z</time>
      </trkpt>
      <trkpt lat="49.64361" lon="4.98346">
        <ele>164.04</ele>
        <time>2018-09-05T15:17:32Z</time>
      </trkpt>
      <trkpt lat="49.64348" lon="4.9833">
        <ele>165</ele>
        <time>2018-09-05T15:17:49Z</time>
      </trkpt>
      <trkpt lat="49.64336" lon="4.98322">
        <ele>164.04</ele>
        <time>2018-09-05T15:18:03Z</time>
      </trkpt>
      <trkpt lat="49.64324" lon="4.98312">
        <ele>162.6</ele>
        <time>2018-09-05T15:18:16Z</time>
      </trkpt>
      <trkpt lat="49.64309" lon="4.983">
        <ele>164.52</ele>
        <time>2018-09-05T15:18:30Z</time>
      </trkpt>
      <trkpt lat="49.64291" lon="4.98284">
        <ele>168.37</ele>
        <time>2018-09-05T15:18:49Z</time>
      </trkpt>
      <trkpt lat="49.64279" lon="4.98271">
        <ele>168.37</ele>
        <time>2018-09-05T15:19:03Z</time>
      </trkpt>
      <trkpt lat="49.64264" lon="4.98257">
        <ele>167.41</ele>
        <time>2018-09-05T15:19:19Z</time>
      </trkpt>
      <trkpt lat="49.6425" lon="4.98245">
        <ele>167.41</ele>
        <time>2018-09-05T15:19:33Z</time>
      </trkpt>
      <trkpt lat="49.64242" lon="4.98238">
        <ele>167.41</ele>
        <time>2018-09-05T15:19:48Z</time>
      </trkpt>
      <trkpt lat="49.64242" lon="4.98237">
        <ele>166.93</ele>
        <time>2018-09-05T15:20:14Z</time>
      </trkpt>
      <trkpt lat="49.64236" lon="4.9823">
        <ele>168.37</ele>
        <time>2018-09-05T15:20:28Z</time>
      </trkpt>
      <trkpt lat="49.64229" lon="4.98223">
        <ele>170.29</ele>
        <time>2018-09-05T15:20:43Z</time>
      </trkpt>
      <trkpt lat="49.64222" lon="4.98215">
        <ele>172.21</ele>
        <time>2018-09-05T15:21:05Z</time>
      </trkpt>
      <trkpt lat="49.64209" lon="4.98201">
        <ele>174.14</ele>
        <time>2018-09-05T15:21:18Z</time>
      </trkpt>
      <trkpt lat="49.64194" lon="4.98189">
        <ele>173.66</ele>
        <time>2018-09-05T15:21:33Z</time>
      </trkpt>
      <trkpt lat="49.6418" lon="4.98178">
        <ele>174.14</ele>
        <time>2018-09-05T15:21:48Z</time>
      </trkpt>
      <trkpt lat="49.64163" lon="4.98164">
        <ele>173.66</ele>
        <time>2018-09-05T15:22:07Z</time>
      </trkpt>
      <trkpt lat="49.64149" lon="4.98149">
        <ele>172.69</ele>
        <time>2018-09-05T15:22:24Z</time>
      </trkpt>
      <trkpt lat="49.64148" lon="4.98147">
        <ele>172.21</ele>
        <time>2018-09-05T15:22:26Z</time>
      </trkpt>
      <trkpt lat="49.64131" lon="4.98129">
        <ele>170.29</ele>
        <time>2018-09-05T15:22:44Z</time>
      </trkpt>
      <trkpt lat="49.64117" lon="4.98113">
        <ele>169.33</ele>
        <time>2018-09-05T15:23:02Z</time>
      </trkpt>
      <trkpt lat="49.64101" lon="4.98097">
        <ele>168.85</ele>
        <time>2018-09-05T15:23:20Z</time>
      </trkpt>
      <trkpt lat="49.64087" lon="4.98086">
        <ele>168.37</ele>
        <time>2018-09-05T15:23:34Z</time>
      </trkpt>
      <trkpt lat="49.64072" lon="4.98071">
        <ele>167.41</ele>
        <time>2018-09-05T15:23:50Z</time>
      </trkpt>
      <trkpt lat="49.64056" lon="4.98058">
        <ele>168.85</ele>
        <time>2018-09-05T15:24:07Z</time>
      </trkpt>
      <trkpt lat="49.64042" lon="4.98043">
        <ele>170.29</ele>
        <time>2018-09-05T15:24:24Z</time>
      </trkpt>
      <trkpt lat="49.64024" lon="4.98028">
        <ele>171.73</ele>
        <time>2018-09-05T15:24:42Z</time>
      </trkpt>
      <trkpt lat="49.64011" lon="4.98015">
        <ele>172.69</ele>
        <time>2018-09-05T15:24:57Z</time>
      </trkpt>
      <trkpt lat="49.63998" lon="4.98002">
        <ele>172.69</ele>
        <time>2018-09-05T15:25:11Z</time>
      </trkpt>
      <trkpt lat="49.63979" lon="4.97985">
        <ele>171.73</ele>
        <time>2018-09-05T15:25:30Z</time>
      </trkpt>
      <trkpt lat="49.63962" lon="4.97969">
        <ele>170.29</ele>
        <time>2018-09-05T15:25:47Z</time>
      </trkpt>
      <trkpt lat="49.63946" lon="4.97954">
        <ele>170.29</ele>
        <time>2018-09-05T15:26:03Z</time>
      </trkpt>
      <trkpt lat="49.63932" lon="4.97942">
        <ele>170.77</ele>
        <time>2018-09-05T15:26:17Z</time>
      </trkpt>
      <trkpt lat="49.6392" lon="4.9793">
        <ele>170.77</ele>
        <time>2018-09-05T15:26:34Z</time>
      </trkpt>
      <trkpt lat="49.63907" lon="4.97914">
        <ele>170.77</ele>
        <time>2018-09-05T15:26:52Z</time>
      </trkpt>
      <trkpt lat="49.6389" lon="4.97899">
        <ele>171.25</ele>
        <time>2018-09-05T15:27:10Z</time>
      </trkpt>
      <trkpt lat="49.63876" lon="4.97883">
        <ele>171.25</ele>
        <time>2018-09-05T15:27:28Z</time>
      </trkpt>
      <trkpt lat="49.6386" lon="4.97864">
        <ele>173.17</ele>
        <time>2018-09-05T15:27:48Z</time>
      </trkpt>
      <trkpt lat="49.63848" lon="4.9785">
        <ele>176.06</ele>
        <time>2018-09-05T15:28:02Z</time>
      </trkpt>
      <trkpt lat="49.63837" lon="4.97841">
        <ele>179.42</ele>
        <time>2018-09-05T15:28:12Z</time>
      </trkpt>
      <trkpt lat="49.63818" lon="4.97819">
        <ele>183.27</ele>
        <time>2018-09-05T15:28:31Z</time>
      </trkpt>
      <trkpt lat="49.63804" lon="4.97805">
        <ele>182.79</ele>
        <time>2018-09-05T15:28:44Z</time>
      </trkpt>
      <trkpt lat="49.63793" lon="4.97794">
        <ele>182.31</ele>
        <time>2018-09-05T15:28:58Z</time>
      </trkpt>
      <trkpt lat="49.63778" lon="4.97779">
        <ele>182.31</ele>
        <time>2018-09-05T15:29:13Z</time>
      </trkpt>
      <trkpt lat="49.63764" lon="4.97769">
        <ele>183.75</ele>
        <time>2018-09-05T15:29:29Z</time>
      </trkpt>
      <trkpt lat="49.63749" lon="4.9776">
        <ele>183.75</ele>
        <time>2018-09-05T15:29:45Z</time>
      </trkpt>
      <trkpt lat="49.63733" lon="4.9775">
        <ele>183.75</ele>
        <time>2018-09-05T15:30:01Z</time>
      </trkpt>
      <trkpt lat="49.63718" lon="4.97739">
        <ele>186.63</ele>
        <time>2018-09-05T15:30:17Z</time>
      </trkpt>
      <trkpt lat="49.63702" lon="4.97726">
        <ele>188.08</ele>
        <time>2018-09-05T15:30:34Z</time>
      </trkpt>
      <trkpt lat="49.63683" lon="4.97714">
        <ele>187.59</ele>
        <time>2018-09-05T15:30:52Z</time>
      </trkpt>
      <trkpt lat="49.63667" lon="4.97703">
        <ele>186.15</ele>
        <time>2018-09-05T15:31:07Z</time>
      </trkpt>
      <trkpt lat="49.63654" lon="4.97695">
        <ele>184.23</ele>
        <time>2018-09-05T15:31:21Z</time>
      </trkpt>
      <trkpt lat="49.63635" lon="4.97681">
        <ele>180.38</ele>
        <time>2018-09-05T15:31:41Z</time>
      </trkpt>
      <trkpt lat="49.63618" lon="4.97665">
        <ele>178.94</ele>
        <time>2018-09-05T15:31:58Z</time>
      </trkpt>
      <trkpt lat="49.63612" lon="4.97665">
        <ele>178.46</ele>
        <time>2018-09-05T15:32:06Z</time>
      </trkpt>
      <trkpt lat="49.63594" lon="4.97677">
        <ele>179.42</ele>
        <time>2018-09-05T15:32:23Z</time>
      </trkpt>
      <trkpt lat="49.63589" lon="4.97682">
        <ele>177.5</ele>
        <time>2018-09-05T15:32:29Z</time>
      </trkpt>
      <trkpt lat="49.63574" lon="4.977">
        <ele>175.58</ele>
        <time>2018-09-05T15:32:47Z</time>
      </trkpt>
      <trkpt lat="49.63559" lon="4.97714">
        <ele>176.06</ele>
        <time>2018-09-05T15:33:03Z</time>
      </trkpt>
      <trkpt lat="49.63546" lon="4.97735">
        <ele>173.17</ele>
        <time>2018-09-05T15:33:21Z</time>
      </trkpt>
      <trkpt lat="49.63537" lon="4.97759">
        <ele>172.69</ele>
        <time>2018-09-05T15:33:39Z</time>
      </trkpt>
      <trkpt lat="49.63524" lon="4.97781">
        <ele>172.21</ele>
        <time>2018-09-05T15:33:57Z</time>
      </trkpt>
      <trkpt lat="49.63512" lon="4.97796">
        <ele>171.25</ele>
        <time>2018-09-05T15:34:13Z</time>
      </trkpt>
      <trkpt lat="49.63498" lon="4.97812">
        <ele>172.21</ele>
        <time>2018-09-05T15:34:29Z</time>
      </trkpt>
      <trkpt lat="49.63486" lon="4.97831">
        <ele>169.81</ele>
        <time>2018-09-05T15:34:44Z</time>
      </trkpt>
      <trkpt lat="49.63474" lon="4.97851">
        <ele>168.85</ele>
        <time>2018-09-05T15:34:59Z</time>
      </trkpt>
      <trkpt lat="49.63466" lon="4.97862">
        <ele>169.81</ele>
        <time>2018-09-05T15:35:13Z</time>
      </trkpt>
      <trkpt lat="49.63465" lon="4.97864">
        <ele>170.29</ele>
        <time>2018-09-05T15:35:34Z</time>
      </trkpt>
      <trkpt lat="49.63465" lon="4.97866">
        <ele>169.81</ele>
        <time>2018-09-05T15:36:00Z</time>
      </trkpt>
      <trkpt lat="49.63464" lon="4.97867">
        <ele>169.81</ele>
        <time>2018-09-05T15:36:18Z</time>
      </trkpt>
      <trkpt lat="49.63463" lon="4.9787">
        <ele>169.81</ele>
        <time>2018-09-05T15:36:20Z</time>
      </trkpt>
      <trkpt lat="49.63448" lon="4.97888">
        <ele>172.21</ele>
        <time>2018-09-05T15:36:37Z</time>
      </trkpt>
      <trkpt lat="49.63433" lon="4.979">
        <ele>175.58</ele>
        <time>2018-09-05T15:36:53Z</time>
      </trkpt>
      <trkpt lat="49.63416" lon="4.97907">
        <ele>178.46</ele>
        <time>2018-09-05T15:37:09Z</time>
      </trkpt>
      <trkpt lat="49.63415" lon="4.97909">
        <ele>178.94</ele>
        <time>2018-09-05T15:37:11Z</time>
      </trkpt>
      <trkpt lat="49.63409" lon="4.97914">
        <ele>179.42</ele>
        <time>2018-09-05T15:37:17Z</time>
      </trkpt>
      <trkpt lat="49.63399" lon="4.97923">
        <ele>177.98</ele>
        <time>2018-09-05T15:37:28Z</time>
      </trkpt>
      <trkpt lat="49.63388" lon="4.97935">
        <ele>178.46</ele>
        <time>2018-09-05T15:37:42Z</time>
      </trkpt>
      <trkpt lat="49.63388" lon="4.9795">
        <ele>177.98</ele>
        <time>2018-09-05T15:37:54Z</time>
      </trkpt>
      <trkpt lat="49.63389" lon="4.97953">
        <ele>177.98</ele>
        <time>2018-09-05T15:37:57Z</time>
      </trkpt>
      <trkpt lat="49.63397" lon="4.97973">
        <ele>175.58</ele>
        <time>2018-09-05T15:38:11Z</time>
      </trkpt>
      <trkpt lat="49.63408" lon="4.97991">
        <ele>174.62</ele>
        <time>2018-09-05T15:38:26Z</time>
      </trkpt>
      <trkpt lat="49.63418" lon="4.98008">
        <ele>174.14</ele>
        <time>2018-09-05T15:38:41Z</time>
      </trkpt>
      <trkpt lat="49.63426" lon="4.98026">
        <ele>174.62</ele>
        <time>2018-09-05T15:38:56Z</time>
      </trkpt>
      <trkpt lat="49.63438" lon="4.98041">
        <ele>175.1</ele>
        <time>2018-09-05T15:39:11Z</time>
      </trkpt>
      <trkpt lat="49.63445" lon="4.98045">
        <ele>176.54</ele>
        <time>2018-09-05T15:39:23Z</time>
      </trkpt>
      <trkpt lat="49.63448" lon="4.98045">
        <ele>179.42</ele>
        <time>2018-09-05T15:39:30Z</time>
      </trkpt>
    </trkseg>
  </trk>
</gpx>